Cuevas-Agulló, Emilio (2013): Radiosonde measurements from station Izaña (2013-05) [dataset]. Izaña Atmospheric Research Center, Meteorological State Agency of Spain, PANGAEA, https://doi.org/10.1594/PANGAEA.815465
Always quote citation above when using data! You can download the citation in several formats below.
Published: 2013-06-11 • DOI registered: 2013-07-09
Other version:
Cuevas-Agulló, Emilio (2013): BSRN Station-to-archive file for station Izana (2013-05). ftp://ftp.bsrn.awi.de/iza/iza0513.dat.gz
Project(s):
Coverage:
Latitude: 28.309350 * Longitude: -16.499260
Date/Time Start: 2013-05-01T12:00:00 * Date/Time End: 2013-05-31T12:00:00
Minimum ALTITUDE: 105 m * Maximum ALTITUDE: 30679 m
Event(s):
IZA (Izaña) * Latitude: 28.309350 * Longitude: -16.499260 * Date/Time: 2009-03-01T00:00:00 * Elevation: 2372.9 m * Location: Tenerife, Spain * Method/Device: Monitoring station (MONS) * Comment: BSRN station no: 61; Surface type: rock; Topography type: mountain top, rural; Station scientist: Carlos J. Torres (ctorresg@aemet.es)
Comment:
Start location: Guimar; Distance from radiation site: 5 km
Parameter(s):
| # | Name | Short Name | Unit | Principal Investigator | Method/Device | Comment |
|---|---|---|---|---|---|---|
| 1 | DATE/TIME | Date/Time | Geocode | |||
| 2 | ALTITUDE | Altitude | m | Geocode | ||
| 3 | Pressure, at given altitude | PPPP | hPa | Cuevas-Agulló, Emilio | Radiosonde, Vaisala, RS92 | |
| 4 | Temperature, air | TTT | °C | Cuevas-Agulló, Emilio | Radiosonde, Vaisala, RS92 | |
| 5 | Dew/frost point | TdTdTd | °C | Cuevas-Agulló, Emilio | Radiosonde, Vaisala, RS92 | |
| 6 | Wind direction | dd | deg | Cuevas-Agulló, Emilio | Radiosonde, Vaisala, RS92 | |
| 7 | Wind speed | ff | m/s | Cuevas-Agulló, Emilio | Radiosonde, Vaisala, RS92 |
License:
Size:
666621 data points
Data
| 1 Date/Time | 2 Altitude [m] | 3 PPPP [hPa] | 4 TTT [°C] | 5 TdTdTd [°C] | 6 dd [deg] | 7 ff [m/s] |
|---|---|---|---|---|---|---|
| 2013-05-01T12:00 | 105 | 1007 | 16.9 | 8.3 | 0 | 0 |
| 2013-05-01T12:00 | 115 | 1005 | 16.9 | 7.6 | 356 | 1 |
| 2013-05-01T12:00 | 127 | 1004 | 16.9 | 7.6 | 2 | 1 |
| 2013-05-01T12:00 | 139 | 1003 | 17.0 | 7.8 | 3 | 1 |
| 2013-05-01T12:00 | 151 | 1001 | 17.0 | 7.9 | 6 | 1 |
| 2013-05-01T12:00 | 162 | 1000 | 17.0 | 8.0 | 9 | 1 |
| 2013-05-01T12:00 | 172 | 999 | 16.9 | 8.0 | 12 | 1 |
| 2013-05-01T12:00 | 183 | 997 | 16.8 | 8.0 | 15 | 2 |
| 2013-05-01T12:00 | 193 | 996 | 16.8 | 8.0 | 17 | 2 |
| 2013-05-01T12:00 | 204 | 995 | 16.7 | 8.0 | 19 | 2 |
| 2013-05-01T12:00 | 215 | 994 | 16.7 | 8.0 | 20 | 2 |
| 2013-05-01T12:00 | 227 | 992 | 16.7 | 8.0 | 22 | 2 |
| 2013-05-01T12:00 | 239 | 991 | 16.8 | 8.0 | 23 | 2 |
| 2013-05-01T12:00 | 250 | 990 | 16.8 | 7.9 | 23 | 2 |
| 2013-05-01T12:00 | 261 | 988 | 16.8 | 7.9 | 24 | 2 |
| 2013-05-01T12:00 | 272 | 987 | 16.7 | 7.8 | 24 | 2 |
| 2013-05-01T12:00 | 283 | 986 | 16.7 | 7.7 | 24 | 2 |
| 2013-05-01T12:00 | 294 | 984 | 16.6 | 7.7 | 24 | 2 |
| 2013-05-01T12:00 | 306 | 983 | 16.5 | 7.6 | 25 | 2 |
| 2013-05-01T12:00 | 319 | 982 | 16.4 | 7.6 | 25 | 2 |
| 2013-05-01T12:00 | 333 | 980 | 16.3 | 7.5 | 25 | 2 |
| 2013-05-01T12:00 | 344 | 979 | 16.2 | 7.5 | 26 | 2 |
| 2013-05-01T12:00 | 357 | 977 | 16.1 | 7.5 | 28 | 2 |
| 2013-05-01T12:00 | 370 | 976 | 16.0 | 7.5 | 29 | 2 |
| 2013-05-01T12:00 | 383 | 974 | 15.8 | 7.4 | 31 | 2 |
| 2013-05-01T12:00 | 396 | 973 | 15.7 | 7.4 | 34 | 2 |
| 2013-05-01T12:00 | 408 | 971 | 15.7 | 7.4 | 37 | 2 |
| 2013-05-01T12:00 | 419 | 970 | 15.6 | 7.3 | 39 | 2 |
| 2013-05-01T12:00 | 430 | 969 | 15.5 | 7.2 | 42 | 2 |
| 2013-05-01T12:00 | 443 | 967 | 15.4 | 7.1 | 45 | 2 |
| 2013-05-01T12:00 | 456 | 966 | 15.3 | 7.0 | 48 | 2 |
| 2013-05-01T12:00 | 468 | 965 | 15.2 | 6.9 | 52 | 2 |
| 2013-05-01T12:00 | 481 | 963 | 15.1 | 6.7 | 55 | 2 |
| 2013-05-01T12:00 | 494 | 962 | 15.1 | 6.4 | 58 | 2 |
| 2013-05-01T12:00 | 506 | 960 | 15.0 | 6.3 | 61 | 2 |
| 2013-05-01T12:00 | 519 | 959 | 14.9 | 6.2 | 64 | 2 |
| 2013-05-01T12:00 | 532 | 957 | 14.8 | 6.1 | 67 | 2 |
| 2013-05-01T12:00 | 544 | 956 | 14.7 | 6.1 | 71 | 2 |
| 2013-05-01T12:00 | 556 | 955 | 14.6 | 6.1 | 74 | 2 |
| 2013-05-01T12:00 | 570 | 953 | 14.5 | 6.2 | 77 | 2 |
| 2013-05-01T12:00 | 583 | 951 | 14.4 | 6.3 | 81 | 2 |
| 2013-05-01T12:00 | 595 | 950 | 14.3 | 6.2 | 85 | 2 |
| 2013-05-01T12:00 | 606 | 949 | 14.2 | 6.1 | 89 | 2 |
| 2013-05-01T12:00 | 618 | 948 | 14.1 | 6.2 | 94 | 2 |
| 2013-05-01T12:00 | 629 | 946 | 14.0 | 6.2 | 99 | 2 |
| 2013-05-01T12:00 | 642 | 945 | 13.8 | 6.4 | 105 | 1 |
| 2013-05-01T12:00 | 656 | 943 | 13.7 | 6.4 | 111 | 1 |
| 2013-05-01T12:00 | 669 | 942 | 13.6 | 6.4 | 117 | 1 |
| 2013-05-01T12:00 | 683 | 940 | 13.4 | 6.4 | 125 | 1 |
| 2013-05-01T12:00 | 696 | 939 | 13.3 | 6.3 | 131 | 1 |
| 2013-05-01T12:00 | 710 | 937 | 13.2 | 6.2 | 138 | 1 |
| 2013-05-01T12:00 | 723 | 936 | 13.1 | 6.1 | 144 | 1 |
| 2013-05-01T12:00 | 737 | 934 | 12.9 | 6.0 | 148 | 1 |
| 2013-05-01T12:00 | 752 | 933 | 12.8 | 6.0 | 151 | 1 |
| 2013-05-01T12:00 | 766 | 931 | 12.6 | 5.9 | 154 | 1 |
| 2013-05-01T12:00 | 780 | 930 | 12.5 | 6.0 | 154 | 1 |
| 2013-05-01T12:00 | 793 | 928 | 12.4 | 6.1 | 154 | 1 |
| 2013-05-01T12:00 | 806 | 927 | 12.2 | 6.1 | 153 | 1 |
| 2013-05-01T12:00 | 820 | 925 | 12.1 | 6.1 | 151 | 1 |
| 2013-05-01T12:00 | 833 | 924 | 12.0 | 6.0 | 150 | 1 |
| 2013-05-01T12:00 | 846 | 922 | 11.8 | 6.0 | 149 | 1 |
| 2013-05-01T12:00 | 860 | 921 | 11.7 | 6.0 | 147 | 1 |
| 2013-05-01T12:00 | 873 | 919 | 11.6 | 6.0 | 146 | 1 |
| 2013-05-01T12:00 | 887 | 918 | 11.5 | 6.0 | 146 | 1 |
| 2013-05-01T12:00 | 900 | 916 | 11.3 | 6.0 | 146 | 1 |
| 2013-05-01T12:00 | 913 | 915 | 11.2 | 6.0 | 147 | 1 |
| 2013-05-01T12:00 | 926 | 913 | 11.1 | 6.1 | 147 | 1 |
| 2013-05-01T12:00 | 940 | 912 | 10.9 | 6.1 | 147 | 1 |
| 2013-05-01T12:00 | 954 | 910 | 10.8 | 6.2 | 147 | 1 |
| 2013-05-01T12:00 | 969 | 909 | 10.7 | 6.2 | 146 | 1 |
| 2013-05-01T12:00 | 984 | 907 | 10.5 | 6.2 | 145 | 1 |
| 2013-05-01T12:00 | 996 | 906 | 10.4 | 6.2 | 143 | 1 |
| 2013-05-01T12:00 | 1009 | 904 | 10.3 | 6.1 | 141 | 1 |
| 2013-05-01T12:00 | 1022 | 903 | 10.1 | 6.1 | 139 | 1 |
| 2013-05-01T12:00 | 1035 | 902 | 10.0 | 5.9 | 138 | 2 |
| 2013-05-01T12:00 | 1049 | 900 | 9.9 | 5.8 | 136 | 2 |
| 2013-05-01T12:00 | 1063 | 899 | 9.8 | 5.6 | 134 | 2 |
| 2013-05-01T12:00 | 1078 | 897 | 9.6 | 5.5 | 133 | 2 |
| 2013-05-01T12:00 | 1092 | 895 | 9.5 | 5.4 | 133 | 2 |
| 2013-05-01T12:00 | 1105 | 894 | 9.4 | 5.4 | 133 | 2 |
| 2013-05-01T12:00 | 1119 | 893 | 9.2 | 5.5 | 133 | 2 |
| 2013-05-01T12:00 | 1132 | 891 | 9.1 | 5.5 | 134 | 2 |
| 2013-05-01T12:00 | 1145 | 890 | 9.0 | 5.6 | 135 | 2 |
| 2013-05-01T12:00 | 1159 | 888 | 8.8 | 5.8 | 136 | 2 |
| 2013-05-01T12:00 | 1173 | 887 | 8.7 | 5.8 | 138 | 2 |
| 2013-05-01T12:00 | 1187 | 885 | 8.6 | 5.8 | 139 | 2 |
| 2013-05-01T12:00 | 1200 | 884 | 8.5 | 5.8 | 140 | 2 |
| 2013-05-01T12:00 | 1212 | 882 | 8.3 | 5.9 | 141 | 2 |
| 2013-05-01T12:00 | 1225 | 881 | 8.2 | 5.9 | 141 | 2 |
| 2013-05-01T12:00 | 1238 | 880 | 8.1 | 5.9 | 141 | 2 |
| 2013-05-01T12:00 | 1251 | 878 | 8.0 | 5.9 | 140 | 2 |
| 2013-05-01T12:00 | 1264 | 877 | 7.9 | 5.8 | 138 | 2 |
| 2013-05-01T12:00 | 1277 | 876 | 7.8 | 5.6 | 136 | 2 |
| 2013-05-01T12:00 | 1288 | 874 | 7.8 | 5.4 | 133 | 1 |
| 2013-05-01T12:00 | 1300 | 873 | 7.7 | 5.2 | 129 | 1 |
| 2013-05-01T12:00 | 1312 | 872 | 7.6 | 5.0 | 124 | 1 |
| 2013-05-01T12:00 | 1325 | 871 | 7.5 | 4.9 | 119 | 1 |
| 2013-05-01T12:00 | 1339 | 869 | 7.4 | 4.8 | 114 | 1 |
| 2013-05-01T12:00 | 1352 | 868 | 7.3 | 4.8 | 109 | 1 |
| 2013-05-01T12:00 | 1364 | 866 | 7.1 | 4.8 | 104 | 1 |
| 2013-05-01T12:00 | 1376 | 865 | 7.0 | 4.8 | 101 | 1 |
| 2013-05-01T12:00 | 1389 | 864 | 6.9 | 4.7 | 99 | 1 |
| 2013-05-01T12:00 | 1402 | 862 | 6.8 | 4.6 | 98 | 1 |
| 2013-05-01T12:00 | 1415 | 861 | 6.6 | 4.6 | 99 | 1 |
| 2013-05-01T12:00 | 1427 | 860 | 6.5 | 4.6 | 102 | 1 |
| 2013-05-01T12:00 | 1439 | 859 | 6.4 | 4.6 | 105 | 1 |
| 2013-05-01T12:00 | 1452 | 857 | 6.3 | 4.6 | 110 | 1 |
| 2013-05-01T12:00 | 1465 | 856 | 6.2 | 4.5 | 116 | 1 |
| 2013-05-01T12:00 | 1478 | 854 | 6.1 | 4.4 | 123 | 1 |
| 2013-05-01T12:00 | 1491 | 853 | 5.9 | 4.4 | 130 | 1 |
| 2013-05-01T12:00 | 1503 | 852 | 5.8 | 4.3 | 136 | 1 |
| 2013-05-01T12:00 | 1515 | 851 | 5.7 | 4.3 | 143 | 1 |
| 2013-05-01T12:00 | 1527 | 849 | 5.6 | 4.3 | 149 | 1 |
| 2013-05-01T12:00 | 1540 | 848 | 5.5 | 4.4 | 154 | 1 |
| 2013-05-01T12:00 | 1553 | 847 | 5.3 | 4.4 | 158 | 1 |
| 2013-05-01T12:00 | 1565 | 845 | 5.2 | 4.4 | 162 | 1 |
| 2013-05-01T12:00 | 1578 | 844 | 5.1 | 4.3 | 165 | 1 |
| 2013-05-01T12:00 | 1590 | 843 | 5.0 | 4.3 | 168 | 1 |
| 2013-05-01T12:00 | 1603 | 842 | 4.9 | 4.3 | 170 | 1 |
| 2013-05-01T12:00 | 1616 | 840 | 4.8 | 4.3 | 171 | 1 |
| 2013-05-01T12:00 | 1628 | 839 | 4.7 | 4.3 | 171 | 1 |
| 2013-05-01T12:00 | 1641 | 838 | 4.6 | 4.2 | 171 | 1 |
| 2013-05-01T12:00 | 1653 | 836 | 4.4 | 4.1 | 169 | 1 |
| 2013-05-01T12:00 | 1664 | 835 | 4.4 | 4.1 | 166 | 1 |
| 2013-05-01T12:00 | 1675 | 834 | 4.3 | 4.0 | 162 | 1 |
| 2013-05-01T12:00 | 1685 | 833 | 4.2 | 3.9 | 158 | 1 |
| 2013-05-01T12:00 | 1696 | 832 | 4.1 | 3.6 | 153 | 1 |
| 2013-05-01T12:00 | 1707 | 831 | 3.9 | 3.4 | 147 | 1 |
| 2013-05-01T12:00 | 1717 | 830 | 3.8 | 3.3 | 142 | 1 |
| 2013-05-01T12:00 | 1728 | 829 | 3.8 | 3.2 | 139 | 1 |
| 2013-05-01T12:00 | 1738 | 828 | 3.8 | 2.7 | 137 | 1 |
| 2013-05-01T12:00 | 1749 | 827 | 4.0 | 2.4 | 137 | 1 |
| 2013-05-01T12:00 | 1760 | 825 | 4.3 | 2.1 | 139 | 1 |
| 2013-05-01T12:00 | 1771 | 824 | 4.5 | 1.8 | 143 | 1 |
| 2013-05-01T12:00 | 1782 | 823 | 4.6 | 1.4 | 150 | 1 |
| 2013-05-01T12:00 | 1794 | 822 | 4.7 | 0.9 | 360 | 1 |
| 2013-05-01T12:00 | 1804 | 821 | 4.7 | 0.6 | 360 | 1 |
| 2013-05-01T12:00 | 1813 | 820 | 4.7 | 0.2 | 360 | 1 |
| 2013-05-01T12:00 | 1822 | 819 | 4.8 | -0.2 | 360 | 1 |
| 2013-05-01T12:00 | 1830 | 818 | 4.8 | -0.6 | 360 | 1 |
| 2013-05-01T12:00 | 1839 | 818 | 4.9 | -0.8 | 360 | 1 |
| 2013-05-01T12:00 | 1850 | 816 | 5.0 | -1.3 | 250 | 1 |
| 2013-05-01T12:00 | 1860 | 815 | 5.5 | -2.3 | 266 | 1 |
| 2013-05-01T12:00 | 1871 | 814 | 5.8 | -3.0 | 282 | 1 |
| 2013-05-01T12:00 | 1881 | 813 | 5.9 | -3.6 | 298 | 1 |
| 2013-05-01T12:00 | 1893 | 812 | 6.1 | -4.5 | 311 | 1 |
| 2013-05-01T12:00 | 1904 | 811 | 6.3 | -5.2 | 321 | 1 |
| 2013-05-01T12:00 | 1916 | 810 | 6.4 | -6.0 | 328 | 1 |
| 2013-05-01T12:00 | 1928 | 809 | 6.6 | -7.0 | 333 | 2 |
| 2013-05-01T12:00 | 1941 | 807 | 6.9 | -8.2 | 336 | 2 |
| 2013-05-01T12:00 | 1953 | 806 | 7.0 | -9.1 | 338 | 2 |
| 2013-05-01T12:00 | 1968 | 805 | 7.1 | -9.7 | 339 | 3 |
| 2013-05-01T12:00 | 1982 | 803 | 7.1 | -10.2 | 340 | 3 |
| 2013-05-01T12:00 | 1998 | 802 | 7.0 | -10.9 | 340 | 4 |
| 2013-05-01T12:00 | 2015 | 800 | 7.0 | -12.3 | 340 | 4 |
| 2013-05-01T12:00 | 2030 | 799 | 7.0 | -13.3 | 339 | 4 |
| 2013-05-01T12:00 | 2045 | 797 | 6.9 | -14.1 | 339 | 5 |
| 2013-05-01T12:00 | 2060 | 796 | 6.8 | -13.3 | 338 | 5 |
| 2013-05-01T12:00 | 2073 | 795 | 6.8 | -13.6 | 337 | 5 |
| 2013-05-01T12:00 | 2084 | 793 | 6.8 | -14.6 | 337 | 6 |
| 2013-05-01T12:00 | 2096 | 792 | 6.7 | -15.3 | 336 | 6 |
| 2013-05-01T12:00 | 2109 | 791 | 6.7 | -15.4 | 335 | 6 |
| 2013-05-01T12:00 | 2122 | 790 | 6.5 | -15.0 | 334 | 7 |
| 2013-05-01T12:00 | 2134 | 789 | 6.4 | -14.8 | 334 | 7 |
| 2013-05-01T12:00 | 2145 | 788 | 6.4 | -15.6 | 333 | 7 |
| 2013-05-01T12:00 | 2155 | 787 | 6.4 | -16.4 | 332 | 8 |
| 2013-05-01T12:00 | 2164 | 786 | 6.3 | -16.5 | 331 | 8 |
| 2013-05-01T12:00 | 2176 | 785 | 6.2 | -15.9 | 331 | 8 |
| 2013-05-01T12:00 | 2187 | 784 | 6.1 | -16.0 | 330 | 8 |
| 2013-05-01T12:00 | 2198 | 783 | 6.1 | -16.0 | 329 | 9 |
| 2013-05-01T12:00 | 2209 | 781 | 6.0 | -15.9 | 328 | 9 |
| 2013-05-01T12:00 | 2220 | 780 | 5.9 | -15.8 | 327 | 9 |
| 2013-05-01T12:00 | 2233 | 779 | 5.8 | -16.0 | 327 | 10 |
| 2013-05-01T12:00 | 2247 | 778 | 5.9 | -16.5 | 326 | 10 |
| 2013-05-01T12:00 | 2260 | 777 | 5.8 | -16.8 | 325 | 10 |
| 2013-05-01T12:00 | 2272 | 775 | 5.7 | -16.9 | 324 | 10 |
| 2013-05-01T12:00 | 2283 | 774 | 5.6 | -17.0 | 324 | 10 |
| 2013-05-01T12:00 | 2294 | 773 | 5.5 | -17.3 | 323 | 11 |
| 2013-05-01T12:00 | 2303 | 772 | 5.6 | -18.0 | 323 | 11 |
| 2013-05-01T12:00 | 2313 | 772 | 6.1 | -20.1 | 323 | 11 |
| 2013-05-01T12:00 | 2322 | 771 | 6.6 | -22.2 | 322 | 11 |
| 2013-05-01T12:00 | 2332 | 770 | 6.8 | -22.7 | 322 | 11 |
| 2013-05-01T12:00 | 2342 | 769 | 6.9 | -22.7 | 322 | 11 |
| 2013-05-01T12:00 | 2352 | 768 | 6.9 | -22.4 | 322 | 11 |
| 2013-05-01T12:00 | 2364 | 767 | 6.9 | -21.8 | 322 | 11 |
| 2013-05-01T12:00 | 2375 | 766 | 6.8 | -21.7 | 322 | 11 |
| 2013-05-01T12:00 | 2386 | 765 | 6.8 | -21.7 | 322 | 11 |
| 2013-05-01T12:00 | 2398 | 764 | 6.7 | -21.8 | 323 | 11 |
| 2013-05-01T12:00 | 2409 | 763 | 6.7 | -21.8 | 323 | 10 |
| 2013-05-01T12:00 | 2420 | 762 | 6.6 | -21.9 | 324 | 10 |
| 2013-05-01T12:00 | 2432 | 760 | 6.6 | -21.9 | 324 | 10 |
| 2013-05-01T12:00 | 2443 | 759 | 6.5 | -21.8 | 325 | 10 |
| 2013-05-01T12:00 | 2455 | 758 | 6.5 | -21.7 | 326 | 10 |
| 2013-05-01T12:00 | 2467 | 757 | 6.5 | -21.9 | 327 | 10 |
| 2013-05-01T12:00 | 2480 | 756 | 6.5 | -22.5 | 327 | 10 |
| 2013-05-01T12:00 | 2493 | 755 | 6.5 | -23.4 | 329 | 10 |
| 2013-05-01T12:00 | 2505 | 754 | 6.5 | -24.1 | 330 | 10 |
| 2013-05-01T12:00 | 2517 | 753 | 6.5 | -24.5 | 331 | 10 |
| 2013-05-01T12:00 | 2529 | 751 | 6.6 | -25.1 | 332 | 10 |
| 2013-05-01T12:00 | 2541 | 750 | 6.6 | -25.5 | 333 | 10 |
| 2013-05-01T12:00 | 2553 | 749 | 6.6 | -25.8 | 334 | 10 |
| 2013-05-01T12:00 | 2565 | 748 | 6.6 | -26.4 | 335 | 10 |
| 2013-05-01T12:00 | 2577 | 747 | 6.6 | -26.9 | 336 | 10 |
| 2013-05-01T12:00 | 2589 | 746 | 6.6 | -27.1 | 337 | 10 |
| 2013-05-01T12:00 | 2601 | 745 | 6.6 | -27.4 | 338 | 10 |
| 2013-05-01T12:00 | 2613 | 744 | 6.5 | -27.6 | 338 | 10 |
| 2013-05-01T12:00 | 2627 | 743 | 6.4 | -27.6 | 338 | 10 |
| 2013-05-01T12:00 | 2641 | 741 | 6.3 | -27.7 | 338 | 10 |
| 2013-05-01T12:00 | 2652 | 740 | 6.3 | -27.9 | 338 | 10 |
| 2013-05-01T12:00 | 2663 | 739 | 6.2 | -28.0 | 338 | 11 |
| 2013-05-01T12:00 | 2675 | 738 | 6.2 | -28.2 | 338 | 11 |
| 2013-05-01T12:00 | 2688 | 737 | 6.1 | -28.5 | 337 | 11 |
| 2013-05-01T12:00 | 2700 | 736 | 6.0 | -28.6 | 337 | 11 |
| 2013-05-01T12:00 | 2712 | 735 | 5.9 | -28.7 | 337 | 11 |
| 2013-05-01T12:00 | 2726 | 734 | 5.8 | -28.8 | 336 | 11 |
| 2013-05-01T12:00 | 2740 | 732 | 5.6 | -29.0 | 336 | 11 |
| 2013-05-01T12:00 | 2752 | 731 | 5.5 | -29.2 | 335 | 11 |
| 2013-05-01T12:00 | 2763 | 730 | 5.4 | -29.4 | 334 | 11 |
| 2013-05-01T12:00 | 2775 | 729 | 5.3 | -29.5 | 334 | 10 |
| 2013-05-01T12:00 | 2786 | 728 | 5.2 | -29.6 | 333 | 10 |
| 2013-05-01T12:00 | 2798 | 727 | 5.1 | -29.6 | 333 | 10 |
| 2013-05-01T12:00 | 2811 | 726 | 5.0 | -29.5 | 332 | 11 |
| 2013-05-01T12:00 | 2823 | 725 | 4.9 | -29.5 | 332 | 11 |
| 2013-05-01T12:00 | 2835 | 724 | 4.8 | -29.5 | 331 | 11 |
| 2013-05-01T12:00 | 2847 | 723 | 4.7 | -29.6 | 330 | 11 |
| 2013-05-01T12:00 | 2859 | 722 | 4.6 | -29.9 | 330 | 11 |
| 2013-05-01T12:00 | 2871 | 721 | 4.6 | -30.2 | 329 | 11 |
| 2013-05-01T12:00 | 2883 | 720 | 4.5 | -30.5 | 329 | 11 |
| 2013-05-01T12:00 | 2895 | 719 | 4.4 | -30.8 | 328 | 11 |
| 2013-05-01T12:00 | 2907 | 717 | 4.3 | -30.9 | 327 | 11 |
| 2013-05-01T12:00 | 2919 | 716 | 4.2 | -30.6 | 327 | 10 |
| 2013-05-01T12:00 | 2932 | 715 | 4.1 | -30.1 | 326 | 10 |
| 2013-05-01T12:00 | 2944 | 714 | 4.0 | -29.8 | 326 | 10 |
| 2013-05-01T12:00 | 2957 | 713 | 3.8 | -29.5 | 325 | 10 |
| 2013-05-01T12:00 | 2970 | 712 | 3.7 | -29.1 | 325 | 10 |
| 2013-05-01T12:00 | 2982 | 711 | 3.6 | -29.1 | 325 | 10 |
| 2013-05-01T12:00 | 2996 | 710 | 3.6 | -29.6 | 324 | 10 |
| 2013-05-01T12:00 | 3008 | 709 | 3.5 | -29.8 | 324 | 10 |
| 2013-05-01T12:00 | 3020 | 708 | 3.4 | -29.9 | 324 | 10 |
| 2013-05-01T12:00 | 3033 | 706 | 3.4 | -30.2 | 324 | 10 |
| 2013-05-01T12:00 | 3044 | 705 | 3.3 | -30.6 | 324 | 10 |
| 2013-05-01T12:00 | 3055 | 704 | 3.3 | -30.8 | 324 | 10 |
| 2013-05-01T12:00 | 3066 | 704 | 3.2 | -30.9 | 324 | 10 |
| 2013-05-01T12:00 | 3078 | 702 | 3.2 | -30.9 | 324 | 10 |
| 2013-05-01T12:00 | 3090 | 701 | 3.1 | -30.9 | 324 | 10 |
| 2013-05-01T12:00 | 3103 | 700 | 3.0 | -30.9 | 324 | 10 |
| 2013-05-01T12:00 | 3115 | 699 | 3.0 | -30.9 | 324 | 10 |
| 2013-05-01T12:00 | 3127 | 698 | 3.0 | -30.8 | 324 | 10 |
| 2013-05-01T12:00 | 3139 | 697 | 2.9 | -31.0 | 324 | 10 |
| 2013-05-01T12:00 | 3150 | 696 | 2.8 | -31.3 | 324 | 10 |
| 2013-05-01T12:00 | 3161 | 695 | 2.7 | -31.7 | 323 | 10 |
| 2013-05-01T12:00 | 3173 | 694 | 2.7 | -32.4 | 323 | 10 |
| 2013-05-01T12:00 | 3185 | 693 | 2.6 | -33.5 | 323 | 10 |
| 2013-05-01T12:00 | 3198 | 692 | 2.5 | -33.9 | 323 | 10 |
| 2013-05-01T12:00 | 3210 | 691 | 2.5 | -33.7 | 322 | 10 |
| 2013-05-01T12:00 | 3221 | 690 | 2.4 | -33.7 | 322 | 10 |
| 2013-05-01T12:00 | 3231 | 689 | 2.3 | -34.0 | 322 | 10 |
| 2013-05-01T12:00 | 3242 | 688 | 2.3 | -34.2 | 321 | 10 |
| 2013-05-01T12:00 | 3253 | 687 | 2.2 | -34.5 | 321 | 10 |
| 2013-05-01T12:00 | 3265 | 686 | 2.2 | -35.6 | 320 | 10 |
| 2013-05-01T12:00 | 3276 | 685 | 2.2 | -37.3 | 320 | 10 |
| 2013-05-01T12:00 | 3287 | 685 | 2.2 | -39.1 | 319 | 10 |
| 2013-05-01T12:00 | 3298 | 684 | 2.2 | -41.2 | 319 | 10 |
| 2013-05-01T12:00 | 3309 | 683 | 2.2 | -42.5 | 318 | 11 |
| 2013-05-01T12:00 | 3321 | 682 | 2.2 | -42.8 | 318 | 11 |
| 2013-05-01T12:00 | 3332 | 681 | 2.2 | -42.7 | 317 | 11 |
| 2013-05-01T12:00 | 3344 | 680 | 2.2 | -42.4 | 317 | 11 |
| 2013-05-01T12:00 | 3355 | 679 | 2.2 | -41.3 | 317 | 11 |
| 2013-05-01T12:00 | 3367 | 678 | 2.1 | -39.4 | 316 | 11 |
| 2013-05-01T12:00 | 3381 | 677 | 2.0 | -37.9 | 316 | 11 |
| 2013-05-01T12:00 | 3393 | 676 | 2.0 | -36.8 | 316 | 11 |
| 2013-05-01T12:00 | 3405 | 675 | 1.9 | -36.1 | 315 | 11 |
| 2013-05-01T12:00 | 3416 | 674 | 1.8 | -37.5 | 315 | 11 |
| 2013-05-01T12:00 | 3427 | 673 | 1.8 | -40.2 | 314 | 11 |
| 2013-05-01T12:00 | 3438 | 672 | 1.8 | -41.3 | 314 | 11 |
| 2013-05-01T12:00 | 3448 | 671 | 1.8 | -36.8 | 314 | 11 |
| 2013-05-01T12:00 | 3458 | 670 | 1.7 | -31.8 | 313 | 11 |
| 2013-05-01T12:00 | 3467 | 669 | 1.6 | -30.0 | 313 | 11 |
| 2013-05-01T12:00 | 3477 | 669 | 1.5 | -30.1 | 312 | 11 |
| 2013-05-01T12:00 | 3489 | 668 | 1.5 | -30.6 | 312 | 11 |
| 2013-05-01T12:00 | 3500 | 667 | 1.4 | -31.1 | 311 | 11 |
| 2013-05-01T12:00 | 3511 | 666 | 1.4 | -31.4 | 311 | 11 |
| 2013-05-01T12:00 | 3523 | 665 | 1.4 | -32.1 | 311 | 11 |
| 2013-05-01T12:00 | 3536 | 664 | 1.4 | -33.6 | 310 | 11 |
| 2013-05-01T12:00 | 3547 | 663 | 1.4 | -35.7 | 310 | 11 |
| 2013-05-01T12:00 | 3558 | 662 | 1.3 | -37.9 | 309 | 11 |
| 2013-05-01T12:00 | 3570 | 661 | 1.3 | -38.8 | 309 | 11 |
| 2013-05-01T12:00 | 3581 | 660 | 1.3 | -38.4 | 308 | 11 |
| 2013-05-01T12:00 | 3591 | 659 | 1.3 | -37.5 | 308 | 11 |
| 2013-05-01T12:00 | 3602 | 658 | 1.2 | -36.6 | 307 | 11 |
| 2013-05-01T12:00 | 3613 | 657 | 1.2 | -36.2 | 306 | 11 |
| 2013-05-01T12:00 | 3623 | 657 | 1.1 | -36.0 | 306 | 11 |
| 2013-05-01T12:00 | 3633 | 656 | 1.1 | -36.2 | 305 | 11 |
| 2013-05-01T12:00 | 3644 | 655 | 1.0 | -36.4 | 305 | 11 |
| 2013-05-01T12:00 | 3654 | 654 | 1.0 | -36.8 | 305 | 11 |
| 2013-05-01T12:00 | 3665 | 653 | 1.0 | -37.4 | 304 | 11 |
| 2013-05-01T12:00 | 3676 | 652 | 0.9 | -38.1 | 304 | 11 |
| 2013-05-01T12:00 | 3686 | 651 | 0.8 | -38.8 | 304 | 11 |
| 2013-05-01T12:00 | 3696 | 651 | 0.8 | -39.3 | 304 | 12 |
| 2013-05-01T12:00 | 3707 | 650 | 0.7 | -39.8 | 303 | 12 |
| 2013-05-01T12:00 | 3717 | 649 | 0.7 | -39.7 | 303 | 12 |
| 2013-05-01T12:00 | 3728 | 648 | 0.6 | -37.8 | 303 | 12 |
| 2013-05-01T12:00 | 3739 | 647 | 0.6 | -35.1 | 303 | 12 |
| 2013-05-01T12:00 | 3750 | 646 | 0.5 | -33.4 | 303 | 12 |
| 2013-05-01T12:00 | 3760 | 645 | 0.5 | -33.1 | 303 | 12 |
| 2013-05-01T12:00 | 3771 | 645 | 0.5 | -33.6 | 303 | 12 |
| 2013-05-01T12:00 | 3782 | 644 | 0.4 | -33.6 | 303 | 12 |
| 2013-05-01T12:00 | 3793 | 643 | 0.4 | -33.3 | 303 | 12 |
| 2013-05-01T12:00 | 3803 | 642 | 0.4 | -33.0 | 303 | 12 |
| 2013-05-01T12:00 | 3814 | 641 | 0.4 | -32.1 | 303 | 11 |
| 2013-05-01T12:00 | 3825 | 640 | 0.3 | -29.9 | 302 | 11 |
| 2013-05-01T12:00 | 3836 | 639 | 0.2 | -27.7 | 302 | 11 |
| 2013-05-01T12:00 | 3847 | 638 | 0.1 | -26.4 | 302 | 11 |
| 2013-05-01T12:00 | 3858 | 638 | 0.0 | -26.1 | 302 | 11 |
| 2013-05-01T12:00 | 3869 | 637 | -0.1 | -26.0 | 301 | 11 |
| 2013-05-01T12:00 | 3880 | 636 | -0.2 | -26.1 | 301 | 11 |
| 2013-05-01T12:00 | 3890 | 635 | -0.2 | -26.0 | 301 | 11 |
| 2013-05-01T12:00 | 3901 | 634 | -0.3 | -26.0 | 300 | 11 |
| 2013-05-01T12:00 | 3912 | 633 | -0.3 | -26.6 | 300 | 11 |
| 2013-05-01T12:00 | 3923 | 632 | -0.3 | -27.2 | 299 | 10 |
| 2013-05-01T12:00 | 3933 | 632 | -0.4 | -27.3 | 299 | 10 |
| 2013-05-01T12:00 | 3945 | 631 | -0.4 | -27.5 | 298 | 10 |
| 2013-05-01T12:00 | 3956 | 630 | -0.5 | -28.2 | 298 | 10 |
| 2013-05-01T12:00 | 3967 | 629 | -0.5 | -29.7 | 297 | 10 |
| 2013-05-01T12:00 | 3979 | 628 | -0.6 | -31.5 | 297 | 10 |
| 2013-05-01T12:00 | 3992 | 627 | -0.6 | -32.2 | 297 | 10 |
| 2013-05-01T12:00 | 4003 | 626 | -0.7 | -31.9 | 296 | 10 |
| 2013-05-01T12:00 | 4015 | 625 | -0.8 | -31.1 | 296 | 10 |
| 2013-05-01T12:00 | 4028 | 624 | -0.8 | -30.4 | 296 | 10 |
| 2013-05-01T12:00 | 4042 | 623 | -0.9 | -29.9 | 296 | 10 |
| 2013-05-01T12:00 | 4054 | 622 | -1.0 | -29.7 | 296 | 10 |
| 2013-05-01T12:00 | 4067 | 621 | -1.1 | -29.6 | 295 | 10 |
| 2013-05-01T12:00 | 4079 | 620 | -1.2 | -29.5 | 295 | 10 |
| 2013-05-01T12:00 | 4089 | 619 | -1.3 | -29.5 | 295 | 10 |
| 2013-05-01T12:00 | 4101 | 618 | -1.3 | -29.4 | 295 | 10 |
| 2013-05-01T12:00 | 4112 | 618 | -1.5 | -29.2 | 296 | 10 |
| 2013-05-01T12:00 | 4121 | 617 | -1.5 | -29.0 | 296 | 10 |
| 2013-05-01T12:00 | 4132 | 616 | -1.6 | -28.9 | 295 | 10 |
| 2013-05-01T12:00 | 4144 | 615 | -1.7 | -28.9 | 295 | 11 |
| 2013-05-01T12:00 | 4157 | 614 | -1.9 | -29.0 | 295 | 11 |
| 2013-05-01T12:00 | 4170 | 613 | -2.0 | -29.1 | 295 | 11 |
| 2013-05-01T12:00 | 4182 | 612 | -2.1 | -29.2 | 295 | 11 |
| 2013-05-01T12:00 | 4194 | 611 | -2.2 | -29.2 | 295 | 11 |
| 2013-05-01T12:00 | 4205 | 610 | -2.3 | -29.2 | 295 | 11 |
| 2013-05-01T12:00 | 4217 | 609 | -2.4 | -29.2 | 295 | 11 |
| 2013-05-01T12:00 | 4228 | 609 | -2.5 | -29.2 | 295 | 10 |
| 2013-05-01T12:00 | 4239 | 608 | -2.6 | -29.1 | 296 | 10 |
| 2013-05-01T12:00 | 4251 | 607 | -2.7 | -29.1 | 296 | 10 |
| 2013-05-01T12:00 | 4264 | 606 | -2.8 | -29.2 | 296 | 10 |
| 2013-05-01T12:00 | 4275 | 605 | -2.9 | -29.4 | 296 | 10 |
| 2013-05-01T12:00 | 4287 | 604 | -3.0 | -29.5 | 296 | 10 |
| 2013-05-01T12:00 | 4300 | 603 | -3.1 | -29.5 | 296 | 10 |
| 2013-05-01T12:00 | 4311 | 602 | -3.2 | -29.7 | 296 | 10 |
| 2013-05-01T12:00 | 4324 | 601 | -3.3 | -29.8 | 296 | 10 |
| 2013-05-01T12:00 | 4337 | 600 | -3.5 | -29.9 | 296 | 10 |
| 2013-05-01T12:00 | 4348 | 599 | -3.6 | -29.9 | 296 | 10 |
| 2013-05-01T12:00 | 4360 | 599 | -3.7 | -30.0 | 296 | 10 |
| 2013-05-01T12:00 | 4373 | 598 | -3.8 | -30.0 | 296 | 10 |
| 2013-05-01T12:00 | 4385 | 597 | -3.9 | -30.1 | 296 | 10 |
| 2013-05-01T12:00 | 4397 | 596 | -4.0 | -30.2 | 296 | 10 |
| 2013-05-01T12:00 | 4409 | 595 | -4.1 | -30.2 | 296 | 11 |
| 2013-05-01T12:00 | 4420 | 594 | -4.2 | -30.2 | 296 | 11 |
| 2013-05-01T12:00 | 4431 | 593 | -4.4 | -30.3 | 296 | 11 |
| 2013-05-01T12:00 | 4443 | 592 | -4.5 | -30.3 | 296 | 11 |
| 2013-05-01T12:00 | 4454 | 591 | -4.6 | -30.3 | 295 | 11 |
| 2013-05-01T12:00 | 4465 | 591 | -4.7 | -30.3 | 295 | 11 |
| 2013-05-01T12:00 | 4476 | 590 | -4.8 | -30.4 | 295 | 11 |
| 2013-05-01T12:00 | 4488 | 589 | -4.9 | -30.4 | 295 | 11 |
| 2013-05-01T12:00 | 4500 | 588 | -5.0 | -30.4 | 294 | 11 |
| 2013-05-01T12:00 | 4512 | 587 | -5.2 | -30.5 | 294 | 11 |
| 2013-05-01T12:00 | 4524 | 586 | -5.3 | -30.5 | 294 | 11 |
| 2013-05-01T12:00 | 4536 | 585 | -5.4 | -30.6 | 293 | 11 |
| 2013-05-01T12:00 | 4549 | 584 | -5.5 | -30.6 | 293 | 11 |
| 2013-05-01T12:00 | 4564 | 583 | -5.6 | -30.7 | 293 | 11 |
| 2013-05-01T12:00 | 4576 | 582 | -5.8 | -30.7 | 293 | 11 |
| 2013-05-01T12:00 | 4590 | 581 | -5.9 | -30.8 | 292 | 11 |
| 2013-05-01T12:00 | 4604 | 580 | -6.0 | -30.9 | 292 | 11 |
| 2013-05-01T12:00 | 4616 | 579 | -6.2 | -31.0 | 292 | 11 |
| 2013-05-01T12:00 | 4628 | 578 | -6.3 | -31.1 | 292 | 11 |
| 2013-05-01T12:00 | 4641 | 578 | -6.4 | -31.2 | 292 | 11 |
| 2013-05-01T12:00 | 4653 | 577 | -6.5 | -31.2 | 292 | 11 |
| 2013-05-01T12:00 | 4667 | 576 | -6.6 | -31.2 | 292 | 11 |
| 2013-05-01T12:00 | 4681 | 575 | -6.8 | -31.3 | 292 | 11 |
| 2013-05-01T12:00 | 4693 | 574 | -6.9 | -31.4 | 292 | 11 |
| 2013-05-01T12:00 | 4705 | 573 | -7.0 | -31.5 | 292 | 11 |
| 2013-05-01T12:00 | 4717 | 572 | -7.1 | -31.5 | 292 | 11 |
| 2013-05-01T12:00 | 4729 | 571 | -7.2 | -31.6 | 293 | 11 |
| 2013-05-01T12:00 | 4743 | 570 | -7.4 | -31.6 | 293 | 11 |
| 2013-05-01T12:00 | 4757 | 569 | -7.5 | -31.7 | 293 | 11 |
| 2013-05-01T12:00 | 4771 | 568 | -7.6 | -31.8 | 293 | 11 |
| 2013-05-01T12:00 | 4783 | 567 | -7.7 | -31.9 | 292 | 11 |
| 2013-05-01T12:00 | 4795 | 566 | -7.8 | -32.0 | 292 | 11 |
| 2013-05-01T12:00 | 4807 | 565 | -8.0 | -32.2 | 292 | 12 |
| 2013-05-01T12:00 | 4818 | 564 | -8.1 | -32.4 | 291 | 12 |
| 2013-05-01T12:00 | 4830 | 564 | -8.2 | -32.5 | 291 | 12 |
| 2013-05-01T12:00 | 4841 | 563 | -8.3 | -32.6 | 291 | 12 |
| 2013-05-01T12:00 | 4851 | 562 | -8.4 | -32.6 | 290 | 12 |
| 2013-05-01T12:00 | 4864 | 561 | -8.5 | -32.7 | 290 | 12 |
| 2013-05-01T12:00 | 4877 | 560 | -8.6 | -32.7 | 290 | 12 |
| 2013-05-01T12:00 | 4890 | 559 | -8.7 | -32.8 | 290 | 12 |
| 2013-05-01T12:00 | 4902 | 558 | -8.8 | -33.0 | 290 | 12 |
| 2013-05-01T12:00 | 4915 | 558 | -8.9 | -33.6 | 290 | 12 |
| 2013-05-01T12:00 | 4927 | 557 | -8.9 | -34.6 | 290 | 13 |
| 2013-05-01T12:00 | 4940 | 556 | -8.9 | -35.7 | 290 | 13 |
| 2013-05-01T12:00 | 4953 | 555 | -8.9 | -36.8 | 291 | 13 |
| 2013-05-01T12:00 | 4964 | 554 | -8.9 | -37.6 | 291 | 13 |
| 2013-05-01T12:00 | 4975 | 553 | -8.9 | -38.1 | 292 | 13 |
| 2013-05-01T12:00 | 4986 | 552 | -8.9 | -38.6 | 293 | 13 |
| 2013-05-01T12:00 | 4998 | 552 | -8.9 | -39.6 | 293 | 14 |
| 2013-05-01T12:00 | 5012 | 551 | -8.8 | -41.0 | 294 | 14 |
| 2013-05-01T12:00 | 5025 | 550 | -8.7 | -43.1 | 295 | 14 |
| 2013-05-01T12:00 | 5037 | 549 | -8.5 | -46.5 | 296 | 14 |
| 2013-05-01T12:00 | 5050 | 548 | -8.3 | -50.0 | 296 | 14 |
| 2013-05-01T12:00 | 5063 | 547 | -8.2 | -51.8 | 297 | 15 |
| 2013-05-01T12:00 | 5076 | 546 | -8.1 | -52.3 | 298 | 15 |
| 2013-05-01T12:00 | 5088 | 545 | -8.0 | -52.6 | 298 | 15 |
| 2013-05-01T12:00 | 5101 | 544 | -7.9 | -52.1 | 299 | 15 |
| 2013-05-01T12:00 | 5114 | 543 | -7.9 | -51.2 | 299 | 15 |
| 2013-05-01T12:00 | 5128 | 542 | -7.9 | -50.1 | 299 | 16 |
| 2013-05-01T12:00 | 5142 | 541 | -8.0 | -48.6 | 299 | 16 |
| 2013-05-01T12:00 | 5156 | 540 | -8.1 | -46.5 | 299 | 16 |
| 2013-05-01T12:00 | 5169 | 540 | -8.2 | -44.6 | 299 | 16 |
| 2013-05-01T12:00 | 5181 | 539 | -8.3 | -43.9 | 299 | 16 |
| 2013-05-01T12:00 | 5194 | 538 | -8.4 | -44.3 | 299 | 16 |
| 2013-05-01T12:00 | 5207 | 537 | -8.5 | -44.9 | 299 | 16 |
| 2013-05-01T12:00 | 5220 | 536 | -8.5 | -45.0 | 298 | 16 |
| 2013-05-01T12:00 | 5233 | 535 | -8.6 | -44.6 | 298 | 16 |
| 2013-05-01T12:00 | 5246 | 534 | -8.8 | -44.0 | 297 | 16 |
| 2013-05-01T12:00 | 5258 | 533 | -8.9 | -43.2 | 297 | 16 |
| 2013-05-01T12:00 | 5271 | 532 | -9.0 | -42.9 | 297 | 16 |
| 2013-05-01T12:00 | 5284 | 532 | -9.1 | -43.3 | 296 | 16 |
| 2013-05-01T12:00 | 5296 | 531 | -9.2 | -44.0 | 296 | 16 |
| 2013-05-01T12:00 | 5310 | 530 | -9.3 | -44.0 | 296 | 16 |
| 2013-05-01T12:00 | 5324 | 529 | -9.5 | -43.5 | 296 | 16 |
| 2013-05-01T12:00 | 5338 | 528 | -9.6 | -43.1 | 296 | 16 |
| 2013-05-01T12:00 | 5352 | 527 | -9.7 | -43.3 | 296 | 16 |
| 2013-05-01T12:00 | 5366 | 526 | -9.9 | -43.6 | 296 | 16 |
| 2013-05-01T12:00 | 5380 | 525 | -10.0 | -43.8 | 296 | 16 |
| 2013-05-01T12:00 | 5394 | 524 | -10.1 | -44.2 | 296 | 16 |
| 2013-05-01T12:00 | 5408 | 523 | -10.2 | -44.7 | 296 | 16 |
| 2013-05-01T12:00 | 5422 | 522 | -10.4 | -45.3 | 296 | 16 |
| 2013-05-01T12:00 | 5435 | 521 | -10.5 | -46.1 | 296 | 16 |
| 2013-05-01T12:00 | 5448 | 520 | -10.6 | -46.9 | 296 | 16 |
| 2013-05-01T12:00 | 5462 | 519 | -10.7 | -47.2 | 296 | 16 |
| 2013-05-01T12:00 | 5475 | 519 | -10.8 | -47.1 | 296 | 16 |
| 2013-05-01T12:00 | 5487 | 518 | -10.9 | -47.2 | 296 | 16 |
| 2013-05-01T12:00 | 5502 | 517 | -11.1 | -47.3 | 296 | 16 |
| 2013-05-01T12:00 | 5516 | 516 | -11.2 | -47.4 | 296 | 16 |
| 2013-05-01T12:00 | 5529 | 515 | -11.3 | -47.4 | 296 | 16 |
| 2013-05-01T12:00 | 5543 | 514 | -11.4 | -47.3 | 296 | 16 |
| 2013-05-01T12:00 | 5557 | 513 | -11.6 | -47.2 | 296 | 16 |
| 2013-05-01T12:00 | 5570 | 512 | -11.7 | -47.1 | 296 | 17 |
| 2013-05-01T12:00 | 5583 | 511 | -11.8 | -46.6 | 296 | 17 |
| 2013-05-01T12:00 | 5597 | 510 | -11.9 | -45.6 | 296 | 17 |
| 2013-05-01T12:00 | 5613 | 509 | -12.1 | -44.5 | 297 | 17 |
| 2013-05-01T12:00 | 5626 | 508 | -12.2 | -44.1 | 297 | 17 |
| 2013-05-01T12:00 | 5638 | 508 | -12.3 | -43.9 | 297 | 17 |
| 2013-05-01T12:00 | 5651 | 507 | -12.4 | -44.4 | 298 | 17 |
| 2013-05-01T12:00 | 5664 | 506 | -12.5 | -46.1 | 298 | 17 |
| 2013-05-01T12:00 | 5676 | 505 | -12.5 | -45.9 | 298 | 17 |
| 2013-05-01T12:00 | 5691 | 504 | -12.7 | -44.8 | 298 | 16 |
| 2013-05-01T12:00 | 5706 | 503 | -12.8 | -44.8 | 298 | 16 |
| 2013-05-01T12:00 | 5720 | 502 | -12.9 | -45.0 | 298 | 16 |
| 2013-05-01T12:00 | 5734 | 501 | -13.1 | -45.0 | 298 | 16 |
| 2013-05-01T12:00 | 5748 | 500 | -13.2 | -45.0 | 298 | 16 |
| 2013-05-01T12:00 | 5760 | 500 | -13.3 | -44.7 | 298 | 16 |
| 2013-05-01T12:00 | 5773 | 499 | -13.5 | -44.7 | 298 | 16 |
| 2013-05-01T12:00 | 5788 | 498 | -13.6 | -44.7 | 298 | 16 |
| 2013-05-01T12:00 | 5802 | 497 | -13.7 | -44.4 | 297 | 16 |
| 2013-05-01T12:00 | 5815 | 496 | -13.9 | -43.6 | 297 | 17 |
| 2013-05-01T12:00 | 5828 | 495 | -14.0 | -42.3 | 297 | 17 |
| 2013-05-01T12:00 | 5841 | 494 | -14.1 | -41.6 | 297 | 17 |
| 2013-05-01T12:00 | 5853 | 493 | -14.2 | -40.7 | 296 | 17 |
| 2013-05-01T12:00 | 5867 | 493 | -14.3 | -40.3 | 296 | 17 |
| 2013-05-01T12:00 | 5881 | 492 | -14.5 | -40.2 | 296 | 17 |
| 2013-05-01T12:00 | 5893 | 491 | -14.6 | -40.0 | 296 | 18 |
| 2013-05-01T12:00 | 5906 | 490 | -14.7 | -39.8 | 296 | 18 |
| 2013-05-01T12:00 | 5921 | 489 | -14.8 | -39.7 | 296 | 18 |
| 2013-05-01T12:00 | 5935 | 488 | -15.0 | -39.6 | 296 | 18 |
| 2013-05-01T12:00 | 5948 | 487 | -15.1 | -39.4 | 295 | 18 |
| 2013-05-01T12:00 | 5964 | 486 | -15.2 | -39.0 | 295 | 18 |
| 2013-05-01T12:00 | 5978 | 485 | -15.4 | -38.8 | 295 | 18 |
| 2013-05-01T12:00 | 5992 | 484 | -15.5 | -38.7 | 295 | 18 |
| 2013-05-01T12:00 | 6006 | 484 | -15.6 | -38.5 | 295 | 18 |
| 2013-05-01T12:00 | 6020 | 483 | -15.7 | -38.4 | 295 | 18 |
| 2013-05-01T12:00 | 6032 | 482 | -15.8 | -38.3 | 295 | 19 |
| 2013-05-01T12:00 | 6046 | 481 | -15.9 | -38.5 | 295 | 19 |
| 2013-05-01T12:00 | 6060 | 480 | -16.0 | -38.7 | 295 | 19 |
| 2013-05-01T12:00 | 6073 | 479 | -16.1 | -38.7 | 294 | 19 |
| 2013-05-01T12:00 | 6085 | 479 | -16.2 | -38.7 | 294 | 19 |
| 2013-05-01T12:00 | 6098 | 478 | -16.3 | -38.9 | 294 | 19 |
| 2013-05-01T12:00 | 6111 | 477 | -16.4 | -38.9 | 294 | 19 |
| 2013-05-01T12:00 | 6123 | 476 | -16.6 | -38.8 | 294 | 19 |
| 2013-05-01T12:00 | 6135 | 475 | -16.7 | -38.8 | 295 | 19 |
| 2013-05-01T12:00 | 6148 | 475 | -16.8 | -38.9 | 295 | 19 |
| 2013-05-01T12:00 | 6162 | 474 | -16.9 | -39.2 | 295 | 19 |
| 2013-05-01T12:00 | 6175 | 473 | -17.0 | -39.6 | 295 | 19 |
| 2013-05-01T12:00 | 6187 | 472 | -17.0 | -40.1 | 295 | 19 |
| 2013-05-01T12:00 | 6201 | 471 | -17.1 | -40.6 | 295 | 19 |
| 2013-05-01T12:00 | 6214 | 470 | -17.2 | -41.0 | 295 | 19 |
| 2013-05-01T12:00 | 6226 | 470 | -17.3 | -41.4 | 295 | 19 |
| 2013-05-01T12:00 | 6239 | 469 | -17.4 | -41.4 | 295 | 19 |
| 2013-05-01T12:00 | 6252 | 468 | -17.5 | -41.5 | 295 | 19 |
| 2013-05-01T12:00 | 6265 | 467 | -17.6 | -41.5 | 295 | 19 |
| 2013-05-01T12:00 | 6279 | 466 | -17.7 | -41.7 | 295 | 19 |
| 2013-05-01T12:00 | 6292 | 466 | -17.8 | -41.9 | 295 | 19 |
| 2013-05-01T12:00 | 6304 | 465 | -17.9 | -42.4 | 294 | 19 |
| 2013-05-01T12:00 | 6315 | 464 | -17.9 | -43.2 | 294 | 19 |
| 2013-05-01T12:00 | 6328 | 463 | -18.0 | -44.1 | 294 | 19 |
| 2013-05-01T12:00 | 6341 | 462 | -18.0 | -45.3 | 293 | 19 |
| 2013-05-01T12:00 | 6354 | 462 | -18.0 | -46.4 | 293 | 19 |
| 2013-05-01T12:00 | 6367 | 461 | -18.1 | -46.9 | 293 | 19 |
| 2013-05-01T12:00 | 6379 | 460 | -18.1 | -47.2 | 292 | 19 |
| 2013-05-01T12:00 | 6392 | 459 | -18.2 | -47.3 | 292 | 19 |
| 2013-05-01T12:00 | 6404 | 459 | -18.3 | -47.6 | 292 | 19 |
| 2013-05-01T12:00 | 6415 | 458 | -18.3 | -47.9 | 291 | 19 |
| 2013-05-01T12:00 | 6427 | 457 | -18.4 | -48.3 | 291 | 19 |
| 2013-05-01T12:00 | 6442 | 456 | -18.5 | -48.8 | 291 | 19 |
| 2013-05-01T12:00 | 6458 | 455 | -18.5 | -49.3 | 291 | 19 |
| 2013-05-01T12:00 | 6472 | 454 | -18.7 | -49.6 | 290 | 19 |
| 2013-05-01T12:00 | 6485 | 454 | -18.8 | -49.6 | 290 | 19 |
| 2013-05-01T12:00 | 6497 | 453 | -18.9 | -49.4 | 290 | 19 |
| 2013-05-01T12:00 | 6511 | 452 | -19.0 | -49.2 | 290 | 18 |
| 2013-05-01T12:00 | 6525 | 451 | -19.1 | -48.6 | 290 | 18 |
| 2013-05-01T12:00 | 6539 | 450 | -19.2 | -47.7 | 290 | 18 |
| 2013-05-01T12:00 | 6552 | 450 | -19.3 | -46.9 | 289 | 18 |
| 2013-05-01T12:00 | 6562 | 449 | -19.4 | -46.7 | 289 | 18 |
| 2013-05-01T12:00 | 6574 | 448 | -19.5 | -46.6 | 289 | 18 |
| 2013-05-01T12:00 | 6588 | 447 | -19.6 | -46.4 | 289 | 18 |
| 2013-05-01T12:00 | 6602 | 447 | -19.7 | -46.3 | 289 | 18 |
| 2013-05-01T12:00 | 6615 | 446 | -19.8 | -46.3 | 289 | 18 |
| 2013-05-01T12:00 | 6629 | 445 | -20.0 | -46.3 | 289 | 18 |
| 2013-05-01T12:00 | 6643 | 444 | -20.1 | -46.3 | 289 | 18 |
| 2013-05-01T12:00 | 6655 | 443 | -20.2 | -46.3 | 289 | 18 |
| 2013-05-01T12:00 | 6668 | 443 | -20.4 | -46.3 | 289 | 18 |
| 2013-05-01T12:00 | 6681 | 442 | -20.5 | -46.4 | 289 | 18 |
| 2013-05-01T12:00 | 6694 | 441 | -20.6 | -46.3 | 289 | 18 |
| 2013-05-01T12:00 | 6707 | 440 | -20.7 | -46.3 | 290 | 18 |
| 2013-05-01T12:00 | 6720 | 439 | -20.9 | -46.3 | 290 | 18 |
| 2013-05-01T12:00 | 6734 | 439 | -21.0 | -46.3 | 290 | 18 |
| 2013-05-01T12:00 | 6751 | 438 | -21.1 | -46.3 | 291 | 18 |
| 2013-05-01T12:00 | 6767 | 437 | -21.3 | -46.4 | 292 | 18 |
| 2013-05-01T12:00 | 6779 | 436 | -21.4 | -46.4 | 292 | 18 |
| 2013-05-01T12:00 | 6792 | 435 | -21.5 | -46.4 | 293 | 18 |
| 2013-05-01T12:00 | 6808 | 434 | -21.7 | -46.4 | 293 | 18 |
| 2013-05-01T12:00 | 6823 | 433 | -21.8 | -46.4 | 294 | 18 |
| 2013-05-01T12:00 | 6836 | 433 | -22.0 | -46.3 | 294 | 18 |
| 2013-05-01T12:00 | 6847 | 432 | -22.1 | -46.2 | 295 | 18 |
| 2013-05-01T12:00 | 6861 | 431 | -22.2 | -46.2 | 295 | 18 |
| 2013-05-01T12:00 | 6875 | 430 | -22.4 | -46.2 | 296 | 18 |
| 2013-05-01T12:00 | 6887 | 430 | -22.5 | -46.1 | 296 | 18 |
| 2013-05-01T12:00 | 6901 | 429 | -22.6 | -46.1 | 296 | 18 |
| 2013-05-01T12:00 | 6914 | 428 | -22.7 | -46.1 | 296 | 18 |
| 2013-05-01T12:00 | 6927 | 427 | -22.8 | -46.0 | 296 | 18 |
| 2013-05-01T12:00 | 6937 | 427 | -22.9 | -45.8 | 296 | 18 |
| 2013-05-01T12:00 | 6947 | 426 | -23.0 | -45.8 | 296 | 18 |
| 2013-05-01T12:00 | 6958 | 425 | -23.1 | -45.9 | 296 | 18 |
| 2013-05-01T12:00 | 6971 | 425 | -23.2 | -46.3 | 296 | 18 |
| 2013-05-01T12:00 | 6985 | 424 | -23.2 | -46.8 | 296 | 18 |
| 2013-05-01T12:00 | 6997 | 423 | -23.2 | -47.3 | 295 | 18 |
| 2013-05-01T12:00 | 7011 | 422 | -23.3 | -47.5 | 295 | 19 |
| 2013-05-01T12:00 | 7025 | 422 | -23.5 | -47.5 | 295 | 19 |
| 2013-05-01T12:00 | 7037 | 421 | -23.6 | -47.6 | 294 | 19 |
| 2013-05-01T12:00 | 7050 | 420 | -23.7 | -47.6 | 294 | 19 |
| 2013-05-01T12:00 | 7063 | 419 | -23.8 | -47.7 | 294 | 19 |
| 2013-05-01T12:00 | 7078 | 419 | -24.0 | -47.7 | 293 | 19 |
| 2013-05-01T12:00 | 7090 | 418 | -24.1 | -47.7 | 293 | 19 |
| 2013-05-01T12:00 | 7102 | 417 | -24.2 | -47.7 | 293 | 19 |
| 2013-05-01T12:00 | 7117 | 416 | -24.3 | -47.7 | 292 | 19 |
| 2013-05-01T12:00 | 7132 | 415 | -24.5 | -47.7 | 292 | 19 |
| 2013-05-01T12:00 | 7146 | 415 | -24.6 | -47.8 | 292 | 19 |
| 2013-05-01T12:00 | 7160 | 414 | -24.8 | -47.8 | 292 | 19 |
| 2013-05-01T12:00 | 7174 | 413 | -24.9 | -47.9 | 292 | 19 |
| 2013-05-01T12:00 | 7187 | 412 | -25.0 | -47.9 | 292 | 19 |
| 2013-05-01T12:00 | 7201 | 412 | -25.1 | -47.9 | 292 | 19 |
| 2013-05-01T12:00 | 7214 | 411 | -25.3 | -47.9 | 292 | 20 |
| 2013-05-01T12:00 | 7228 | 410 | -25.4 | -47.9 | 292 | 20 |
| 2013-05-01T12:00 | 7241 | 409 | -25.5 | -48.0 | 292 | 20 |
| 2013-05-01T12:00 | 7253 | 409 | -25.6 | -48.0 | 292 | 20 |
| 2013-05-01T12:00 | 7262 | 408 | -25.7 | -48.0 | 292 | 20 |
| 2013-05-01T12:00 | 7274 | 407 | -25.8 | -48.0 | 293 | 20 |
| 2013-05-01T12:00 | 7287 | 407 | -26.0 | -48.1 | 293 | 20 |
| 2013-05-01T12:00 | 7299 | 406 | -26.1 | -48.1 | 293 | 21 |
| 2013-05-01T12:00 | 7312 | 405 | -26.2 | -48.1 | 293 | 21 |
| 2013-05-01T12:00 | 7324 | 405 | -26.3 | -48.2 | 293 | 21 |
| 2013-05-01T12:00 | 7336 | 404 | -26.4 | -48.3 | 293 | 21 |
| 2013-05-01T12:00 | 7348 | 403 | -26.6 | -48.3 | 293 | 22 |
| 2013-05-01T12:00 | 7359 | 403 | -26.7 | -48.3 | 292 | 22 |
| 2013-05-01T12:00 | 7373 | 402 | -26.8 | -48.4 | 292 | 22 |
| 2013-05-01T12:00 | 7384 | 401 | -26.9 | -48.5 | 292 | 22 |
| 2013-05-01T12:00 | 7396 | 401 | -26.9 | -48.7 | 291 | 22 |
| 2013-05-01T12:00 | 7409 | 400 | -27.0 | -49.0 | 291 | 22 |
| 2013-05-01T12:00 | 7422 | 399 | -27.1 | -49.3 | 290 | 22 |
| 2013-05-01T12:00 | 7434 | 398 | -27.1 | -49.5 | 290 | 22 |
| 2013-05-01T12:00 | 7446 | 398 | -27.2 | -49.4 | 290 | 22 |
| 2013-05-01T12:00 | 7457 | 397 | -27.2 | -48.8 | 289 | 22 |
| 2013-05-01T12:00 | 7468 | 397 | -27.3 | -48.0 | 289 | 22 |
| 2013-05-01T12:00 | 7479 | 396 | -27.4 | -47.7 | 289 | 22 |
| 2013-05-01T12:00 | 7491 | 395 | -27.5 | -47.8 | 289 | 22 |
| 2013-05-01T12:00 | 7504 | 395 | -27.6 | -48.0 | 290 | 22 |
| 2013-05-01T12:00 | 7516 | 394 | -27.7 | -48.4 | 290 | 21 |
| 2013-05-01T12:00 | 7527 | 393 | -27.8 | -48.8 | 290 | 21 |
| 2013-05-01T12:00 | 7539 | 393 | -27.8 | -49.1 | 291 | 21 |
| 2013-05-01T12:00 | 7553 | 392 | -27.9 | -49.6 | 292 | 21 |
| 2013-05-01T12:00 | 7566 | 391 | -28.0 | -49.8 | 292 | 21 |
| 2013-05-01T12:00 | 7579 | 391 | -28.2 | -49.7 | 293 | 21 |
| 2013-05-01T12:00 | 7590 | 390 | -28.3 | -49.5 | 294 | 21 |
| 2013-05-01T12:00 | 7601 | 389 | -28.4 | -49.5 | 295 | 21 |
| 2013-05-01T12:00 | 7613 | 389 | -28.5 | -49.6 | 295 | 21 |
| 2013-05-01T12:00 | 7627 | 388 | -28.6 | -49.9 | 296 | 21 |
| 2013-05-01T12:00 | 7638 | 387 | -28.6 | -50.4 | 296 | 21 |
| 2013-05-01T12:00 | 7650 | 387 | -28.7 | -51.0 | 297 | 21 |
| 2013-05-01T12:00 | 7662 | 386 | -28.8 | -51.4 | 297 | 21 |
| 2013-05-01T12:00 | 7672 | 385 | -28.9 | -51.4 | 297 | 21 |
| 2013-05-01T12:00 | 7682 | 385 | -28.9 | -51.5 | 297 | 21 |
| 2013-05-01T12:00 | 7692 | 384 | -29.0 | -51.9 | 297 | 21 |
| 2013-05-01T12:00 | 7704 | 384 | -29.1 | -52.3 | 296 | 21 |
| 2013-05-01T12:00 | 7718 | 383 | -29.2 | -52.5 | 296 | 21 |
| 2013-05-01T12:00 | 7733 | 382 | -29.3 | -52.6 | 296 | 21 |
| 2013-05-01T12:00 | 7745 | 382 | -29.4 | -52.6 | 296 | 21 |
| 2013-05-01T12:00 | 7757 | 381 | -29.5 | -52.4 | 295 | 22 |
| 2013-05-01T12:00 | 7770 | 380 | -29.5 | -52.0 | 295 | 22 |
| 2013-05-01T12:00 | 7784 | 379 | -29.6 | -51.7 | 295 | 22 |
| 2013-05-01T12:00 | 7800 | 379 | -29.8 | -51.5 | 295 | 22 |
| 2013-05-01T12:00 | 7811 | 378 | -29.9 | -51.2 | 295 | 22 |
| 2013-05-01T12:00 | 7821 | 378 | -30.0 | -50.6 | 295 | 22 |
| 2013-05-01T12:00 | 7833 | 377 | -30.1 | -49.6 | 295 | 22 |
| 2013-05-01T12:00 | 7844 | 376 | -30.1 | -48.4 | 296 | 22 |
| 2013-05-01T12:00 | 7854 | 376 | -30.2 | -47.5 | 296 | 22 |
| 2013-05-01T12:00 | 7865 | 375 | -30.3 | -46.8 | 296 | 23 |
| 2013-05-01T12:00 | 7879 | 374 | -30.3 | -46.4 | 296 | 23 |
| 2013-05-01T12:00 | 7896 | 374 | -30.4 | -46.8 | 296 | 23 |
| 2013-05-01T12:00 | 7910 | 373 | -30.5 | -47.4 | 296 | 23 |
| 2013-05-01T12:00 | 7922 | 372 | -30.6 | -47.6 | 296 | 23 |
| 2013-05-01T12:00 | 7934 | 372 | -30.7 | -47.5 | 296 | 23 |
| 2013-05-01T12:00 | 7947 | 371 | -30.8 | -47.5 | 297 | 23 |
| 2013-05-01T12:00 | 7960 | 370 | -30.9 | -47.6 | 297 | 23 |
| 2013-05-01T12:00 | 7971 | 370 | -31.0 | -47.7 | 297 | 23 |
| 2013-05-01T12:00 | 7983 | 369 | -31.1 | -47.9 | 297 | 23 |
| 2013-05-01T12:00 | 7995 | 368 | -31.2 | -48.1 | 297 | 23 |
| 2013-05-01T12:00 | 8009 | 368 | -31.3 | -48.3 | 297 | 24 |
| 2013-05-01T12:00 | 8021 | 367 | -31.4 | -48.4 | 297 | 24 |
| 2013-05-01T12:00 | 8033 | 366 | -31.5 | -48.5 | 296 | 24 |
| 2013-05-01T12:00 | 8045 | 366 | -31.6 | -48.5 | 296 | 24 |
| 2013-05-01T12:00 | 8055 | 365 | -31.7 | -48.5 | 296 | 24 |
| 2013-05-01T12:00 | 8065 | 365 | -31.8 | -48.5 | 296 | 25 |
| 2013-05-01T12:00 | 8079 | 364 | -31.9 | -48.5 | 296 | 25 |
| 2013-05-01T12:00 | 8091 | 363 | -32.0 | -48.5 | 296 | 25 |
| 2013-05-01T12:00 | 8101 | 363 | -32.1 | -48.5 | 296 | 25 |
| 2013-05-01T12:00 | 8110 | 362 | -32.2 | -48.5 | 296 | 25 |
| 2013-05-01T12:00 | 8119 | 362 | -32.3 | -48.6 | 295 | 25 |
| 2013-05-01T12:00 | 8128 | 362 | -32.4 | -48.7 | 295 | 25 |
| 2013-05-01T12:00 | 8136 | 361 | -32.5 | -48.8 | 295 | 25 |
| 2013-05-01T12:00 | 8145 | 361 | -32.5 | -49.1 | 294 | 25 |
| 2013-05-01T12:00 | 8155 | 360 | -32.6 | -49.4 | 294 | 25 |
| 2013-05-01T12:00 | 8167 | 360 | -32.7 | -49.7 | 294 | 25 |
| 2013-05-01T12:00 | 8177 | 359 | -32.7 | -49.9 | 293 | 25 |
| 2013-05-01T12:00 | 8187 | 358 | -32.8 | -50.0 | 293 | 25 |
| 2013-05-01T12:00 | 8199 | 358 | -32.9 | -50.0 | 293 | 25 |
| 2013-05-01T12:00 | 8211 | 357 | -33.0 | -50.1 | 292 | 25 |
| 2013-05-01T12:00 | 8223 | 357 | -33.1 | -50.3 | 292 | 25 |
| 2013-05-01T12:00 | 8231 | 356 | -33.1 | -50.6 | 292 | 25 |
| 2013-05-01T12:00 | 8239 | 356 | -33.2 | -50.9 | 292 | 25 |
| 2013-05-01T12:00 | 8247 | 355 | -33.2 | -51.3 | 292 | 25 |
| 2013-05-01T12:00 | 8255 | 355 | -33.3 | -51.6 | 292 | 25 |
| 2013-05-01T12:00 | 8264 | 355 | -33.3 | -51.8 | 293 | 25 |
| 2013-05-01T12:00 | 8274 | 354 | -33.4 | -51.7 | 293 | 25 |
| 2013-05-01T12:00 | 8284 | 354 | -33.5 | -51.7 | 293 | 25 |
| 2013-05-01T12:00 | 8294 | 353 | -33.5 | -51.9 | 294 | 25 |
| 2013-05-01T12:00 | 8304 | 353 | -33.6 | -52.0 | 294 | 25 |
| 2013-05-01T12:00 | 8314 | 352 | -33.7 | -51.9 | 294 | 24 |
| 2013-05-01T12:00 | 8324 | 352 | -33.7 | -51.9 | 295 | 24 |
| 2013-05-01T12:00 | 8334 | 351 | -33.8 | -52.1 | 295 | 24 |
| 2013-05-01T12:00 | 8344 | 351 | -33.9 | -52.6 | 295 | 24 |
| 2013-05-01T12:00 | 8356 | 350 | -34.0 | -53.3 | 295 | 24 |
| 2013-05-01T12:00 | 8368 | 349 | -34.1 | -53.8 | 295 | 24 |
| 2013-05-01T12:00 | 8378 | 349 | -34.1 | -53.9 | 295 | 24 |
| 2013-05-01T12:00 | 8385 | 349 | -34.2 | -53.8 | 295 | 24 |
| 2013-05-01T12:00 | 8392 | 348 | -34.3 | -53.7 | 295 | 24 |
| 2013-05-01T12:00 | 8401 | 348 | -34.4 | -53.6 | 295 | 24 |
| 2013-05-01T12:00 | 8411 | 347 | -34.5 | -53.6 | 294 | 24 |
| 2013-05-01T12:00 | 8423 | 347 | -34.6 | -53.6 | 294 | 24 |
| 2013-05-01T12:00 | 8435 | 346 | -34.7 | -53.6 | 294 | 24 |
| 2013-05-01T12:00 | 8449 | 345 | -34.8 | -53.7 | 294 | 24 |
| 2013-05-01T12:00 | 8463 | 345 | -34.9 | -53.9 | 293 | 24 |
| 2013-05-01T12:00 | 8476 | 344 | -35.0 | -54.2 | 293 | 24 |
| 2013-05-01T12:00 | 8487 | 343 | -35.1 | -54.4 | 293 | 24 |
| 2013-05-01T12:00 | 8499 | 343 | -35.2 | -54.7 | 293 | 25 |
| 2013-05-01T12:00 | 8510 | 342 | -35.3 | -54.9 | 293 | 25 |
| 2013-05-01T12:00 | 8521 | 342 | -35.4 | -55.1 | 293 | 25 |
| 2013-05-01T12:00 | 8531 | 341 | -35.5 | -55.3 | 293 | 25 |
| 2013-05-01T12:00 | 8541 | 341 | -35.5 | -55.6 | 293 | 25 |
| 2013-05-01T12:00 | 8552 | 340 | -35.6 | -56.0 | 293 | 25 |
| 2013-05-01T12:00 | 8564 | 340 | -35.7 | -56.7 | 293 | 25 |
| 2013-05-01T12:00 | 8577 | 339 | -35.8 | -57.6 | 294 | 25 |
| 2013-05-01T12:00 | 8590 | 338 | -35.8 | -58.8 | 294 | 25 |
| 2013-05-01T12:00 | 8602 | 338 | -35.9 | -60.6 | 294 | 24 |
| 2013-05-01T12:00 | 8613 | 337 | -35.9 | -62.1 | 295 | 24 |
| 2013-05-01T12:00 | 8622 | 337 | -36.0 | -62.6 | 295 | 24 |
| 2013-05-01T12:00 | 8632 | 336 | -36.0 | -62.5 | 295 | 24 |
| 2013-05-01T12:00 | 8643 | 336 | -36.1 | -62.3 | 296 | 24 |
| 2013-05-01T12:00 | 8656 | 335 | -36.2 | -62.2 | 296 | 24 |
| 2013-05-01T12:00 | 8669 | 335 | -36.4 | -62.2 | 296 | 24 |
| 2013-05-01T12:00 | 8680 | 334 | -36.5 | -62.3 | 296 | 24 |
| 2013-05-01T12:00 | 8692 | 333 | -36.6 | -62.3 | 296 | 24 |
| 2013-05-01T12:00 | 8702 | 333 | -36.7 | -62.2 | 297 | 24 |
| 2013-05-01T12:00 | 8713 | 332 | -36.7 | -62.2 | 297 | 24 |
| 2013-05-01T12:00 | 8726 | 332 | -36.9 | -62.1 | 297 | 24 |
| 2013-05-01T12:00 | 8740 | 331 | -37.0 | -62.1 | 297 | 24 |
| 2013-05-01T12:00 | 8752 | 331 | -37.1 | -62.1 | 297 | 24 |
| 2013-05-01T12:00 | 8761 | 330 | -37.2 | -62.0 | 297 | 24 |
| 2013-05-01T12:00 | 8771 | 330 | -37.3 | -62.0 | 297 | 24 |
| 2013-05-01T12:00 | 8782 | 329 | -37.4 | -61.9 | 297 | 24 |
| 2013-05-01T12:00 | 8792 | 329 | -37.5 | -61.8 | 297 | 24 |
| 2013-05-01T12:00 | 8803 | 328 | -37.6 | -61.7 | 297 | 25 |
| 2013-05-01T12:00 | 8816 | 328 | -37.7 | -61.4 | 297 | 25 |
| 2013-05-01T12:00 | 8829 | 327 | -37.8 | -61.0 | 297 | 25 |
| 2013-05-01T12:00 | 8840 | 326 | -37.9 | -60.7 | 297 | 25 |
| 2013-05-01T12:00 | 8851 | 326 | -38.0 | -60.4 | 297 | 25 |
| 2013-05-01T12:00 | 8865 | 325 | -38.2 | -60.3 | 297 | 25 |
| 2013-05-01T12:00 | 8880 | 325 | -38.3 | -60.3 | 297 | 25 |
| 2013-05-01T12:00 | 8893 | 324 | -38.4 | -60.3 | 298 | 25 |
| 2013-05-01T12:00 | 8902 | 323 | -38.5 | -60.3 | 298 | 25 |
| 2013-05-01T12:00 | 8912 | 323 | -38.6 | -60.2 | 298 | 25 |
| 2013-05-01T12:00 | 8924 | 322 | -38.7 | -60.2 | 298 | 25 |
| 2013-05-01T12:00 | 8939 | 322 | -38.9 | -60.0 | 298 | 25 |
| 2013-05-01T12:00 | 8955 | 321 | -39.0 | -59.8 | 298 | 25 |
| 2013-05-01T12:00 | 8969 | 320 | -39.1 | -59.5 | 298 | 25 |
| 2013-05-01T12:00 | 8982 | 320 | -39.3 | -59.3 | 298 | 25 |
| 2013-05-01T12:00 | 8993 | 319 | -39.4 | -59.3 | 298 | 25 |
| 2013-05-01T12:00 | 9005 | 319 | -39.5 | -59.3 | 298 | 25 |
| 2013-05-01T12:00 | 9017 | 318 | -39.6 | -59.3 | 298 | 24 |
| 2013-05-01T12:00 | 9028 | 318 | -39.7 | -59.2 | 298 | 24 |
| 2013-05-01T12:00 | 9038 | 317 | -39.8 | -59.1 | 297 | 24 |
| 2013-05-01T12:00 | 9047 | 317 | -39.9 | -59.2 | 297 | 24 |
| 2013-05-01T12:00 | 9058 | 316 | -40.0 | -59.2 | 297 | 24 |
| 2013-05-01T12:00 | 9069 | 316 | -40.1 | -59.1 | 296 | 24 |
| 2013-05-01T12:00 | 9081 | 315 | -40.2 | -59.0 | 296 | 24 |
| 2013-05-01T12:00 | 9092 | 315 | -40.3 | -58.8 | 296 | 24 |
| 2013-05-01T12:00 | 9103 | 314 | -40.4 | -58.6 | 296 | 24 |
| 2013-05-01T12:00 | 9114 | 314 | -40.5 | -58.5 | 296 | 24 |
| 2013-05-01T12:00 | 9125 | 313 | -40.6 | -58.5 | 296 | 25 |
| 2013-05-01T12:00 | 9136 | 313 | -40.7 | -58.6 | 296 | 25 |
| 2013-05-01T12:00 | 9149 | 312 | -40.9 | -58.6 | 296 | 25 |
| 2013-05-01T12:00 | 9163 | 311 | -41.0 | -58.7 | 296 | 25 |
| 2013-05-01T12:00 | 9175 | 311 | -41.1 | -58.7 | 296 | 25 |
| 2013-05-01T12:00 | 9187 | 310 | -41.3 | -58.7 | 296 | 25 |
| 2013-05-01T12:00 | 9197 | 310 | -41.3 | -58.6 | 296 | 25 |
| 2013-05-01T12:00 | 9207 | 309 | -41.4 | -58.6 | 296 | 26 |
| 2013-05-01T12:00 | 9219 | 309 | -41.6 | -58.5 | 297 | 26 |
| 2013-05-01T12:00 | 9232 | 308 | -41.7 | -58.4 | 297 | 26 |
| 2013-05-01T12:00 | 9245 | 308 | -41.8 | -58.4 | 297 | 26 |
| 2013-05-01T12:00 | 9259 | 307 | -41.9 | -58.4 | 297 | 26 |
| 2013-05-01T12:00 | 9271 | 306 | -42.1 | -58.5 | 297 | 26 |
| 2013-05-01T12:00 | 9281 | 306 | -42.2 | -58.5 | 297 | 26 |
| 2013-05-01T12:00 | 9292 | 305 | -42.3 | -58.5 | 297 | 26 |
| 2013-05-01T12:00 | 9302 | 305 | -42.4 | -58.6 | 298 | 26 |
| 2013-05-01T12:00 | 9311 | 305 | -42.4 | -58.6 | 298 | 26 |
| 2013-05-01T12:00 | 9322 | 304 | -42.5 | -58.6 | 298 | 26 |
| 2013-05-01T12:00 | 9335 | 304 | -42.6 | -58.7 | 298 | 26 |
| 2013-05-01T12:00 | 9348 | 303 | -42.7 | -58.8 | 298 | 26 |
| 2013-05-01T12:00 | 9362 | 302 | -42.8 | -58.9 | 298 | 26 |
| 2013-05-01T12:00 | 9379 | 302 | -43.0 | -59.0 | 298 | 26 |
| 2013-05-01T12:00 | 9394 | 301 | -43.1 | -59.2 | 298 | 26 |
| 2013-05-01T12:00 | 9408 | 300 | -43.2 | -59.3 | 298 | 26 |
| 2013-05-01T12:00 | 9424 | 300 | -43.4 | -59.6 | 298 | 26 |
| 2013-05-01T12:00 | 9439 | 299 | -43.5 | -59.7 | 297 | 26 |
| 2013-05-01T12:00 | 9452 | 298 | -43.6 | -59.8 | 297 | 26 |
| 2013-05-01T12:00 | 9466 | 298 | -43.8 | -59.9 | 297 | 26 |
| 2013-05-01T12:00 | 9477 | 297 | -43.9 | -60.0 | 297 | 26 |
| 2013-05-01T12:00 | 9487 | 297 | -44.0 | -60.0 | 297 | 26 |
| 2013-05-01T12:00 | 9498 | 296 | -44.1 | -60.1 | 297 | 26 |
| 2013-05-01T12:00 | 9507 | 296 | -44.2 | -60.2 | 297 | 26 |
| 2013-05-01T12:00 | 9519 | 295 | -44.2 | -60.3 | 297 | 25 |
| 2013-05-01T12:00 | 9529 | 295 | -44.3 | -60.5 | 297 | 25 |
| 2013-05-01T12:00 | 9538 | 295 | -44.4 | -60.6 | 297 | 25 |
| 2013-05-01T12:00 | 9547 | 294 | -44.5 | -60.8 | 298 | 25 |
| 2013-05-01T12:00 | 9556 | 294 | -44.5 | -61.0 | 298 | 25 |
| 2013-05-01T12:00 | 9567 | 293 | -44.6 | -61.1 | 298 | 25 |
| 2013-05-01T12:00 | 9577 | 293 | -44.7 | -61.3 | 298 | 25 |
| 2013-05-01T12:00 | 9587 | 292 | -44.8 | -61.4 | 299 | 24 |
| 2013-05-01T12:00 | 9598 | 292 | -44.9 | -61.5 | 299 | 24 |
| 2013-05-01T12:00 | 9609 | 291 | -45.0 | -61.6 | 299 | 24 |
| 2013-05-01T12:00 | 9623 | 291 | -45.1 | -61.7 | 299 | 24 |
| 2013-05-01T12:00 | 9637 | 290 | -45.2 | -61.8 | 299 | 24 |
| 2013-05-01T12:00 | 9649 | 290 | -45.3 | -62.0 | 299 | 24 |
| 2013-05-01T12:00 | 9661 | 289 | -45.4 | -62.2 | 299 | 25 |
| 2013-05-01T12:00 | 9674 | 289 | -45.5 | -62.4 | 299 | 25 |
| 2013-05-01T12:00 | 9687 | 288 | -45.6 | -62.6 | 299 | 25 |
| 2013-05-01T12:00 | 9699 | 287 | -45.7 | -62.7 | 299 | 25 |
| 2013-05-01T12:00 | 9713 | 287 | -45.8 | -62.8 | 299 | 25 |
| 2013-05-01T12:00 | 9729 | 286 | -46.0 | -62.8 | 298 | 25 |
| 2013-05-01T12:00 | 9744 | 286 | -46.1 | -62.8 | 298 | 25 |
| 2013-05-01T12:00 | 9755 | 285 | -46.2 | -62.8 | 298 | 25 |
| 2013-05-01T12:00 | 9768 | 285 | -46.3 | -62.8 | 297 | 25 |
| 2013-05-01T12:00 | 9782 | 284 | -46.5 | -62.8 | 297 | 25 |
| 2013-05-01T12:00 | 9794 | 283 | -46.6 | -62.8 | 297 | 26 |
| 2013-05-01T12:00 | 9806 | 283 | -46.7 | -62.8 | 296 | 26 |
| 2013-05-01T12:00 | 9819 | 282 | -46.8 | -62.9 | 296 | 26 |
| 2013-05-01T12:00 | 9832 | 282 | -47.0 | -63.0 | 295 | 26 |
| 2013-05-01T12:00 | 9842 | 281 | -47.1 | -63.0 | 295 | 26 |
| 2013-05-01T12:00 | 9852 | 281 | -47.2 | -63.1 | 294 | 26 |
| 2013-05-01T12:00 | 9861 | 281 | -47.3 | -63.1 | 294 | 26 |
| 2013-05-01T12:00 | 9873 | 280 | -47.4 | -63.1 | 293 | 26 |
| 2013-05-01T12:00 | 9887 | 279 | -47.5 | -63.1 | 293 | 26 |
| 2013-05-01T12:00 | 9900 | 279 | -47.7 | -63.2 | 292 | 26 |
| 2013-05-01T12:00 | 9910 | 278 | -47.7 | -63.1 | 291 | 26 |
| 2013-05-01T12:00 | 9923 | 278 | -47.8 | -63.1 | 290 | 26 |
| 2013-05-01T12:00 | 9936 | 277 | -48.0 | -63.1 | 290 | 26 |
| 2013-05-01T12:00 | 9949 | 277 | -48.1 | -63.2 | 289 | 26 |
| 2013-05-01T12:00 | 9962 | 276 | -48.2 | -63.2 | 289 | 26 |
| 2013-05-01T12:00 | 9971 | 276 | -48.3 | -63.4 | 288 | 25 |
| 2013-05-01T12:00 | 9981 | 275 | -48.4 | -63.5 | 288 | 25 |
| 2013-05-01T12:00 | 9992 | 275 | -48.5 | -63.6 | 288 | 25 |
| 2013-05-01T12:00 | 10002 | 275 | -48.6 | -63.8 | 288 | 25 |
| 2013-05-01T12:00 | 10013 | 274 | -48.7 | -64.0 | 288 | 25 |
| 2013-05-01T12:00 | 10024 | 274 | -48.8 | -64.1 | 288 | 25 |
| 2013-05-01T12:00 | 10036 | 273 | -48.9 | -64.3 | 287 | 25 |
| 2013-05-01T12:00 | 10048 | 273 | -49.1 | -64.5 | 287 | 25 |
| 2013-05-01T12:00 | 10061 | 272 | -49.2 | -64.6 | 287 | 25 |
| 2013-05-01T12:00 | 10076 | 272 | -49.2 | -64.9 | 287 | 25 |
| 2013-05-01T12:00 | 10090 | 271 | -49.4 | -65.2 | 287 | 25 |
| 2013-05-01T12:00 | 10101 | 270 | -49.4 | -65.4 | 287 | 25 |
| 2013-05-01T12:00 | 10112 | 270 | -49.5 | -65.6 | 287 | 25 |
| 2013-05-01T12:00 | 10122 | 270 | -49.6 | -65.9 | 287 | 25 |
| 2013-05-01T12:00 | 10131 | 269 | -49.6 | -66.0 | 286 | 25 |
| 2013-05-01T12:00 | 10140 | 269 | -49.7 | -66.1 | 286 | 25 |
| 2013-05-01T12:00 | 10149 | 269 | -49.7 | -66.2 | 286 | 26 |
| 2013-05-01T12:00 | 10160 | 268 | -49.8 | -66.2 | 286 | 26 |
| 2013-05-01T12:00 | 10172 | 268 | -49.8 | -66.3 | 286 | 26 |
| 2013-05-01T12:00 | 10183 | 267 | -49.9 | -66.3 | 286 | 26 |
| 2013-05-01T12:00 | 10193 | 267 | -50.0 | -66.2 | 285 | 26 |
| 2013-05-01T12:00 | 10203 | 266 | -50.1 | -66.2 | 285 | 26 |
| 2013-05-01T12:00 | 10214 | 266 | -50.1 | -66.1 | 285 | 26 |
| 2013-05-01T12:00 | 10224 | 265 | -50.2 | -66.0 | 285 | 27 |
| 2013-05-01T12:00 | 10234 | 265 | -50.3 | -65.9 | 285 | 27 |
| 2013-05-01T12:00 | 10243 | 265 | -50.4 | -65.8 | 285 | 27 |
| 2013-05-01T12:00 | 10253 | 264 | -50.5 | -65.7 | 285 | 27 |
| 2013-05-01T12:00 | 10262 | 264 | -50.6 | -65.7 | 285 | 27 |
| 2013-05-01T12:00 | 10271 | 264 | -50.6 | -65.7 | 285 | 27 |
| 2013-05-01T12:00 | 10281 | 263 | -50.7 | -65.7 | 285 | 27 |
| 2013-05-01T12:00 | 10290 | 263 | -50.7 | -65.8 | 285 | 28 |
| 2013-05-01T12:00 | 10299 | 262 | -50.8 | -65.9 | 286 | 28 |
| 2013-05-01T12:00 | 10309 | 262 | -50.7 | -66.1 | 286 | 28 |
| 2013-05-01T12:00 | 10319 | 262 | -50.7 | -66.3 | 286 | 28 |
| 2013-05-01T12:00 | 10328 | 261 | -50.7 | -66.6 | 286 | 28 |
| 2013-05-01T12:00 | 10339 | 261 | -50.6 | -67.0 | 286 | 28 |
| 2013-05-01T12:00 | 10349 | 260 | -50.5 | -67.4 | 286 | 28 |
| 2013-05-01T12:00 | 10357 | 260 | -50.5 | -67.9 | 286 | 28 |
| 2013-05-01T12:00 | 10367 | 260 | -50.5 | -68.4 | 286 | 28 |
| 2013-05-01T12:00 | 10380 | 259 | -50.5 | -68.8 | 286 | 28 |
| 2013-05-01T12:00 | 10393 | 259 | -50.5 | -69.1 | 286 | 28 |
| 2013-05-01T12:00 | 10405 | 258 | -50.6 | -69.3 | 286 | 28 |
| 2013-05-01T12:00 | 10416 | 258 | -50.5 | -69.4 | 286 | 28 |
| 2013-05-01T12:00 | 10426 | 257 | -50.5 | -69.5 | 286 | 28 |
| 2013-05-01T12:00 | 10437 | 257 | -50.6 | -69.6 | 285 | 28 |
| 2013-05-01T12:00 | 10448 | 257 | -50.7 | -69.7 | 285 | 27 |
| 2013-05-01T12:00 | 10458 | 256 | -50.7 | -69.8 | 285 | 27 |
| 2013-05-01T12:00 | 10466 | 256 | -50.8 | -69.8 | 285 | 27 |
| 2013-05-01T12:00 | 10474 | 255 | -50.8 | -69.8 | 285 | 27 |
| 2013-05-01T12:00 | 10483 | 255 | -50.9 | -69.9 | 284 | 27 |
| 2013-05-01T12:00 | 10493 | 255 | -50.9 | -70.0 | 284 | 27 |
| 2013-05-01T12:00 | 10504 | 254 | -51.0 | -70.2 | 284 | 27 |
| 2013-05-01T12:00 | 10515 | 254 | -51.0 | -70.4 | 284 | 27 |
| 2013-05-01T12:00 | 10526 | 253 | -51.0 | -70.7 | 284 | 27 |
| 2013-05-01T12:00 | 10538 | 253 | -51.0 | -70.9 | 284 | 27 |
| 2013-05-01T12:00 | 10549 | 253 | -50.9 | -71.0 | 284 | 27 |
| 2013-05-01T12:00 | 10560 | 252 | -50.7 | -71.2 | 284 | 27 |
| 2013-05-01T12:00 | 10570 | 252 | -50.7 | -71.4 | 285 | 27 |
| 2013-05-01T12:00 | 10581 | 251 | -50.7 | -71.6 | 285 | 28 |
| 2013-05-01T12:00 | 10592 | 251 | -50.8 | -71.7 | 285 | 28 |
| 2013-05-01T12:00 | 10603 | 250 | -50.9 | -71.8 | 285 | 28 |
| 2013-05-01T12:00 | 10613 | 250 | -51.0 | -71.8 | 285 | 28 |
| 2013-05-01T12:00 | 10623 | 250 | -51.1 | -71.7 | 286 | 28 |
| 2013-05-01T12:00 | 10632 | 249 | -51.1 | -71.7 | 286 | 28 |
| 2013-05-01T12:00 | 10641 | 249 | -51.2 | -71.6 | 286 | 29 |
| 2013-05-01T12:00 | 10650 | 249 | -51.3 | -71.5 | 286 | 29 |
| 2013-05-01T12:00 | 10658 | 248 | -51.3 | -71.5 | 286 | 29 |
| 2013-05-01T12:00 | 10668 | 248 | -51.4 | -71.6 | 286 | 29 |
| 2013-05-01T12:00 | 10677 | 248 | -51.5 | -71.7 | 287 | 29 |
| 2013-05-01T12:00 | 10687 | 247 | -51.5 | -71.8 | 287 | 29 |
| 2013-05-01T12:00 | 10698 | 247 | -51.6 | -71.9 | 287 | 29 |
| 2013-05-01T12:00 | 10708 | 246 | -51.7 | -72.0 | 287 | 29 |
| 2013-05-01T12:00 | 10718 | 246 | -51.8 | -72.1 | 287 | 29 |
| 2013-05-01T12:00 | 10728 | 246 | -51.8 | -72.1 | 287 | 30 |
| 2013-05-01T12:00 | 10738 | 245 | -51.9 | -72.3 | 287 | 30 |
| 2013-05-01T12:00 | 10747 | 245 | -52.0 | -72.4 | 287 | 30 |
| 2013-05-01T12:00 | 10757 | 245 | -52.0 | -72.5 | 287 | 30 |
| 2013-05-01T12:00 | 10766 | 244 | -52.0 | -72.6 | 287 | 30 |
| 2013-05-01T12:00 | 10775 | 244 | -52.0 | -72.7 | 287 | 30 |
| 2013-05-01T12:00 | 10785 | 244 | -52.0 | -72.8 | 287 | 30 |
| 2013-05-01T12:00 | 10794 | 243 | -52.0 | -72.9 | 287 | 30 |
| 2013-05-01T12:00 | 10803 | 243 | -52.0 | -72.9 | 287 | 30 |
| 2013-05-01T12:00 | 10813 | 242 | -52.0 | -73.0 | 287 | 30 |
| 2013-05-01T12:00 | 10822 | 242 | -52.1 | -73.0 | 287 | 30 |
| 2013-05-01T12:00 | 10832 | 242 | -52.1 | -73.0 | 287 | 30 |
| 2013-05-01T12:00 | 10842 | 241 | -52.2 | -73.1 | 287 | 29 |
| 2013-05-01T12:00 | 10853 | 241 | -52.3 | -73.1 | 287 | 29 |
| 2013-05-01T12:00 | 10862 | 241 | -52.3 | -73.1 | 287 | 29 |
| 2013-05-01T12:00 | 10871 | 240 | -52.3 | -73.1 | 288 | 29 |
| 2013-05-01T12:00 | 10880 | 240 | -52.4 | -73.1 | 288 | 29 |
| 2013-05-01T12:00 | 10890 | 240 | -52.4 | -73.1 | 288 | 29 |
| 2013-05-01T12:00 | 10899 | 239 | -52.4 | -73.1 | 288 | 29 |
| 2013-05-01T12:00 | 10909 | 239 | -52.5 | -73.1 | 288 | 29 |
| 2013-05-01T12:00 | 10918 | 239 | -52.5 | -73.1 | 289 | 29 |
| 2013-05-01T12:00 | 10926 | 238 | -52.5 | -73.1 | 289 | 29 |
| 2013-05-01T12:00 | 10934 | 238 | -52.6 | -73.1 | 289 | 29 |
| 2013-05-01T12:00 | 10943 | 238 | -52.6 | -73.1 | 289 | 29 |
| 2013-05-01T12:00 | 10952 | 237 | -52.7 | -73.2 | 289 | 29 |
| 2013-05-01T12:00 | 10961 | 237 | -52.7 | -73.1 | 289 | 29 |
| 2013-05-01T12:00 | 10971 | 237 | -52.8 | -73.2 | 289 | 29 |
| 2013-05-01T12:00 | 10979 | 236 | -52.8 | -73.2 | 290 | 29 |
| 2013-05-01T12:00 | 10987 | 236 | -52.9 | -73.2 | 290 | 29 |
| 2013-05-01T12:00 | 10994 | 236 | -53.0 | -73.2 | 290 | 29 |
| 2013-05-01T12:00 | 11002 | 235 | -53.0 | -73.2 | 290 | 29 |
| 2013-05-01T12:00 | 11011 | 235 | -53.1 | -73.3 | 289 | 29 |
| 2013-05-01T12:00 | 11020 | 235 | -53.1 | -73.3 | 289 | 29 |
| 2013-05-01T12:00 | 11030 | 234 | -53.1 | -73.3 | 289 | 29 |
| 2013-05-01T12:00 | 11039 | 234 | -53.1 | -73.3 | 289 | 28 |
| 2013-05-01T12:00 | 11047 | 234 | -53.0 | -73.3 | 289 | 28 |
| 2013-05-01T12:00 | 11055 | 234 | -53.0 | -73.3 | 289 | 28 |
| 2013-05-01T12:00 | 11064 | 233 | -52.9 | -73.3 | 288 | 28 |
| 2013-05-01T12:00 | 11073 | 233 | -52.9 | -73.3 | 288 | 28 |
| 2013-05-01T12:00 | 11082 | 233 | -52.9 | -73.3 | 288 | 28 |
| 2013-05-01T12:00 | 11091 | 232 | -52.9 | -73.3 | 288 | 28 |
| 2013-05-01T12:00 | 11099 | 232 | -52.8 | -73.4 | 287 | 28 |
| 2013-05-01T12:00 | 11107 | 232 | -52.9 | -73.4 | 287 | 28 |
| 2013-05-01T12:00 | 11116 | 231 | -52.9 | -73.4 | 287 | 28 |
| 2013-05-01T12:00 | 11125 | 231 | -53.0 | -73.5 | 287 | 28 |
| 2013-05-01T12:00 | 11133 | 231 | -53.0 | -73.5 | 286 | 28 |
| 2013-05-01T12:00 | 11143 | 230 | -53.1 | -73.6 | 286 | 28 |
| 2013-05-01T12:00 | 11151 | 230 | -53.1 | -73.7 | 286 | 28 |
| 2013-05-01T12:00 | 11160 | 230 | -53.2 | -73.7 | 285 | 28 |
| 2013-05-01T12:00 | 11168 | 229 | -53.2 | -73.7 | 285 | 28 |
| 2013-05-01T12:00 | 11178 | 229 | -53.2 | -73.8 | 285 | 28 |
| 2013-05-01T12:00 | 11187 | 229 | -53.3 | -73.9 | 284 | 28 |
| 2013-05-01T12:00 | 11196 | 228 | -53.3 | -74.0 | 284 | 28 |
| 2013-05-01T12:00 | 11207 | 228 | -53.4 | -74.0 | 283 | 28 |
| 2013-05-01T12:00 | 11220 | 228 | -53.4 | -74.1 | 283 | 28 |
| 2013-05-01T12:00 | 11232 | 227 | -53.4 | -74.1 | 282 | 29 |
| 2013-05-01T12:00 | 11242 | 227 | -53.5 | -74.2 | 281 | 29 |
| 2013-05-01T12:00 | 11253 | 226 | -53.5 | -74.2 | 281 | 29 |
| 2013-05-01T12:00 | 11264 | 226 | -53.5 | -74.2 | 280 | 29 |
| 2013-05-01T12:00 | 11276 | 226 | -53.5 | -74.3 | 280 | 29 |
| 2013-05-01T12:00 | 11287 | 225 | -53.6 | -74.3 | 279 | 29 |
| 2013-05-01T12:00 | 11298 | 225 | -53.6 | -74.3 | 279 | 29 |
| 2013-05-01T12:00 | 11309 | 225 | -53.6 | -74.2 | 278 | 29 |
| 2013-05-01T12:00 | 11318 | 224 | -53.6 | -74.2 | 278 | 29 |
| 2013-05-01T12:00 | 11327 | 224 | -53.6 | -74.1 | 278 | 29 |
| 2013-05-01T12:00 | 11336 | 224 | -53.7 | -74.0 | 277 | 29 |
| 2013-05-01T12:00 | 11344 | 223 | -53.7 | -74.0 | 277 | 29 |
| 2013-05-01T12:00 | 11353 | 223 | -53.7 | -73.9 | 277 | 28 |
| 2013-05-01T12:00 | 11362 | 223 | -53.8 | -73.9 | 276 | 28 |
| 2013-05-01T12:00 | 11371 | 222 | -53.8 | -73.9 | 276 | 28 |
| 2013-05-01T12:00 | 11380 | 222 | -53.9 | -73.8 | 276 | 28 |
| 2013-05-01T12:00 | 11390 | 222 | -54.0 | -73.8 | 276 | 28 |
| 2013-05-01T12:00 | 11399 | 221 | -54.0 | -73.8 | 276 | 28 |
| 2013-05-01T12:00 | 11410 | 221 | -54.1 | -73.8 | 275 | 28 |
| 2013-05-01T12:00 | 11420 | 221 | -54.1 | -73.8 | 275 | 28 |
| 2013-05-01T12:00 | 11429 | 220 | -54.1 | -73.8 | 275 | 28 |
| 2013-05-01T12:00 | 11439 | 220 | -54.2 | -73.8 | 275 | 28 |
| 2013-05-01T12:00 | 11449 | 220 | -54.3 | -73.8 | 275 | 28 |
| 2013-05-01T12:00 | 11458 | 219 | -54.3 | -73.8 | 275 | 28 |
| 2013-05-01T12:00 | 11468 | 219 | -54.4 | -73.9 | 275 | 28 |
| 2013-05-01T12:00 | 11477 | 219 | -54.5 | -73.9 | 275 | 28 |
| 2013-05-01T12:00 | 11486 | 218 | -54.6 | -73.9 | 275 | 28 |
| 2013-05-01T12:00 | 11495 | 218 | -54.7 | -74.0 | 275 | 28 |
| 2013-05-01T12:00 | 11503 | 218 | -54.7 | -74.0 | 276 | 28 |
| 2013-05-01T12:00 | 11511 | 218 | -54.8 | -74.0 | 276 | 28 |
| 2013-05-01T12:00 | 11520 | 217 | -54.8 | -74.0 | 276 | 27 |
| 2013-05-01T12:00 | 11529 | 217 | -54.9 | -74.0 | 275 | 27 |
| 2013-05-01T12:00 | 11537 | 217 | -54.9 | -74.0 | 275 | 27 |
| 2013-05-01T12:00 | 11546 | 216 | -55.0 | -74.1 | 275 | 27 |
| 2013-05-01T12:00 | 11555 | 216 | -55.0 | -74.1 | 275 | 27 |
| 2013-05-01T12:00 | 11563 | 216 | -55.0 | -74.1 | 275 | 27 |
| 2013-05-01T12:00 | 11571 | 216 | -55.1 | -74.1 | 275 | 27 |
| 2013-05-01T12:00 | 11579 | 215 | -55.0 | -74.2 | 275 | 27 |
| 2013-05-01T12:00 | 11587 | 215 | -55.1 | -74.2 | 274 | 27 |
| 2013-05-01T12:00 | 11596 | 215 | -55.1 | -74.3 | 274 | 27 |
| 2013-05-01T12:00 | 11607 | 214 | -55.2 | -74.4 | 273 | 27 |
| 2013-05-01T12:00 | 11621 | 214 | -55.2 | -74.4 | 273 | 27 |
| 2013-05-01T12:00 | 11636 | 213 | -55.1 | -74.4 | 272 | 27 |
| 2013-05-01T12:00 | 11649 | 213 | -55.0 | -74.4 | 271 | 27 |
| 2013-05-01T12:00 | 11663 | 212 | -55.0 | -74.5 | 271 | 28 |
| 2013-05-01T12:00 | 11678 | 212 | -55.0 | -74.6 | 270 | 28 |
| 2013-05-01T12:00 | 11693 | 211 | -55.1 | -74.7 | 269 | 28 |
| 2013-05-01T12:00 | 11707 | 211 | -55.2 | -74.8 | 269 | 29 |
| 2013-05-01T12:00 | 11717 | 211 | -55.2 | -74.9 | 268 | 29 |
| 2013-05-01T12:00 | 11726 | 210 | -55.2 | -74.9 | 268 | 29 |
| 2013-05-01T12:00 | 11739 | 210 | -55.3 | -75.0 | 267 | 30 |
| 2013-05-01T12:00 | 11753 | 209 | -55.3 | -75.0 | 267 | 30 |
| 2013-05-01T12:00 | 11765 | 209 | -55.3 | -75.0 | 267 | 30 |
| 2013-05-01T12:00 | 11780 | 209 | -55.4 | -75.0 | 267 | 30 |
| 2013-05-01T12:00 | 11795 | 208 | -55.5 | -75.1 | 267 | 31 |
| 2013-05-01T12:00 | 11809 | 208 | -55.6 | -75.1 | 267 | 31 |
| 2013-05-01T12:00 | 11824 | 207 | -55.7 | -75.1 | 267 | 31 |
| 2013-05-01T12:00 | 11838 | 207 | -55.8 | -75.2 | 267 | 31 |
| 2013-05-01T12:00 | 11854 | 206 | -55.9 | -75.1 | 266 | 31 |
| 2013-05-01T12:00 | 11869 | 206 | -56.0 | -75.2 | 266 | 32 |
| 2013-05-01T12:00 | 11883 | 205 | -56.1 | -75.2 | 266 | 32 |
| 2013-05-01T12:00 | 11895 | 205 | -56.3 | -75.2 | 266 | 32 |
| 2013-05-01T12:00 | 11907 | 204 | -56.4 | -75.2 | 266 | 33 |
| 2013-05-01T12:00 | 11919 | 204 | -56.5 | -75.2 | 265 | 33 |
| 2013-05-01T12:00 | 11933 | 204 | -56.6 | -75.2 | 265 | 33 |
| 2013-05-01T12:00 | 11949 | 203 | -56.7 | -75.2 | 264 | 33 |
| 2013-05-01T12:00 | 11965 | 203 | -56.8 | -75.2 | 264 | 34 |
| 2013-05-01T12:00 | 11983 | 202 | -56.9 | -75.3 | 264 | 34 |
| 2013-05-01T12:00 | 11999 | 201 | -57.1 | -75.3 | 263 | 34 |
| 2013-05-01T12:00 | 12013 | 201 | -57.1 | -75.3 | 263 | 35 |
| 2013-05-01T12:00 | 12030 | 201 | -57.3 | -75.3 | 263 | 35 |
| 2013-05-01T12:00 | 12046 | 200 | -57.5 | -75.5 | 262 | 35 |
| 2013-05-01T12:00 | 12055 | 200 | -57.5 | -75.5 | 262 | 36 |
| 2013-05-01T12:00 | 12063 | 199 | -57.5 | -75.4 | 262 | 36 |
| 2013-05-01T12:00 | 12071 | 199 | -57.4 | -75.4 | 262 | 36 |
| 2013-05-01T12:00 | 12079 | 199 | -57.5 | -75.4 | 262 | 36 |
| 2013-05-01T12:00 | 12087 | 199 | -57.5 | -75.5 | 262 | 37 |
| 2013-05-01T12:00 | 12096 | 198 | -57.5 | -75.5 | 262 | 37 |
| 2013-05-01T12:00 | 12106 | 198 | -57.4 | -75.4 | 262 | 37 |
| 2013-05-01T12:00 | 12118 | 198 | -57.2 | -75.4 | 262 | 37 |
| 2013-05-01T12:00 | 12129 | 197 | -57.2 | -75.4 | 262 | 37 |
| 2013-05-01T12:00 | 12139 | 197 | -57.3 | -75.5 | 262 | 37 |
| 2013-05-01T12:00 | 12148 | 197 | -57.3 | -75.6 | 262 | 37 |
| 2013-05-01T12:00 | 12157 | 197 | -57.4 | -75.7 | 262 | 37 |
| 2013-05-01T12:00 | 12166 | 196 | -57.5 | -75.8 | 263 | 37 |
| 2013-05-01T12:00 | 12176 | 196 | -57.6 | -75.9 | 263 | 37 |
| 2013-05-01T12:00 | 12184 | 196 | -57.7 | -76.1 | 263 | 37 |
| 2013-05-01T12:00 | 12191 | 195 | -57.7 | -76.2 | 263 | 37 |
| 2013-05-01T12:00 | 12199 | 195 | -57.8 | -76.4 | 264 | 37 |
| 2013-05-01T12:00 | 12208 | 195 | -57.8 | -76.5 | 264 | 37 |
| 2013-05-01T12:00 | 12216 | 195 | -57.8 | -76.6 | 264 | 37 |
| 2013-05-01T12:00 | 12225 | 194 | -57.8 | -76.8 | 265 | 37 |
| 2013-05-01T12:00 | 12233 | 194 | -57.7 | -76.8 | 265 | 37 |
| 2013-05-01T12:00 | 12242 | 194 | -57.5 | -76.8 | 265 | 37 |
| 2013-05-01T12:00 | 12251 | 194 | -57.1 | -76.7 | 266 | 37 |
| 2013-05-01T12:00 | 12260 | 193 | -56.7 | -76.7 | 266 | 37 |
| 2013-05-01T12:00 | 12269 | 193 | -56.5 | -76.7 | 266 | 37 |
| 2013-05-01T12:00 | 12277 | 193 | -56.3 | -76.9 | 267 | 37 |
| 2013-05-01T12:00 | 12286 | 193 | -56.2 | -77.1 | 267 | 37 |
| 2013-05-01T12:00 | 12295 | 192 | -56.1 | -77.4 | 267 | 37 |
| 2013-05-01T12:00 | 12304 | 192 | -56.1 | -77.7 | 267 | 36 |
| 2013-05-01T12:00 | 12314 | 192 | -56.0 | -78.1 | 267 | 36 |
| 2013-05-01T12:00 | 12323 | 191 | -55.9 | -78.4 | 267 | 36 |
| 2013-05-01T12:00 | 12332 | 191 | -55.8 | -78.6 | 267 | 36 |
| 2013-05-01T12:00 | 12341 | 191 | -55.5 | -78.8 | 266 | 37 |
| 2013-05-01T12:00 | 12351 | 191 | -55.2 | -79.0 | 266 | 37 |
| 2013-05-01T12:00 | 12360 | 190 | -54.9 | -79.0 | 266 | 37 |
| 2013-05-01T12:00 | 12370 | 190 | -54.6 | -79.2 | 265 | 37 |
| 2013-05-01T12:00 | 12380 | 190 | -54.5 | -79.6 | 265 | 37 |
| 2013-05-01T12:00 | 12391 | 189 | -54.5 | -79.9 | 265 | 37 |
| 2013-05-01T12:00 | 12402 | 189 | -54.5 | -80.3 | 264 | 37 |
| 2013-05-01T12:00 | 12412 | 189 | -54.4 | -80.6 | 264 | 38 |
| 2013-05-01T12:00 | 12421 | 189 | -54.4 | -80.9 | 264 | 38 |
| 2013-05-01T12:00 | 12430 | 188 | -54.4 | -81.1 | 264 | 38 |
| 2013-05-01T12:00 | 12439 | 188 | -54.4 | -81.3 | 263 | 38 |
| 2013-05-01T12:00 | 12448 | 188 | -54.4 | -81.5 | 263 | 39 |
| 2013-05-01T12:00 | 12458 | 187 | -54.3 | -81.8 | 263 | 39 |
| 2013-05-01T12:00 | 12468 | 187 | -54.3 | -81.9 | 263 | 39 |
| 2013-05-01T12:00 | 12478 | 187 | -54.2 | -82.1 | 263 | 39 |
| 2013-05-01T12:00 | 12487 | 187 | -54.2 | -82.2 | 264 | 39 |
| 2013-05-01T12:00 | 12495 | 186 | -54.3 | -82.4 | 264 | 40 |
| 2013-05-01T12:00 | 12505 | 186 | -54.2 | -82.5 | 264 | 40 |
| 2013-05-01T12:00 | 12514 | 186 | -54.1 | -82.6 | 264 | 40 |
| 2013-05-01T12:00 | 12524 | 186 | -54.0 | -82.6 | 264 | 40 |
| 2013-05-01T12:00 | 12534 | 185 | -54.0 | -82.6 | 265 | 40 |
| 2013-05-01T12:00 | 12544 | 185 | -53.9 | -82.7 | 265 | 41 |
| 2013-05-01T12:00 | 12553 | 185 | -53.9 | -82.6 | 265 | 41 |
| 2013-05-01T12:00 | 12561 | 184 | -53.9 | -82.7 | 266 | 41 |
| 2013-05-01T12:00 | 12570 | 184 | -53.9 | -82.8 | 266 | 41 |
| 2013-05-01T12:00 | 12578 | 184 | -53.9 | -82.9 | 266 | 41 |
| 2013-05-01T12:00 | 12587 | 184 | -53.9 | -83.1 | 267 | 41 |
| 2013-05-01T12:00 | 12596 | 183 | -53.9 | -83.4 | 267 | 42 |
| 2013-05-01T12:00 | 12605 | 183 | -54.0 | -83.7 | 267 | 42 |
| 2013-05-01T12:00 | 12614 | 183 | -53.9 | -84.0 | 268 | 42 |
| 2013-05-01T12:00 | 12624 | 183 | -53.7 | -84.3 | 268 | 42 |
| 2013-05-01T12:00 | 12633 | 182 | -53.4 | -84.6 | 268 | 42 |
| 2013-05-01T12:00 | 12643 | 182 | -53.3 | -84.9 | 269 | 42 |
| 2013-05-01T12:00 | 12651 | 182 | -53.2 | -85.1 | 269 | 42 |
| 2013-05-01T12:00 | 12660 | 182 | -53.0 | -85.3 | 269 | 42 |
| 2013-05-01T12:00 | 12670 | 181 | -52.9 | -85.4 | 270 | 42 |
| 2013-05-01T12:00 | 12679 | 181 | -52.9 | -85.6 | 270 | 43 |
| 2013-05-01T12:00 | 12687 | 181 | -52.9 | -85.8 | 270 | 43 |
| 2013-05-01T12:00 | 12696 | 181 | -52.8 | -85.8 | 270 | 43 |
| 2013-05-01T12:00 | 12705 | 180 | -52.8 | -85.8 | 270 | 43 |
| 2013-05-01T12:00 | 12715 | 180 | -52.9 | -85.8 | 271 | 43 |
| 2013-05-01T12:00 | 12724 | 180 | -52.9 | -85.8 | 271 | 43 |
| 2013-05-01T12:00 | 12732 | 180 | -52.8 | -85.7 | 271 | 43 |
| 2013-05-01T12:00 | 12741 | 179 | -52.7 | -85.7 | 270 | 43 |
| 2013-05-01T12:00 | 12749 | 179 | -52.7 | -85.7 | 270 | 43 |
| 2013-05-01T12:00 | 12759 | 179 | -52.6 | -85.6 | 270 | 43 |
| 2013-05-01T12:00 | 12768 | 179 | -52.6 | -85.6 | 270 | 44 |
| 2013-05-01T12:00 | 12777 | 178 | -52.5 | -85.5 | 270 | 44 |
| 2013-05-01T12:00 | 12786 | 178 | -52.6 | -85.6 | 270 | 44 |
| 2013-05-01T12:00 | 12795 | 178 | -52.6 | -85.6 | 270 | 44 |
| 2013-05-01T12:00 | 12803 | 178 | -52.6 | -85.6 | 270 | 44 |
| 2013-05-01T12:00 | 12811 | 177 | -52.5 | -85.5 | 270 | 44 |
| 2013-05-01T12:00 | 12819 | 177 | -52.4 | -85.5 | 270 | 44 |
| 2013-05-01T12:00 | 12828 | 177 | -52.3 | -85.4 | 270 | 44 |
| 2013-05-01T12:00 | 12838 | 177 | -52.1 | -85.3 | 270 | 44 |
| 2013-05-01T12:00 | 12848 | 176 | -51.9 | -85.1 | 270 | 44 |
| 2013-05-01T12:00 | 12858 | 176 | -51.8 | -85.0 | 271 | 43 |
| 2013-05-01T12:00 | 12867 | 176 | -51.8 | -85.0 | 271 | 43 |
| 2013-05-01T12:00 | 12876 | 176 | -51.7 | -85.0 | 271 | 43 |
| 2013-05-01T12:00 | 12884 | 175 | -51.7 | -85.0 | 272 | 43 |
| 2013-05-01T12:00 | 12893 | 175 | -51.7 | -84.9 | 272 | 43 |
| 2013-05-01T12:00 | 12902 | 175 | -51.7 | -84.9 | 272 | 42 |
| 2013-05-01T12:00 | 12910 | 175 | -51.7 | -84.9 | 273 | 42 |
| 2013-05-01T12:00 | 12918 | 175 | -51.7 | -84.9 | 273 | 42 |
| 2013-05-01T12:00 | 12927 | 174 | -51.6 | -84.9 | 273 | 42 |
| 2013-05-01T12:00 | 12936 | 174 | -51.6 | -84.9 | 273 | 42 |
| 2013-05-01T12:00 | 12944 | 174 | -51.6 | -84.9 | 273 | 42 |
| 2013-05-01T12:00 | 12952 | 174 | -51.6 | -84.9 | 273 | 41 |
| 2013-05-01T12:00 | 12960 | 173 | -51.6 | -84.9 | 274 | 41 |
| 2013-05-01T12:00 | 12969 | 173 | -51.6 | -84.9 | 274 | 41 |
| 2013-05-01T12:00 | 12977 | 173 | -51.6 | -84.9 | 274 | 41 |
| 2013-05-01T12:00 | 12985 | 173 | -51.6 | -84.9 | 274 | 41 |
| 2013-05-01T12:00 | 12993 | 173 | -51.7 | -85.0 | 274 | 41 |
| 2013-05-01T12:00 | 13002 | 172 | -51.7 | -85.0 | 274 | 41 |
| 2013-05-01T12:00 | 13011 | 172 | -51.7 | -85.0 | 274 | 41 |
| 2013-05-01T12:00 | 13018 | 172 | -51.7 | -85.0 | 274 | 41 |
| 2013-05-01T12:00 | 13027 | 172 | -51.7 | -85.0 | 274 | 41 |
| 2013-05-01T12:00 | 13035 | 171 | -51.7 | -85.0 | 274 | 41 |
| 2013-05-01T12:00 | 13043 | 171 | -51.7 | -85.0 | 274 | 41 |
| 2013-05-01T12:00 | 13050 | 171 | -51.7 | -85.0 | 274 | 41 |
| 2013-05-01T12:00 | 13059 | 171 | -51.7 | -85.0 | 274 | 40 |
| 2013-05-01T12:00 | 13068 | 171 | -51.7 | -85.0 | 274 | 40 |
| 2013-05-01T12:00 | 13077 | 170 | -51.7 | -85.0 | 274 | 40 |
| 2013-05-01T12:00 | 13085 | 170 | -51.7 | -84.9 | 274 | 40 |
| 2013-05-01T12:00 | 13093 | 170 | -51.7 | -84.9 | 274 | 40 |
| 2013-05-01T12:00 | 13102 | 170 | -51.7 | -85.0 | 274 | 40 |
| 2013-05-01T12:00 | 13110 | 169 | -51.7 | -85.0 | 274 | 40 |
| 2013-05-01T12:00 | 13119 | 169 | -51.7 | -85.0 | 274 | 40 |
| 2013-05-01T12:00 | 13128 | 169 | -51.7 | -84.9 | 274 | 40 |
| 2013-05-01T12:00 | 13136 | 169 | -51.7 | -85.0 | 274 | 40 |
| 2013-05-01T12:00 | 13144 | 169 | -51.8 | -85.0 | 275 | 40 |
| 2013-05-01T12:00 | 13153 | 168 | -51.8 | -85.1 | 275 | 40 |
| 2013-05-01T12:00 | 13162 | 168 | -51.9 | -85.1 | 275 | 40 |
| 2013-05-01T12:00 | 13170 | 168 | -51.9 | -85.1 | 275 | 40 |
| 2013-05-01T12:00 | 13178 | 168 | -51.9 | -85.1 | 275 | 40 |
| 2013-05-01T12:00 | 13186 | 167 | -52.0 | -85.1 | 275 | 40 |
| 2013-05-01T12:00 | 13195 | 167 | -52.0 | -85.2 | 276 | 40 |
| 2013-05-01T12:00 | 13204 | 167 | -52.1 | -85.2 | 276 | 40 |
| 2013-05-01T12:00 | 13214 | 167 | -52.2 | -85.3 | 276 | 40 |
| 2013-05-01T12:00 | 13222 | 167 | -52.3 | -85.3 | 276 | 39 |
| 2013-05-01T12:00 | 13231 | 166 | -52.3 | -85.4 | 276 | 39 |
| 2013-05-01T12:00 | 13239 | 166 | -52.4 | -85.4 | 276 | 39 |
| 2013-05-01T12:00 | 13248 | 166 | -52.4 | -85.4 | 276 | 39 |
| 2013-05-01T12:00 | 13256 | 166 | -52.4 | -85.5 | 276 | 39 |
| 2013-05-01T12:00 | 13266 | 165 | -52.5 | -85.5 | 276 | 39 |
| 2013-05-01T12:00 | 13275 | 165 | -52.5 | -85.5 | 276 | 39 |
| 2013-05-01T12:00 | 13283 | 165 | -52.5 | -85.5 | 277 | 39 |
| 2013-05-01T12:00 | 13292 | 165 | -52.5 | -85.5 | 277 | 39 |
| 2013-05-01T12:00 | 13301 | 164 | -52.5 | -85.5 | 277 | 39 |
| 2013-05-01T12:00 | 13310 | 164 | -52.5 | -85.5 | 277 | 39 |
| 2013-05-01T12:00 | 13319 | 164 | -52.6 | -85.6 | 277 | 39 |
| 2013-05-01T12:00 | 13329 | 164 | -52.6 | -85.6 | 277 | 38 |
| 2013-05-01T12:00 | 13338 | 164 | -52.7 | -85.7 | 277 | 38 |
| 2013-05-01T12:00 | 13348 | 163 | -52.8 | -85.7 | 277 | 38 |
| 2013-05-01T12:00 | 13357 | 163 | -52.8 | -85.7 | 277 | 38 |
| 2013-05-01T12:00 | 13366 | 163 | -52.9 | -85.8 | 277 | 38 |
| 2013-05-01T12:00 | 13375 | 163 | -52.9 | -85.8 | 277 | 38 |
| 2013-05-01T12:00 | 13385 | 162 | -52.9 | -85.8 | 277 | 38 |
| 2013-05-01T12:00 | 13394 | 162 | -52.9 | -85.8 | 277 | 38 |
| 2013-05-01T12:00 | 13403 | 162 | -53.0 | -85.8 | 277 | 38 |
| 2013-05-01T12:00 | 13412 | 162 | -53.0 | -85.9 | 277 | 38 |
| 2013-05-01T12:00 | 13422 | 161 | -53.0 | -85.9 | 276 | 38 |
| 2013-05-01T12:00 | 13432 | 161 | -53.0 | -85.9 | 276 | 38 |
| 2013-05-01T12:00 | 13441 | 161 | -53.0 | -85.8 | 276 | 38 |
| 2013-05-01T12:00 | 13452 | 161 | -52.9 | -85.8 | 276 | 39 |
| 2013-05-01T12:00 | 13463 | 160 | -52.9 | -85.8 | 275 | 39 |
| 2013-05-01T12:00 | 13474 | 160 | -53.0 | -85.9 | 275 | 39 |
| 2013-05-01T12:00 | 13486 | 160 | -53.1 | -86.0 | 275 | 39 |
| 2013-05-01T12:00 | 13497 | 160 | -53.2 | -86.0 | 275 | 39 |
| 2013-05-01T12:00 | 13507 | 159 | -53.3 | -86.1 | 274 | 39 |
| 2013-05-01T12:00 | 13517 | 159 | -53.4 | -86.1 | 274 | 39 |
| 2013-05-01T12:00 | 13527 | 159 | -53.4 | -86.2 | 274 | 39 |
| 2013-05-01T12:00 | 13537 | 159 | -53.4 | -86.2 | 274 | 39 |
| 2013-05-01T12:00 | 13546 | 158 | -53.5 | -86.2 | 274 | 39 |
| 2013-05-01T12:00 | 13556 | 158 | -53.5 | -86.2 | 274 | 39 |
| 2013-05-01T12:00 | 13566 | 158 | -53.6 | -86.3 | 274 | 39 |
| 2013-05-01T12:00 | 13576 | 158 | -53.6 | -86.3 | 274 | 39 |
| 2013-05-01T12:00 | 13587 | 157 | -53.6 | -86.3 | 274 | 39 |
| 2013-05-01T12:00 | 13597 | 157 | -53.5 | -86.2 | 274 | 39 |
| 2013-05-01T12:00 | 13606 | 157 | -53.5 | -86.2 | 274 | 39 |
| 2013-05-01T12:00 | 13616 | 157 | -53.5 | -86.2 | 274 | 39 |
| 2013-05-01T12:00 | 13627 | 156 | -53.5 | -86.3 | 274 | 39 |
| 2013-05-01T12:00 | 13637 | 156 | -53.5 | -86.2 | 274 | 39 |
| 2013-05-01T12:00 | 13647 | 156 | -53.5 | -86.2 | 274 | 39 |
| 2013-05-01T12:00 | 13658 | 156 | -53.5 | -86.2 | 274 | 39 |
| 2013-05-01T12:00 | 13668 | 155 | -53.5 | -86.2 | 275 | 39 |
| 2013-05-01T12:00 | 13677 | 155 | -53.5 | -86.3 | 275 | 39 |
| 2013-05-01T12:00 | 13686 | 155 | -53.5 | -86.2 | 275 | 39 |
| 2013-05-01T12:00 | 13696 | 155 | -53.4 | -86.2 | 275 | 39 |
| 2013-05-01T12:00 | 13706 | 154 | -53.3 | -86.1 | 275 | 38 |
| 2013-05-01T12:00 | 13717 | 154 | -53.2 | -86.0 | 276 | 38 |
| 2013-05-01T12:00 | 13727 | 154 | -53.1 | -86.0 | 276 | 38 |
| 2013-05-01T12:00 | 13738 | 154 | -53.1 | -86.0 | 276 | 37 |
| 2013-05-01T12:00 | 13748 | 153 | -53.1 | -86.0 | 276 | 37 |
| 2013-05-01T12:00 | 13758 | 153 | -53.1 | -85.9 | 276 | 37 |
| 2013-05-01T12:00 | 13769 | 153 | -53.1 | -86.0 | 276 | 37 |
| 2013-05-01T12:00 | 13779 | 153 | -53.1 | -86.0 | 276 | 36 |
| 2013-05-01T12:00 | 13789 | 153 | -53.1 | -86.0 | 277 | 36 |
| 2013-05-01T12:00 | 13798 | 152 | -53.1 | -86.0 | 277 | 36 |
| 2013-05-01T12:00 | 13809 | 152 | -53.1 | -86.0 | 277 | 35 |
| 2013-05-01T12:00 | 13820 | 152 | -53.2 | -86.0 | 277 | 35 |
| 2013-05-01T12:00 | 13830 | 152 | -53.2 | -86.0 | 277 | 35 |
| 2013-05-01T12:00 | 13841 | 151 | -53.2 | -86.0 | 277 | 34 |
| 2013-05-01T12:00 | 13851 | 151 | -53.2 | -86.0 | 277 | 34 |
| 2013-05-01T12:00 | 13862 | 151 | -53.2 | -86.0 | 277 | 34 |
| 2013-05-01T12:00 | 13874 | 150 | -53.2 | -86.0 | 277 | 34 |
| 2013-05-01T12:00 | 13888 | 150 | -53.3 | -86.1 | 277 | 34 |
| 2013-05-01T12:00 | 13901 | 150 | -53.4 | -86.2 | 277 | 33 |
| 2013-05-01T12:00 | 13914 | 150 | -53.5 | -86.2 | 276 | 33 |
| 2013-05-01T12:00 | 13926 | 149 | -53.6 | -86.3 | 276 | 33 |
| 2013-05-01T12:00 | 13936 | 149 | -53.7 | -86.4 | 276 | 33 |
| 2013-05-01T12:00 | 13947 | 149 | -53.8 | -86.4 | 276 | 33 |
| 2013-05-01T12:00 | 13957 | 149 | -53.9 | -86.5 | 276 | 33 |
| 2013-05-01T12:00 | 13967 | 148 | -54.0 | -86.6 | 276 | 33 |
| 2013-05-01T12:00 | 13977 | 148 | -54.1 | -86.6 | 276 | 32 |
| 2013-05-01T12:00 | 13986 | 148 | -54.2 | -86.7 | 276 | 32 |
| 2013-05-01T12:00 | 13996 | 148 | -54.3 | -86.8 | 276 | 32 |
| 2013-05-01T12:00 | 14006 | 147 | -54.4 | -86.8 | 276 | 32 |
| 2013-05-01T12:00 | 14015 | 147 | -54.5 | -86.9 | 276 | 32 |
| 2013-05-01T12:00 | 14024 | 147 | -54.5 | -87.0 | 276 | 32 |
| 2013-05-01T12:00 | 14034 | 147 | -54.6 | -87.0 | 276 | 32 |
| 2013-05-01T12:00 | 14044 | 147 | -54.7 | -87.1 | 276 | 32 |
| 2013-05-01T12:00 | 14053 | 146 | -54.8 | -87.1 | 276 | 32 |
| 2013-05-01T12:00 | 14064 | 146 | -54.9 | -87.2 | 275 | 32 |
| 2013-05-01T12:00 | 14074 | 146 | -55.0 | -87.3 | 275 | 31 |
| 2013-05-01T12:00 | 14083 | 146 | -55.0 | -87.3 | 275 | 31 |
| 2013-05-01T12:00 | 14092 | 145 | -55.1 | -87.4 | 275 | 31 |
| 2013-05-01T12:00 | 14101 | 145 | -55.2 | -87.4 | 274 | 31 |
| 2013-05-01T12:00 | 14112 | 145 | -55.2 | -87.5 | 274 | 31 |
| 2013-05-01T12:00 | 14121 | 145 | -55.3 | -87.5 | 274 | 31 |
| 2013-05-01T12:00 | 14130 | 145 | -55.4 | -87.5 | 273 | 31 |
| 2013-05-01T12:00 | 14140 | 144 | -55.4 | -87.6 | 273 | 31 |
| 2013-05-01T12:00 | 14150 | 144 | -55.5 | -87.6 | 273 | 31 |
| 2013-05-01T12:00 | 14161 | 144 | -55.5 | -87.7 | 272 | 31 |
| 2013-05-01T12:00 | 14170 | 144 | -55.6 | -87.7 | 272 | 31 |
| 2013-05-01T12:00 | 14180 | 143 | -55.7 | -87.8 | 272 | 30 |
| 2013-05-01T12:00 | 14189 | 143 | -55.8 | -87.8 | 272 | 30 |
| 2013-05-01T12:00 | 14199 | 143 | -55.8 | -87.9 | 271 | 30 |
| 2013-05-01T12:00 | 14209 | 143 | -55.9 | -87.9 | 271 | 30 |
| 2013-05-01T12:00 | 14218 | 143 | -56.0 | -88.0 | 271 | 30 |
| 2013-05-01T12:00 | 14227 | 142 | -56.0 | -88.0 | 271 | 30 |
| 2013-05-01T12:00 | 14237 | 142 | -56.1 | -88.1 | 270 | 30 |
| 2013-05-01T12:00 | 14247 | 142 | -56.2 | -88.1 | 270 | 30 |
| 2013-05-01T12:00 | 14256 | 142 | -56.3 | -88.2 | 270 | 30 |
| 2013-05-01T12:00 | 14266 | 142 | -56.3 | -88.2 | 270 | 30 |
| 2013-05-01T12:00 | 14275 | 141 | -56.4 | -88.3 | 270 | 30 |
| 2013-05-01T12:00 | 14285 | 141 | -56.5 | -88.3 | 269 | 30 |
| 2013-05-01T12:00 | 14294 | 141 | -56.6 | -88.4 | 269 | 30 |
| 2013-05-01T12:00 | 14304 | 141 | -56.6 | -88.4 | 269 | 30 |
| 2013-05-01T12:00 | 14315 | 140 | -56.7 | -88.5 | 268 | 30 |
| 2013-05-01T12:00 | 14324 | 140 | -56.8 | -88.6 | 268 | 30 |
| 2013-05-01T12:00 | 14333 | 140 | -56.9 | -88.6 | 268 | 30 |
| 2013-05-01T12:00 | 14344 | 140 | -56.9 | -88.6 | 268 | 30 |
| 2013-05-01T12:00 | 14354 | 140 | -56.9 | -88.7 | 267 | 30 |
| 2013-05-01T12:00 | 14363 | 139 | -57.0 | -88.7 | 267 | 30 |
| 2013-05-01T12:00 | 14373 | 139 | -57.0 | -88.7 | 266 | 30 |
| 2013-05-01T12:00 | 14383 | 139 | -57.1 | -88.7 | 266 | 30 |
| 2013-05-01T12:00 | 14393 | 139 | -57.1 | -88.8 | 266 | 30 |
| 2013-05-01T12:00 | 14402 | 139 | -57.2 | -88.8 | 265 | 30 |
| 2013-05-01T12:00 | 14411 | 138 | -57.3 | -88.9 | 265 | 30 |
| 2013-05-01T12:00 | 14421 | 138 | -57.3 | -88.9 | 265 | 30 |
| 2013-05-01T12:00 | 14430 | 138 | -57.4 | -89.0 | 264 | 30 |
| 2013-05-01T12:00 | 14440 | 138 | -57.5 | -89.0 | 264 | 31 |
| 2013-05-01T12:00 | 14450 | 137 | -57.5 | -89.1 | 263 | 31 |
| 2013-05-01T12:00 | 14460 | 137 | -57.6 | -89.1 | 263 | 31 |
| 2013-05-01T12:00 | 14470 | 137 | -57.6 | -89.1 | 262 | 31 |
| 2013-05-01T12:00 | 14479 | 137 | -57.7 | -89.2 | 262 | 31 |
| 2013-05-01T12:00 | 14489 | 137 | -57.7 | -89.2 | 261 | 31 |
| 2013-05-01T12:00 | 14500 | 136 | -57.7 | -89.2 | 261 | 31 |
| 2013-05-01T12:00 | 14509 | 136 | -57.7 | -89.2 | 260 | 31 |
| 2013-05-01T12:00 | 14518 | 136 | -57.6 | -89.2 | 260 | 32 |
| 2013-05-01T12:00 | 14527 | 136 | -57.6 | -89.1 | 259 | 32 |
| 2013-05-01T12:00 | 14536 | 136 | -57.4 | -89.0 | 259 | 32 |
| 2013-05-01T12:00 | 14546 | 135 | -57.2 | -88.8 | 259 | 32 |
| 2013-05-01T12:00 | 14556 | 135 | -57.1 | -88.8 | 258 | 32 |
| 2013-05-01T12:00 | 14566 | 135 | -57.1 | -88.8 | 258 | 33 |
| 2013-05-01T12:00 | 14575 | 135 | -57.0 | -88.7 | 258 | 33 |
| 2013-05-01T12:00 | 14585 | 135 | -57.0 | -88.7 | 258 | 33 |
| 2013-05-01T12:00 | 14595 | 134 | -57.0 | -88.7 | 258 | 33 |
| 2013-05-01T12:00 | 14605 | 134 | -57.1 | -88.8 | 258 | 33 |
| 2013-05-01T12:00 | 14615 | 134 | -57.2 | -88.8 | 258 | 34 |
| 2013-05-01T12:00 | 14624 | 134 | -57.2 | -88.9 | 258 | 34 |
| 2013-05-01T12:00 | 14634 | 134 | -57.3 | -88.9 | 258 | 34 |
| 2013-05-01T12:00 | 14644 | 133 | -57.3 | -88.9 | 258 | 34 |
| 2013-05-01T12:00 | 14653 | 133 | -57.2 | -88.9 | 258 | 35 |
| 2013-05-01T12:00 | 14662 | 133 | -57.1 | -88.8 | 259 | 35 |
| 2013-05-01T12:00 | 14673 | 133 | -57.0 | -88.7 | 259 | 35 |
| 2013-05-01T12:00 | 14683 | 133 | -57.0 | -88.7 | 259 | 35 |
| 2013-05-01T12:00 | 14693 | 132 | -56.9 | -88.7 | 260 | 35 |
| 2013-05-01T12:00 | 14704 | 132 | -56.9 | -88.7 | 260 | 36 |
| 2013-05-01T12:00 | 14713 | 132 | -57.0 | -88.7 | 260 | 36 |
| 2013-05-01T12:00 | 14722 | 132 | -57.0 | -88.7 | 261 | 36 |
| 2013-05-01T12:00 | 14731 | 132 | -57.0 | -88.7 | 261 | 36 |
| 2013-05-01T12:00 | 14741 | 131 | -57.1 | -88.7 | 262 | 36 |
| 2013-05-01T12:00 | 14751 | 131 | -57.1 | -88.8 | 262 | 36 |
| 2013-05-01T12:00 | 14761 | 131 | -57.2 | -88.8 | 262 | 36 |
| 2013-05-01T12:00 | 14771 | 131 | -57.2 | -88.9 | 263 | 36 |
| 2013-05-01T12:00 | 14782 | 130 | -57.3 | -88.9 | 263 | 36 |
| 2013-05-01T12:00 | 14792 | 130 | -57.3 | -88.9 | 263 | 36 |
| 2013-05-01T12:00 | 14801 | 130 | -57.3 | -88.9 | 264 | 36 |
| 2013-05-01T12:00 | 14810 | 130 | -57.3 | -88.9 | 264 | 36 |
| 2013-05-01T12:00 | 14819 | 130 | -57.4 | -89.0 | 264 | 36 |
| 2013-05-01T12:00 | 14829 | 129 | -57.5 | -89.0 | 265 | 36 |
| 2013-05-01T12:00 | 14839 | 129 | -57.5 | -89.1 | 265 | 36 |
| 2013-05-01T12:00 | 14849 | 129 | -57.6 | -89.1 | 265 | 35 |
| 2013-05-01T12:00 | 14858 | 129 | -57.6 | -89.1 | 266 | 35 |
| 2013-05-01T12:00 | 14866 | 129 | -57.6 | -89.2 | 266 | 35 |
| 2013-05-01T12:00 | 14876 | 129 | -57.7 | -89.2 | 266 | 35 |
| 2013-05-01T12:00 | 14886 | 128 | -57.7 | -89.2 | 266 | 35 |
| 2013-05-01T12:00 | 14896 | 128 | -57.8 | -89.3 | 266 | 35 |
| 2013-05-01T12:00 | 14906 | 128 | -57.9 | -89.3 | 267 | 35 |
| 2013-05-01T12:00 | 14916 | 128 | -57.9 | -89.4 | 267 | 35 |
| 2013-05-01T12:00 | 14925 | 128 | -58.0 | -89.4 | 267 | 35 |
| 2013-05-01T12:00 | 14936 | 127 | -58.1 | -89.5 | 267 | 35 |
| 2013-05-01T12:00 | 14945 | 127 | -58.1 | -89.5 | 267 | 35 |
| 2013-05-01T12:00 | 14955 | 127 | -58.2 | -89.5 | 268 | 35 |
| 2013-05-01T12:00 | 14964 | 127 | -58.2 | -89.6 | 268 | 34 |
| 2013-05-01T12:00 | 14974 | 127 | -58.3 | -89.6 | 268 | 34 |
| 2013-05-01T12:00 | 14983 | 126 | -58.3 | -89.6 | 268 | 34 |
| 2013-05-01T12:00 | 14992 | 126 | -58.4 | -89.7 | 268 | 34 |
| 2013-05-01T12:00 | 15002 | 126 | -58.5 | -89.8 | 268 | 34 |
| 2013-05-01T12:00 | 15012 | 126 | -58.6 | -89.8 | 269 | 34 |
| 2013-05-01T12:00 | 15021 | 126 | -58.7 | -89.9 | 269 | 34 |
| 2013-05-01T12:00 | 15032 | 125 | -58.7 | -89.9 | 269 | 34 |
| 2013-05-01T12:00 | 15042 | 125 | -58.8 | -90.0 | 269 | 34 |
| 2013-05-01T12:00 | 15051 | 125 | -58.9 | -90.0 | 269 | 34 |
| 2013-05-01T12:00 | 15060 | 125 | -58.9 | -90.1 | 270 | 34 |
| 2013-05-01T12:00 | 15069 | 125 | -59.0 | -90.1 | 270 | 34 |
| 2013-05-01T12:00 | 15079 | 124 | -59.0 | -90.1 | 270 | 33 |
| 2013-05-01T12:00 | 15090 | 124 | -59.1 | -90.2 | 270 | 33 |
| 2013-05-01T12:00 | 15099 | 124 | -59.1 | -90.2 | 271 | 33 |
| 2013-05-01T12:00 | 15109 | 124 | -59.2 | -90.3 | 271 | 33 |
| 2013-05-01T12:00 | 15118 | 124 | -59.3 | -90.3 | 271 | 33 |
| 2013-05-01T12:00 | 15128 | 123 | -59.3 | -90.4 | 271 | 33 |
| 2013-05-01T12:00 | 15138 | 123 | -59.4 | -90.4 | 271 | 33 |
| 2013-05-01T12:00 | 15147 | 123 | -59.4 | -90.4 | 271 | 32 |
| 2013-05-01T12:00 | 15156 | 123 | -59.4 | -90.4 | 271 | 32 |
| 2013-05-01T12:00 | 15165 | 123 | -59.5 | -90.4 | 271 | 32 |
| 2013-05-01T12:00 | 15176 | 123 | -59.5 | -90.5 | 271 | 32 |
| 2013-05-01T12:00 | 15186 | 122 | -59.6 | -90.5 | 271 | 32 |
| 2013-05-01T12:00 | 15195 | 122 | -59.6 | -90.6 | 271 | 32 |
| 2013-05-01T12:00 | 15204 | 122 | -59.7 | -90.6 | 271 | 31 |
| 2013-05-01T12:00 | 15213 | 122 | -59.7 | -90.6 | 271 | 31 |
| 2013-05-01T12:00 | 15223 | 122 | -59.8 | -90.7 | 271 | 31 |
| 2013-05-01T12:00 | 15232 | 121 | -59.9 | -90.7 | 271 | 31 |
| 2013-05-01T12:00 | 15242 | 121 | -59.9 | -90.8 | 270 | 31 |
| 2013-05-01T12:00 | 15251 | 121 | -59.9 | -90.8 | 270 | 31 |
| 2013-05-01T12:00 | 15259 | 121 | -59.9 | -90.8 | 270 | 31 |
| 2013-05-01T12:00 | 15269 | 121 | -60.0 | -90.8 | 270 | 30 |
| 2013-05-01T12:00 | 15278 | 121 | -60.0 | -90.9 | 270 | 30 |
| 2013-05-01T12:00 | 15286 | 120 | -60.1 | -90.9 | 270 | 30 |
| 2013-05-01T12:00 | 15295 | 120 | -60.1 | -90.9 | 270 | 30 |
| 2013-05-01T12:00 | 15305 | 120 | -60.2 | -91.0 | 269 | 30 |
| 2013-05-01T12:00 | 15315 | 120 | -60.2 | -91.0 | 269 | 30 |
| 2013-05-01T12:00 | 15325 | 120 | -60.3 | -91.0 | 269 | 30 |
| 2013-05-01T12:00 | 15334 | 119 | -60.4 | -91.1 | 269 | 30 |
| 2013-05-01T12:00 | 15344 | 119 | -60.4 | -91.1 | 269 | 30 |
| 2013-05-01T12:00 | 15354 | 119 | -60.5 | -91.2 | 269 | 30 |
| 2013-05-01T12:00 | 15363 | 119 | -60.6 | -91.2 | 269 | 30 |
| 2013-05-01T12:00 | 15372 | 119 | -60.6 | -91.3 | 269 | 30 |
| 2013-05-01T12:00 | 15379 | 119 | -60.7 | -91.3 | 269 | 30 |
| 2013-05-01T12:00 | 15388 | 118 | -60.8 | -91.4 | 269 | 30 |
| 2013-05-01T12:00 | 15398 | 118 | -60.8 | -91.4 | 268 | 29 |
| 2013-05-01T12:00 | 15408 | 118 | -60.9 | -91.5 | 268 | 29 |
| 2013-05-01T12:00 | 15417 | 118 | -60.9 | -91.5 | 268 | 29 |
| 2013-05-01T12:00 | 15425 | 118 | -61.0 | -91.6 | 268 | 29 |
| 2013-05-01T12:00 | 15434 | 118 | -61.1 | -91.6 | 268 | 29 |
| 2013-05-01T12:00 | 15444 | 117 | -61.2 | -91.7 | 268 | 29 |
| 2013-05-01T12:00 | 15453 | 117 | -61.2 | -91.7 | 268 | 29 |
| 2013-05-01T12:00 | 15462 | 117 | -61.3 | -91.7 | 268 | 29 |
| 2013-05-01T12:00 | 15471 | 117 | -61.3 | -91.8 | 267 | 29 |
| 2013-05-01T12:00 | 15480 | 117 | -61.3 | -91.8 | 267 | 29 |
| 2013-05-01T12:00 | 15489 | 117 | -61.4 | -91.8 | 267 | 29 |
| 2013-05-01T12:00 | 15498 | 116 | -61.4 | -91.8 | 267 | 28 |
| 2013-05-01T12:00 | 15507 | 116 | -61.3 | -91.8 | 267 | 28 |
| 2013-05-01T12:00 | 15516 | 116 | -61.3 | -91.8 | 266 | 28 |
| 2013-05-01T12:00 | 15525 | 116 | -61.4 | -91.8 | 266 | 28 |
| 2013-05-01T12:00 | 15534 | 116 | -61.4 | -91.9 | 266 | 28 |
| 2013-05-01T12:00 | 15543 | 116 | -61.5 | -91.9 | 266 | 28 |
| 2013-05-01T12:00 | 15552 | 115 | -61.6 | -92.0 | 266 | 28 |
| 2013-05-01T12:00 | 15561 | 115 | -61.6 | -92.0 | 266 | 28 |
| 2013-05-01T12:00 | 15570 | 115 | -61.7 | -92.0 | 266 | 28 |
| 2013-05-01T12:00 | 15579 | 115 | -61.7 | -92.1 | 265 | 28 |
| 2013-05-01T12:00 | 15588 | 115 | -61.7 | -92.1 | 265 | 27 |
| 2013-05-01T12:00 | 15597 | 115 | -61.8 | -92.1 | 265 | 27 |
| 2013-05-01T12:00 | 15605 | 114 | -61.8 | -92.1 | 265 | 27 |
| 2013-05-01T12:00 | 15614 | 114 | -61.8 | -92.1 | 265 | 27 |
| 2013-05-01T12:00 | 15623 | 114 | -61.8 | -92.1 | 264 | 27 |
| 2013-05-01T12:00 | 15632 | 114 | -61.8 | -92.1 | 264 | 27 |
| 2013-05-01T12:00 | 15641 | 114 | -61.7 | -92.0 | 263 | 27 |
| 2013-05-01T12:00 | 15650 | 114 | -61.7 | -92.0 | 263 | 27 |
| 2013-05-01T12:00 | 15659 | 113 | -61.7 | -92.0 | 262 | 27 |
| 2013-05-01T12:00 | 15669 | 113 | -61.8 | -92.1 | 262 | 27 |
| 2013-05-01T12:00 | 15678 | 113 | -61.8 | -92.1 | 261 | 27 |
| 2013-05-01T12:00 | 15688 | 113 | -61.9 | -92.2 | 261 | 27 |
| 2013-05-01T12:00 | 15696 | 113 | -61.9 | -92.2 | 260 | 27 |
| 2013-05-01T12:00 | 15705 | 113 | -61.9 | -92.2 | 259 | 27 |
| 2013-05-01T12:00 | 15714 | 112 | -61.9 | -92.2 | 259 | 27 |
| 2013-05-01T12:00 | 15723 | 112 | -61.8 | -92.1 | 258 | 27 |
| 2013-05-01T12:00 | 15732 | 112 | -61.8 | -92.1 | 258 | 27 |
| 2013-05-01T12:00 | 15742 | 112 | -61.8 | -92.1 | 257 | 27 |
| 2013-05-01T12:00 | 15750 | 112 | -61.9 | -92.2 | 257 | 27 |
| 2013-05-01T12:00 | 15759 | 112 | -61.9 | -92.2 | 257 | 27 |
| 2013-05-01T12:00 | 15768 | 111 | -61.8 | -92.1 | 256 | 27 |
| 2013-05-01T12:00 | 15777 | 111 | -61.8 | -92.1 | 256 | 27 |
| 2013-05-01T12:00 | 15786 | 111 | -61.8 | -92.1 | 255 | 27 |
| 2013-05-01T12:00 | 15795 | 111 | -61.8 | -92.2 | 255 | 28 |
| 2013-05-01T12:00 | 15804 | 111 | -61.9 | -92.2 | 255 | 28 |
| 2013-05-01T12:00 | 15813 | 111 | -62.0 | -92.2 | 254 | 28 |
| 2013-05-01T12:00 | 15822 | 110 | -62.0 | -92.3 | 254 | 28 |
| 2013-05-01T12:00 | 15831 | 110 | -62.0 | -92.3 | 254 | 28 |
| 2013-05-01T12:00 | 15839 | 110 | -62.0 | -92.3 | 254 | 28 |
| 2013-05-01T12:00 | 15847 | 110 | -62.0 | -92.2 | 254 | 28 |
| 2013-05-01T12:00 | 15857 | 110 | -62.0 | -92.2 | 254 | 28 |
| 2013-05-01T12:00 | 15866 | 110 | -62.0 | -92.3 | 254 | 29 |
| 2013-05-01T12:00 | 15875 | 109 | -62.1 | -92.3 | 254 | 29 |
| 2013-05-01T12:00 | 15884 | 109 | -62.2 | -92.4 | 254 | 29 |
| 2013-05-01T12:00 | 15894 | 109 | -62.2 | -92.4 | 254 | 29 |
| 2013-05-01T12:00 | 15903 | 109 | -62.3 | -92.5 | 254 | 29 |
| 2013-05-01T12:00 | 15913 | 109 | -62.3 | -92.5 | 254 | 29 |
| 2013-05-01T12:00 | 15923 | 109 | -62.4 | -92.5 | 254 | 29 |
| 2013-05-01T12:00 | 15932 | 108 | -62.4 | -92.6 | 255 | 29 |
| 2013-05-01T12:00 | 15942 | 108 | -62.5 | -92.6 | 255 | 29 |
| 2013-05-01T12:00 | 15951 | 108 | -62.5 | -92.6 | 255 | 29 |
| 2013-05-01T12:00 | 15960 | 108 | -62.6 | -92.7 | 255 | 29 |
| 2013-05-01T12:00 | 15970 | 108 | -62.6 | -92.7 | 256 | 29 |
| 2013-05-01T12:00 | 15978 | 108 | -62.7 | -92.7 | 256 | 30 |
| 2013-05-01T12:00 | 15988 | 107 | -62.7 | -92.8 | 256 | 30 |
| 2013-05-01T12:00 | 15996 | 107 | -62.8 | -92.8 | 256 | 30 |
| 2013-05-01T12:00 | 16005 | 107 | -62.9 | -92.9 | 256 | 30 |
| 2013-05-01T12:00 | 16014 | 107 | -62.9 | -92.9 | 257 | 30 |
| 2013-05-01T12:00 | 16023 | 107 | -63.0 | -93.0 | 257 | 30 |
| 2013-05-01T12:00 | 16033 | 107 | -63.1 | -93.0 | 257 | 30 |
| 2013-05-01T12:00 | 16043 | 107 | -63.2 | -93.1 | 257 | 31 |
| 2013-05-01T12:00 | 16052 | 106 | -63.2 | -93.1 | 257 | 31 |
| 2013-05-01T12:00 | 16061 | 106 | -63.3 | -93.2 | 257 | 31 |
| 2013-05-01T12:00 | 16071 | 106 | -63.4 | -93.3 | 257 | 31 |
| 2013-05-01T12:00 | 16081 | 106 | -63.5 | -93.3 | 258 | 31 |
| 2013-05-01T12:00 | 16091 | 106 | -63.6 | -93.4 | 258 | 31 |
| 2013-05-01T12:00 | 16100 | 106 | -63.6 | -93.4 | 258 | 31 |
| 2013-05-01T12:00 | 16110 | 105 | -63.7 | -93.5 | 258 | 31 |
| 2013-05-01T12:00 | 16120 | 105 | -63.8 | -93.5 | 259 | 31 |
| 2013-05-01T12:00 | 16130 | 105 | -63.9 | -93.6 | 259 | 31 |
| 2013-05-01T12:00 | 16140 | 105 | -63.9 | -93.6 | 259 | 31 |
| 2013-05-01T12:00 | 16150 | 105 | -64.0 | -93.7 | 260 | 31 |
| 2013-05-01T12:00 | 16160 | 105 | -64.0 | -93.7 | 260 | 31 |
| 2013-05-01T12:00 | 16170 | 104 | -64.1 | -93.8 | 260 | 31 |
| 2013-05-01T12:00 | 16180 | 104 | -64.2 | -93.8 | 261 | 31 |
| 2013-05-01T12:00 | 16188 | 104 | -64.1 | -93.8 | 261 | 31 |
| 2013-05-01T12:00 | 16198 | 104 | -64.1 | -93.8 | 262 | 30 |
| 2013-05-01T12:00 | 16209 | 104 | -64.1 | -93.8 | 262 | 30 |
| 2013-05-01T12:00 | 16218 | 104 | -64.0 | -93.7 | 263 | 30 |
| 2013-05-01T12:00 | 16228 | 103 | -64.0 | -93.7 | 263 | 29 |
| 2013-05-01T12:00 | 16238 | 103 | -64.0 | -93.7 | 264 | 29 |
| 2013-05-01T12:00 | 16249 | 103 | -64.0 | -93.7 | 264 | 29 |
| 2013-05-01T12:00 | 16258 | 103 | -63.9 | -93.6 | 265 | 28 |
| 2013-05-01T12:00 | 16268 | 103 | -63.9 | -93.6 | 265 | 28 |
| 2013-05-01T12:00 | 16278 | 103 | -63.9 | -93.6 | 266 | 28 |
| 2013-05-01T12:00 | 16287 | 102 | -63.9 | -93.7 | 266 | 27 |
| 2013-05-01T12:00 | 16297 | 102 | -63.9 | -93.6 | 266 | 27 |
| 2013-05-01T12:00 | 16306 | 102 | -63.8 | -93.6 | 267 | 26 |
| 2013-05-01T12:00 | 16316 | 102 | -63.7 | -93.5 | 267 | 26 |
| 2013-05-01T12:00 | 16326 | 102 | -63.7 | -93.5 | 268 | 25 |
| 2013-05-01T12:00 | 16336 | 102 | -63.6 | -93.4 | 268 | 25 |
| 2013-05-01T12:00 | 16345 | 101 | -63.6 | -93.4 | 268 | 25 |
| 2013-05-01T12:00 | 16355 | 101 | -63.5 | -93.4 | 268 | 24 |
| 2013-05-01T12:00 | 16365 | 101 | -63.5 | -93.3 | 268 | 24 |
| 2013-05-01T12:00 | 16374 | 101 | -63.4 | -93.3 | 268 | 23 |
| 2013-05-01T12:00 | 16383 | 101 | -63.3 | -93.2 | 268 | 23 |
| 2013-05-01T12:00 | 16393 | 101 | -63.2 | -93.1 | 268 | 22 |
| 2013-05-01T12:00 | 16405 | 100 | -63.2 | -93.1 | 268 | 22 |
| 2013-05-01T12:00 | 16415 | 100 | -63.1 | -93.1 | 268 | 21 |
| 2013-05-01T12:00 | 16424 | 100 | -63.1 | -93.0 | 268 | 21 |
| 2013-05-01T12:00 | 16434 | 100 | -63.0 | -93.0 | 268 | 21 |
| 2013-05-01T12:00 | 16444 | 100 | -63.0 | -93.0 | 268 | 20 |
| 2013-05-01T12:00 | 16454 | 100 | -63.0 | -93.0 | 269 | 20 |
| 2013-05-01T12:00 | 16464 | 99 | -63.0 | -93.0 | 269 | 19 |
| 2013-05-01T12:00 | 16474 | 99 | -62.9 | -92.9 | 269 | 19 |
| 2013-05-01T12:00 | 16484 | 99 | -62.9 | -92.9 | 269 | 19 |
| 2013-05-01T12:00 | 16494 | 99 | -62.8 | -92.9 | 270 | 18 |
| 2013-05-01T12:00 | 16505 | 99 | -62.7 | -92.7 | 271 | 18 |
| 2013-05-01T12:00 | 16515 | 99 | -62.5 | -92.6 | 271 | 18 |
| 2013-05-01T12:00 | 16526 | 98 | -62.3 | -92.5 | 272 | 17 |
| 2013-05-01T12:00 | 16537 | 98 | -62.2 | -92.4 | 273 | 17 |
| 2013-05-01T12:00 | 16548 | 98 | -62.3 | -92.4 | 273 | 17 |
| 2013-05-01T12:00 | 16559 | 98 | -62.3 | -92.5 | 274 | 16 |
| 2013-05-01T12:00 | 16571 | 98 | -62.3 | -92.5 | 275 | 16 |
| 2013-05-01T12:00 | 16582 | 98 | -62.4 | -92.5 | 276 | 16 |
| 2013-05-01T12:00 | 16592 | 97 | -62.4 | -92.5 | 276 | 16 |
| 2013-05-01T12:00 | 16603 | 97 | -62.4 | -92.6 | 277 | 16 |
| 2013-05-01T12:00 | 16613 | 97 | -62.5 | -92.6 | 277 | 15 |
| 2013-05-01T12:00 | 16624 | 97 | -62.6 | -92.7 | 278 | 15 |
| 2013-05-01T12:00 | 16634 | 97 | -62.7 | -92.7 | 278 | 15 |
| 2013-05-01T12:00 | 16644 | 97 | -62.8 | -92.8 | 279 | 15 |
| 2013-05-01T12:00 | 16654 | 96 | -62.9 | -92.9 | 279 | 15 |
| 2013-05-01T12:00 | 16665 | 96 | -63.0 | -92.9 | 279 | 15 |
| 2013-05-01T12:00 | 16675 | 96 | -63.0 | -93.0 | 279 | 14 |
| 2013-05-01T12:00 | 16685 | 96 | -63.1 | -93.1 | 280 | 14 |
| 2013-05-01T12:00 | 16695 | 96 | -63.2 | -93.1 | 280 | 14 |
| 2013-05-01T12:00 | 16705 | 96 | -63.3 | -93.2 | 280 | 14 |
| 2013-05-01T12:00 | 16714 | 96 | -63.4 | -93.2 | 280 | 14 |
| 2013-05-01T12:00 | 16724 | 95 | -63.5 | -93.3 | 280 | 14 |
| 2013-05-01T12:00 | 16736 | 95 | -63.5 | -93.4 | 280 | 14 |
| 2013-05-01T12:00 | 16746 | 95 | -63.6 | -93.4 | 280 | 14 |
| 2013-05-01T12:00 | 16756 | 95 | -63.7 | -93.5 | 280 | 14 |
| 2013-05-01T12:00 | 16765 | 95 | -63.8 | -93.5 | 279 | 13 |
| 2013-05-01T12:00 | 16775 | 95 | -63.9 | -93.6 | 279 | 13 |
| 2013-05-01T12:00 | 16785 | 94 | -63.9 | -93.6 | 279 | 13 |
| 2013-05-01T12:00 | 16795 | 94 | -64.0 | -93.7 | 278 | 13 |
| 2013-05-01T12:00 | 16805 | 94 | -64.1 | -93.8 | 278 | 13 |
| 2013-05-01T12:00 | 16815 | 94 | -64.1 | -93.8 | 277 | 13 |
| 2013-05-01T12:00 | 16824 | 94 | -64.1 | -93.8 | 277 | 12 |
| 2013-05-01T12:00 | 16835 | 94 | -64.1 | -93.8 | 276 | 12 |
| 2013-05-01T12:00 | 16845 | 93 | -64.2 | -93.8 | 275 | 12 |
| 2013-05-01T12:00 | 16855 | 93 | -64.3 | -93.9 | 275 | 12 |
| 2013-05-01T12:00 | 16865 | 93 | -64.3 | -93.9 | 274 | 11 |
| 2013-05-01T12:00 | 16875 | 93 | -64.3 | -93.9 | 273 | 11 |
| 2013-05-01T12:00 | 16885 | 93 | -64.2 | -93.9 | 272 | 11 |
| 2013-05-01T12:00 | 16895 | 93 | -64.1 | -93.8 | 271 | 10 |
| 2013-05-01T12:00 | 16905 | 93 | -64.1 | -93.7 | 269 | 10 |
| 2013-05-01T12:00 | 16915 | 92 | -64.1 | -93.8 | 268 | 10 |
| 2013-05-01T12:00 | 16925 | 92 | -64.1 | -93.8 | 267 | 9 |
| 2013-05-01T12:00 | 16935 | 92 | -64.1 | -93.8 | 265 | 9 |
| 2013-05-01T12:00 | 16945 | 92 | -64.1 | -93.8 | 263 | 9 |
| 2013-05-01T12:00 | 16955 | 92 | -64.2 | -93.8 | 262 | 9 |
| 2013-05-01T12:00 | 16965 | 92 | -64.2 | -93.9 | 260 | 8 |
| 2013-05-01T12:00 | 16976 | 92 | -64.3 | -93.9 | 258 | 8 |
| 2013-05-01T12:00 | 16988 | 91 | -64.3 | -93.9 | 255 | 8 |
| 2013-05-01T12:00 | 17000 | 91 | -64.3 | -93.9 | 253 | 8 |
| 2013-05-01T12:00 | 17012 | 91 | -64.3 | -93.9 | 251 | 8 |
| 2013-05-01T12:00 | 17024 | 91 | -64.3 | -93.9 | 249 | 8 |
| 2013-05-01T12:00 | 17036 | 91 | -64.4 | -94.0 | 247 | 8 |
| 2013-05-01T12:00 | 17047 | 90 | -64.5 | -94.0 | 246 | 8 |
| 2013-05-01T12:00 | 17058 | 90 | -64.6 | -94.1 | 244 | 8 |
| 2013-05-01T12:00 | 17069 | 90 | -64.7 | -94.2 | 242 | 8 |
| 2013-05-01T12:00 | 17080 | 90 | -64.7 | -94.2 | 241 | 8 |
| 2013-05-01T12:00 | 17091 | 90 | -64.8 | -94.3 | 240 | 8 |
| 2013-05-01T12:00 | 17102 | 90 | -64.9 | -94.3 | 239 | 8 |
| 2013-05-01T12:00 | 17113 | 89 | -65.0 | -94.4 | 238 | 8 |
| 2013-05-01T12:00 | 17123 | 89 | -65.1 | -94.5 | 237 | 8 |
| 2013-05-01T12:00 | 17133 | 89 | -65.2 | -94.5 | 236 | 8 |
| 2013-05-01T12:00 | 17144 | 89 | -65.2 | -94.6 | 236 | 8 |
| 2013-05-01T12:00 | 17154 | 89 | -65.3 | -94.6 | 235 | 9 |
| 2013-05-01T12:00 | 17164 | 89 | -65.4 | -94.7 | 235 | 9 |
| 2013-05-01T12:00 | 17174 | 89 | -65.5 | -94.8 | 234 | 9 |
| 2013-05-01T12:00 | 17184 | 88 | -65.6 | -94.8 | 234 | 9 |
| 2013-05-01T12:00 | 17194 | 88 | -65.7 | -94.9 | 234 | 9 |
| 2013-05-01T12:00 | 17204 | 88 | -65.8 | -95.0 | 234 | 9 |
| 2013-05-01T12:00 | 17214 | 88 | -65.8 | -95.0 | 234 | 9 |
| 2013-05-01T12:00 | 17224 | 88 | -65.9 | -95.1 | 235 | 10 |
| 2013-05-01T12:00 | 17233 | 88 | -66.0 | -95.1 | 235 | 10 |
| 2013-05-01T12:00 | 17243 | 88 | -66.0 | -95.2 | 236 | 10 |
| 2013-05-01T12:00 | 17253 | 87 | -66.1 | -95.2 | 236 | 10 |
| 2013-05-01T12:00 | 17263 | 87 | -66.2 | -95.3 | 237 | 10 |
| 2013-05-01T12:00 | 17273 | 87 | -66.2 | -95.3 | 238 | 10 |
| 2013-05-01T12:00 | 17282 | 87 | -66.2 | -95.3 | 239 | 10 |
| 2013-05-01T12:00 | 17291 | 87 | -66.3 | -95.3 | 240 | 11 |
| 2013-05-01T12:00 | 17300 | 87 | -66.3 | -95.3 | 241 | 11 |
| 2013-05-01T12:00 | 17312 | 87 | -66.3 | -95.4 | 242 | 11 |
| 2013-05-01T12:00 | 17322 | 86 | -66.4 | -95.4 | 243 | 11 |
| 2013-05-01T12:00 | 17331 | 86 | -66.4 | -95.4 | 244 | 11 |
| 2013-05-01T12:00 | 17340 | 86 | -66.5 | -95.5 | 245 | 11 |
| 2013-05-01T12:00 | 17350 | 86 | -66.5 | -95.5 | 246 | 11 |
| 2013-05-01T12:00 | 17360 | 86 | -66.4 | -95.5 | 247 | 11 |
| 2013-05-01T12:00 | 17370 | 86 | -66.4 | -95.4 | 249 | 11 |
| 2013-05-01T12:00 | 17381 | 86 | -66.4 | -95.4 | 250 | 11 |
| 2013-05-01T12:00 | 17392 | 85 | -66.4 | -95.5 | 251 | 11 |
| 2013-05-01T12:00 | 17401 | 85 | -66.5 | -95.5 | 252 | 12 |
| 2013-05-01T12:00 | 17410 | 85 | -66.5 | -95.5 | 253 | 12 |
| 2013-05-01T12:00 | 17419 | 85 | -66.5 | -95.5 | 254 | 12 |
| 2013-05-01T12:00 | 17429 | 85 | -66.6 | -95.6 | 255 | 12 |
| 2013-05-01T12:00 | 17440 | 85 | -66.6 | -95.6 | 255 | 12 |
| 2013-05-01T12:00 | 17451 | 85 | -66.7 | -95.6 | 256 | 12 |
| 2013-05-01T12:00 | 17461 | 84 | -66.8 | -95.7 | 256 | 12 |
| 2013-05-01T12:00 | 17471 | 84 | -66.8 | -95.7 | 256 | 12 |
| 2013-05-01T12:00 | 17481 | 84 | -66.9 | -95.8 | 257 | 12 |
| 2013-05-01T12:00 | 17491 | 84 | -66.9 | -95.8 | 256 | 12 |
| 2013-05-01T12:00 | 17501 | 84 | -66.9 | -95.8 | 256 | 12 |
| 2013-05-01T12:00 | 17512 | 84 | -66.9 | -95.8 | 256 | 12 |
| 2013-05-01T12:00 | 17521 | 84 | -67.0 | -95.8 | 255 | 12 |
| 2013-05-01T12:00 | 17531 | 84 | -67.0 | -95.9 | 255 | 12 |
| 2013-05-01T12:00 | 17540 | 83 | -67.1 | -95.9 | 254 | 12 |
| 2013-05-01T12:00 | 17550 | 83 | -67.2 | -96.0 | 253 | 12 |
| 2013-05-01T12:00 | 17560 | 83 | -67.2 | -96.0 | 253 | 12 |
| 2013-05-01T12:00 | 17571 | 83 | -67.3 | -96.1 | 252 | 12 |
| 2013-05-01T12:00 | 17581 | 83 | -67.4 | -96.2 | 251 | 12 |
| 2013-05-01T12:00 | 17591 | 83 | -67.5 | -96.2 | 250 | 12 |
| 2013-05-01T12:00 | 17600 | 83 | -67.5 | -96.2 | 249 | 12 |
| 2013-05-01T12:00 | 17611 | 82 | -67.6 | -96.3 | 247 | 12 |
| 2013-05-01T12:00 | 17622 | 82 | -67.7 | -96.3 | 246 | 12 |
| 2013-05-01T12:00 | 17633 | 82 | -67.7 | -96.3 | 245 | 13 |
| 2013-05-01T12:00 | 17643 | 82 | -67.7 | -96.3 | 244 | 13 |
| 2013-05-01T12:00 | 17653 | 82 | -67.6 | -96.3 | 243 | 13 |
| 2013-05-01T12:00 | 17663 | 82 | -67.7 | -96.3 | 242 | 13 |
| 2013-05-01T12:00 | 17673 | 82 | -67.7 | -96.4 | 241 | 13 |
| 2013-05-01T12:00 | 17684 | 81 | -67.8 | -96.4 | 240 | 14 |
| 2013-05-01T12:00 | 17694 | 81 | -67.8 | -96.5 | 239 | 14 |
| 2013-05-01T12:00 | 17705 | 81 | -67.9 | -96.5 | 238 | 14 |
| 2013-05-01T12:00 | 17716 | 81 | -68.0 | -96.6 | 238 | 14 |
| 2013-05-01T12:00 | 17727 | 81 | -68.0 | -96.5 | 237 | 15 |
| 2013-05-01T12:00 | 17737 | 81 | -67.9 | -96.5 | 237 | 15 |
| 2013-05-01T12:00 | 17747 | 81 | -67.7 | -96.4 | 237 | 15 |
| 2013-05-01T12:00 | 17757 | 80 | -67.6 | -96.3 | 238 | 15 |
| 2013-05-01T12:00 | 17766 | 80 | -67.5 | -96.2 | 238 | 15 |
| 2013-05-01T12:00 | 17776 | 80 | -67.5 | -96.2 | 239 | 15 |
| 2013-05-01T12:00 | 17786 | 80 | -67.5 | -96.2 | 240 | 15 |
| 2013-05-01T12:00 | 17796 | 80 | -67.3 | -96.1 | 241 | 15 |
| 2013-05-01T12:00 | 17807 | 80 | -67.1 | -95.9 | 243 | 15 |
| 2013-05-01T12:00 | 17818 | 80 | -67.0 | -95.8 | 244 | 15 |
| 2013-05-01T12:00 | 17827 | 80 | -66.9 | -95.8 | 246 | 15 |
| 2013-05-01T12:00 | 17836 | 79 | -66.8 | -95.7 | 247 | 15 |
| 2013-05-01T12:00 | 17846 | 79 | -66.8 | -95.7 | 249 | 15 |
| 2013-05-01T12:00 | 17856 | 79 | -66.7 | -95.7 | 250 | 15 |
| 2013-05-01T12:00 | 17866 | 79 | -66.7 | -95.7 | 252 | 15 |
| 2013-05-01T12:00 | 17877 | 79 | -66.8 | -95.7 | 253 | 15 |
| 2013-05-01T12:00 | 17888 | 79 | -66.8 | -95.7 | 255 | 15 |
| 2013-05-01T12:00 | 17898 | 79 | -66.8 | -95.7 | 256 | 14 |
| 2013-05-01T12:00 | 17908 | 78 | -66.8 | -95.7 | 258 | 14 |
| 2013-05-01T12:00 | 17918 | 78 | -66.8 | -95.7 | 259 | 14 |
| 2013-05-01T12:00 | 17927 | 78 | -66.8 | -95.7 | 260 | 14 |
| 2013-05-01T12:00 | 17936 | 78 | -66.6 | -95.6 | 261 | 14 |
| 2013-05-01T12:00 | 17947 | 78 | -66.3 | -95.4 | 263 | 13 |
| 2013-05-01T12:00 | 17959 | 78 | -66.1 | -95.2 | 264 | 13 |
| 2013-05-01T12:00 | 17969 | 78 | -65.8 | -95.0 | 265 | 13 |
| 2013-05-01T12:00 | 17979 | 78 | -65.4 | -94.7 | 266 | 12 |
| 2013-05-01T12:00 | 17991 | 77 | -65.0 | -94.4 | 268 | 12 |
| 2013-05-01T12:00 | 18001 | 77 | -64.9 | -94.3 | 269 | 12 |
| 2013-05-01T12:00 | 18010 | 77 | -64.8 | -94.2 | 270 | 12 |
| 2013-05-01T12:00 | 18021 | 77 | -64.7 | -94.2 | 272 | 11 |
| 2013-05-01T12:00 | 18032 | 77 | -64.8 | -94.3 | 273 | 11 |
| 2013-05-01T12:00 | 18042 | 77 | -64.8 | -94.3 | 274 | 11 |
| 2013-05-01T12:00 | 18054 | 77 | -64.8 | -94.3 | 275 | 10 |
| 2013-05-01T12:00 | 18064 | 76 | -64.8 | -94.3 | 276 | 10 |
| 2013-05-01T12:00 | 18074 | 76 | -64.8 | -94.3 | 277 | 10 |
| 2013-05-01T12:00 | 18084 | 76 | -64.9 | -94.3 | 277 | 10 |
| 2013-05-01T12:00 | 18093 | 76 | -64.9 | -94.4 | 278 | 9 |
| 2013-05-01T12:00 | 18102 | 76 | -64.9 | -94.4 | 279 | 9 |
| 2013-05-01T12:00 | 18112 | 76 | -64.9 | -94.4 | 279 | 9 |
| 2013-05-01T12:00 | 18122 | 76 | -64.9 | -94.4 | 280 | 9 |
| 2013-05-01T12:00 | 18133 | 76 | -65.0 | -94.4 | 280 | 9 |
| 2013-05-01T12:00 | 18143 | 75 | -65.0 | -94.4 | 281 | 8 |
| 2013-05-01T12:00 | 18152 | 75 | -65.0 | -94.4 | 282 | 8 |
| 2013-05-01T12:00 | 18162 | 75 | -65.0 | -94.4 | 283 | 8 |
| 2013-05-01T12:00 | 18172 | 75 | -65.0 | -94.5 | 284 | 8 |
| 2013-05-01T12:00 | 18182 | 75 | -65.1 | -94.5 | 285 | 7 |
| 2013-05-01T12:00 | 18193 | 75 | -65.1 | -94.5 | 286 | 7 |
| 2013-05-01T12:00 | 18204 | 75 | -65.1 | -94.5 | 287 | 7 |
| 2013-05-01T12:00 | 18215 | 75 | -65.2 | -94.5 | 289 | 6 |
| 2013-05-01T12:00 | 18224 | 74 | -65.2 | -94.6 | 290 | 6 |
| 2013-05-01T12:00 | 18234 | 74 | -65.1 | -94.5 | 292 | 6 |
| 2013-05-01T12:00 | 18244 | 74 | -65.1 | -94.5 | 294 | 6 |
| 2013-05-01T12:00 | 18255 | 74 | -65.1 | -94.5 | 297 | 5 |
| 2013-05-01T12:00 | 18265 | 74 | -65.2 | -94.5 | 299 | 5 |
| 2013-05-01T12:00 | 18276 | 74 | -65.2 | -94.5 | 302 | 4 |
| 2013-05-01T12:00 | 18286 | 74 | -65.2 | -94.5 | 305 | 4 |
| 2013-05-01T12:00 | 18296 | 74 | -65.1 | -94.5 | 308 | 4 |
| 2013-05-01T12:00 | 18306 | 73 | -65.1 | -94.5 | 311 | 4 |
| 2013-05-01T12:00 | 18317 | 73 | -65.1 | -94.5 | 315 | 3 |
| 2013-05-01T12:00 | 18327 | 73 | -65.0 | -94.4 | 318 | 3 |
| 2013-05-01T12:00 | 18337 | 73 | -65.0 | -94.4 | 320 | 3 |
| 2013-05-01T12:00 | 18347 | 73 | -65.0 | -94.4 | 323 | 2 |
| 2013-05-01T12:00 | 18357 | 73 | -65.0 | -94.4 | 325 | 2 |
| 2013-05-01T12:00 | 18366 | 73 | -65.0 | -94.4 | 327 | 2 |
| 2013-05-01T12:00 | 18375 | 73 | -65.0 | -94.4 | 328 | 2 |
| 2013-05-01T12:00 | 18386 | 73 | -65.0 | -94.4 | 328 | 1 |
| 2013-05-01T12:00 | 18396 | 72 | -65.0 | -94.4 | 328 | 1 |
| 2013-05-01T12:00 | 18406 | 72 | -65.1 | -94.5 | 325 | 1 |
| 2013-05-01T12:00 | 18417 | 72 | -65.1 | -94.5 | 316 | 1 |
| 2013-05-01T12:00 | 18426 | 72 | -65.2 | -94.5 | 0 | 0 |
| 2013-05-01T12:00 | 18436 | 72 | -65.2 | -94.6 | 0 | 0 |
| 2013-05-01T12:00 | 18446 | 72 | -65.2 | -94.6 | 196 | 1 |
| 2013-05-01T12:00 | 18456 | 72 | -65.3 | -94.6 | 188 | 1 |
| 2013-05-01T12:00 | 18467 | 72 | -65.4 | -94.7 | 185 | 1 |
| 2013-05-01T12:00 | 18476 | 71 | -65.4 | -94.7 | 185 | 1 |
| 2013-05-01T12:00 | 18486 | 71 | -65.4 | -94.7 | 186 | 2 |
| 2013-05-01T12:00 | 18497 | 71 | -65.5 | -94.7 | 187 | 2 |
| 2013-05-01T12:00 | 18508 | 71 | -65.5 | -94.7 | 189 | 2 |
| 2013-05-01T12:00 | 18519 | 71 | -65.5 | -94.7 | 191 | 3 |
| 2013-05-01T12:00 | 18527 | 71 | -65.5 | -94.8 | 194 | 3 |
| 2013-05-01T12:00 | 18537 | 71 | -65.5 | -94.8 | 196 | 3 |
| 2013-05-01T12:00 | 18546 | 71 | -65.5 | -94.8 | 199 | 3 |
| 2013-05-01T12:00 | 18556 | 71 | -65.5 | -94.8 | 201 | 4 |
| 2013-05-01T12:00 | 18566 | 70 | -65.6 | -94.8 | 203 | 4 |
| 2013-05-01T12:00 | 18576 | 70 | -65.5 | -94.8 | 205 | 4 |
| 2013-05-01T12:00 | 18586 | 70 | -65.5 | -94.8 | 207 | 4 |
| 2013-05-01T12:00 | 18597 | 70 | -65.5 | -94.8 | 209 | 5 |
| 2013-05-01T12:00 | 18607 | 70 | -65.4 | -94.7 | 210 | 5 |
| 2013-05-01T12:00 | 18617 | 70 | -65.4 | -94.7 | 211 | 5 |
| 2013-05-01T12:00 | 18627 | 70 | -65.3 | -94.6 | 212 | 5 |
| 2013-05-01T12:00 | 18635 | 70 | -65.3 | -94.6 | 213 | 6 |
| 2013-05-01T12:00 | 18645 | 70 | -65.3 | -94.6 | 214 | 6 |
| 2013-05-01T12:00 | 18655 | 69 | -65.3 | -94.7 | 214 | 6 |
| 2013-05-01T12:00 | 18665 | 69 | -65.4 | -94.7 | 215 | 6 |
| 2013-05-01T12:00 | 18675 | 69 | -65.4 | -94.7 | 215 | 6 |
| 2013-05-01T12:00 | 18684 | 69 | -65.5 | -94.8 | 215 | 7 |
| 2013-05-01T12:00 | 18694 | 69 | -65.5 | -94.8 | 216 | 7 |
| 2013-05-01T12:00 | 18706 | 69 | -65.6 | -94.8 | 216 | 7 |
| 2013-05-01T12:00 | 18717 | 69 | -65.6 | -94.8 | 216 | 7 |
| 2013-05-01T12:00 | 18727 | 69 | -65.6 | -94.8 | 216 | 8 |
| 2013-05-01T12:00 | 18736 | 68 | -65.6 | -94.9 | 217 | 8 |
| 2013-05-01T12:00 | 18745 | 68 | -65.6 | -94.9 | 217 | 8 |
| 2013-05-01T12:00 | 18755 | 68 | -65.7 | -94.9 | 217 | 8 |
| 2013-05-01T12:00 | 18766 | 68 | -65.7 | -94.9 | 217 | 8 |
| 2013-05-01T12:00 | 18775 | 68 | -65.7 | -94.9 | 217 | 9 |
| 2013-05-01T12:00 | 18784 | 68 | -65.8 | -95.0 | 218 | 9 |
| 2013-05-01T12:00 | 18795 | 68 | -65.9 | -95.0 | 218 | 9 |
| 2013-05-01T12:00 | 18804 | 68 | -65.9 | -95.1 | 218 | 9 |
| 2013-05-01T12:00 | 18814 | 68 | -66.0 | -95.2 | 219 | 9 |
| 2013-05-01T12:00 | 18825 | 67 | -66.1 | -95.2 | 219 | 10 |
| 2013-05-01T12:00 | 18834 | 67 | -66.2 | -95.3 | 220 | 10 |
| 2013-05-01T12:00 | 18844 | 67 | -66.2 | -95.3 | 220 | 10 |
| 2013-05-01T12:00 | 18853 | 67 | -66.3 | -95.4 | 221 | 10 |
| 2013-05-01T12:00 | 18863 | 67 | -66.4 | -95.4 | 222 | 10 |
| 2013-05-01T12:00 | 18873 | 67 | -66.4 | -95.5 | 223 | 10 |
| 2013-05-01T12:00 | 18882 | 67 | -66.5 | -95.5 | 224 | 10 |
| 2013-05-01T12:00 | 18892 | 67 | -66.5 | -95.5 | 224 | 11 |
| 2013-05-01T12:00 | 18902 | 67 | -66.6 | -95.6 | 225 | 11 |
| 2013-05-01T12:00 | 18912 | 67 | -66.7 | -95.6 | 226 | 11 |
| 2013-05-01T12:00 | 18920 | 66 | -66.7 | -95.6 | 227 | 11 |
| 2013-05-01T12:00 | 18930 | 66 | -66.6 | -95.6 | 228 | 11 |
| 2013-05-01T12:00 | 18940 | 66 | -66.4 | -95.5 | 229 | 11 |
| 2013-05-01T12:00 | 18950 | 66 | -66.2 | -95.3 | 230 | 11 |
| 2013-05-01T12:00 | 18959 | 66 | -66.2 | -95.3 | 231 | 11 |
| 2013-05-01T12:00 | 18968 | 66 | -66.2 | -95.3 | 232 | 11 |
| 2013-05-01T12:00 | 18978 | 66 | -66.2 | -95.3 | 233 | 11 |
| 2013-05-01T12:00 | 18988 | 66 | -66.1 | -95.2 | 234 | 11 |
| 2013-05-01T12:00 | 18997 | 66 | -66.0 | -95.1 | 236 | 11 |
| 2013-05-01T12:00 | 19008 | 65 | -65.9 | -95.0 | 237 | 11 |
| 2013-05-01T12:00 | 19018 | 65 | -65.8 | -95.0 | 238 | 11 |
| 2013-05-01T12:00 | 19027 | 65 | -65.8 | -95.0 | 240 | 11 |
| 2013-05-01T12:00 | 19035 | 65 | -65.7 | -94.9 | 241 | 11 |
| 2013-05-01T12:00 | 19044 | 65 | -65.5 | -94.8 | 243 | 11 |
| 2013-05-01T12:00 | 19053 | 65 | -65.4 | -94.7 | 244 | 11 |
| 2013-05-01T12:00 | 19063 | 65 | -65.1 | -94.5 | 246 | 10 |
| 2013-05-01T12:00 | 19073 | 65 | -64.9 | -94.3 | 248 | 10 |
| 2013-05-01T12:00 | 19083 | 65 | -64.7 | -94.2 | 249 | 10 |
| 2013-05-01T12:00 | 19094 | 65 | -64.6 | -94.2 | 251 | 10 |
| 2013-05-01T12:00 | 19103 | 64 | -64.5 | -94.1 | 253 | 9 |
| 2013-05-01T12:00 | 19112 | 64 | -64.4 | -94.0 | 255 | 9 |
| 2013-05-01T12:00 | 19122 | 64 | -64.4 | -94.0 | 257 | 9 |
| 2013-05-01T12:00 | 19131 | 64 | -64.4 | -94.0 | 258 | 8 |
| 2013-05-01T12:00 | 19141 | 64 | -64.3 | -93.9 | 260 | 8 |
| 2013-05-01T12:00 | 19151 | 64 | -64.3 | -93.9 | 262 | 8 |
| 2013-05-01T12:00 | 19161 | 64 | -64.3 | -93.9 | 263 | 8 |
| 2013-05-01T12:00 | 19173 | 64 | -64.3 | -93.9 | 265 | 7 |
| 2013-05-01T12:00 | 19183 | 64 | -64.3 | -93.9 | 267 | 7 |
| 2013-05-01T12:00 | 19192 | 64 | -64.2 | -93.9 | 268 | 7 |
| 2013-05-01T12:00 | 19201 | 63 | -64.2 | -93.8 | 270 | 6 |
| 2013-05-01T12:00 | 19210 | 63 | -64.1 | -93.8 | 271 | 6 |
| 2013-05-01T12:00 | 19219 | 63 | -64.1 | -93.8 | 273 | 6 |
| 2013-05-01T12:00 | 19229 | 63 | -64.1 | -93.8 | 275 | 6 |
| 2013-05-01T12:00 | 19239 | 63 | -64.2 | -93.8 | 277 | 5 |
| 2013-05-01T12:00 | 19250 | 63 | -64.2 | -93.8 | 278 | 5 |
| 2013-05-01T12:00 | 19260 | 63 | -64.1 | -93.8 | 280 | 5 |
| 2013-05-01T12:00 | 19269 | 63 | -64.0 | -93.7 | 282 | 4 |
| 2013-05-01T12:00 | 19279 | 63 | -63.9 | -93.7 | 283 | 4 |
| 2013-05-01T12:00 | 19287 | 63 | -63.9 | -93.6 | 285 | 4 |
| 2013-05-01T12:00 | 19298 | 62 | -63.9 | -93.6 | 286 | 3 |
| 2013-05-01T12:00 | 19309 | 62 | -63.9 | -93.7 | 287 | 3 |
| 2013-05-01T12:00 | 19319 | 62 | -64.0 | -93.7 | 288 | 3 |
| 2013-05-01T12:00 | 19330 | 62 | -64.0 | -93.7 | 288 | 2 |
| 2013-05-01T12:00 | 19340 | 62 | -63.9 | -93.6 | 287 | 2 |
| 2013-05-01T12:00 | 19351 | 62 | -63.8 | -93.5 | 285 | 2 |
| 2013-05-01T12:00 | 19361 | 62 | -63.6 | -93.4 | 280 | 1 |
| 2013-05-01T12:00 | 19371 | 62 | -63.5 | -93.4 | 273 | 1 |
| 2013-05-01T12:00 | 19381 | 62 | -63.5 | -93.3 | 262 | 1 |
| 2013-05-01T12:00 | 19391 | 61 | -63.5 | -93.3 | 248 | 1 |
| 2013-05-01T12:00 | 19400 | 61 | -63.4 | -93.3 | 234 | 1 |
| 2013-05-01T12:00 | 19410 | 61 | -63.3 | -93.2 | 223 | 1 |
| 2013-05-01T12:00 | 19421 | 61 | -63.1 | -93.0 | 216 | 1 |
| 2013-05-01T12:00 | 19431 | 61 | -63.1 | -93.0 | 212 | 1 |
| 2013-05-01T12:00 | 19440 | 61 | -63.0 | -93.0 | 210 | 1 |
| 2013-05-01T12:00 | 19449 | 61 | -62.9 | -92.9 | 209 | 1 |
| 2013-05-01T12:00 | 19459 | 61 | -62.9 | -92.9 | 208 | 1 |
| 2013-05-01T12:00 | 19470 | 61 | -62.8 | -92.9 | 206 | 2 |
| 2013-05-01T12:00 | 19481 | 61 | -62.8 | -92.8 | 204 | 2 |
| 2013-05-01T12:00 | 19490 | 61 | -62.7 | -92.8 | 202 | 2 |
| 2013-05-01T12:00 | 19500 | 60 | -62.7 | -92.7 | 199 | 2 |
| 2013-05-01T12:00 | 19511 | 60 | -62.7 | -92.7 | 195 | 2 |
| 2013-05-01T12:00 | 19522 | 60 | -62.7 | -92.7 | 191 | 2 |
| 2013-05-01T12:00 | 19530 | 60 | -62.6 | -92.7 | 187 | 2 |
| 2013-05-01T12:00 | 19539 | 60 | -62.4 | -92.6 | 183 | 2 |
| 2013-05-01T12:00 | 19550 | 60 | -62.3 | -92.5 | 179 | 2 |
| 2013-05-01T12:00 | 19560 | 60 | -62.3 | -92.5 | 175 | 3 |
| 2013-05-01T12:00 | 19570 | 60 | -62.3 | -92.5 | 171 | 3 |
| 2013-05-01T12:00 | 19579 | 60 | -62.3 | -92.5 | 168 | 3 |
| 2013-05-01T12:00 | 19587 | 60 | -62.4 | -92.5 | 165 | 3 |
| 2013-05-01T12:00 | 19597 | 59 | -62.4 | -92.6 | 163 | 3 |
| 2013-05-01T12:00 | 19606 | 59 | -62.5 | -92.6 | 161 | 3 |
| 2013-05-01T12:00 | 19617 | 59 | -62.5 | -92.6 | 159 | 3 |
| 2013-05-01T12:00 | 19629 | 59 | -62.6 | -92.7 | 158 | 3 |
| 2013-05-01T12:00 | 19639 | 59 | -62.7 | -92.7 | 156 | 4 |
| 2013-05-01T12:00 | 19648 | 59 | -62.7 | -92.8 | 155 | 4 |
| 2013-05-01T12:00 | 19656 | 59 | -62.8 | -92.8 | 154 | 4 |
| 2013-05-01T12:00 | 19664 | 59 | -62.9 | -92.9 | 152 | 4 |
| 2013-05-01T12:00 | 19673 | 59 | -63.0 | -93.0 | 151 | 4 |
| 2013-05-01T12:00 | 19685 | 59 | -63.1 | -93.0 | 150 | 4 |
| 2013-05-01T12:00 | 19696 | 59 | -63.2 | -93.1 | 148 | 4 |
| 2013-05-01T12:00 | 19705 | 58 | -63.2 | -93.1 | 147 | 5 |
| 2013-05-01T12:00 | 19716 | 58 | -63.1 | -93.1 | 146 | 5 |
| 2013-05-01T12:00 | 19728 | 58 | -63.2 | -93.1 | 144 | 5 |
| 2013-05-01T12:00 | 19738 | 58 | -63.2 | -93.1 | 143 | 5 |
| 2013-05-01T12:00 | 19747 | 58 | -63.2 | -93.1 | 143 | 5 |
| 2013-05-01T12:00 | 19757 | 58 | -63.2 | -93.1 | 142 | 5 |
| 2013-05-01T12:00 | 19766 | 58 | -63.2 | -93.1 | 142 | 5 |
| 2013-05-01T12:00 | 19776 | 58 | -63.1 | -93.1 | 142 | 6 |
| 2013-05-01T12:00 | 19786 | 58 | -63.1 | -93.0 | 142 | 6 |
| 2013-05-01T12:00 | 19796 | 58 | -63.1 | -93.1 | 142 | 6 |
| 2013-05-01T12:00 | 19806 | 57 | -63.1 | -93.1 | 143 | 6 |
| 2013-05-01T12:00 | 19816 | 57 | -63.1 | -93.0 | 144 | 6 |
| 2013-05-01T12:00 | 19826 | 57 | -63.1 | -93.0 | 145 | 6 |
| 2013-05-01T12:00 | 19835 | 57 | -63.1 | -93.1 | 147 | 6 |
| 2013-05-01T12:00 | 19844 | 57 | -63.2 | -93.1 | 148 | 6 |
| 2013-05-01T12:00 | 19855 | 57 | -63.2 | -93.1 | 150 | 6 |
| 2013-05-01T12:00 | 19866 | 57 | -63.3 | -93.2 | 151 | 6 |
| 2013-05-01T12:00 | 19877 | 57 | -63.3 | -93.2 | 153 | 6 |
| 2013-05-01T12:00 | 19885 | 57 | -63.4 | -93.2 | 155 | 6 |
| 2013-05-01T12:00 | 19894 | 57 | -63.4 | -93.3 | 156 | 6 |
| 2013-05-01T12:00 | 19905 | 57 | -63.5 | -93.3 | 158 | 6 |
| 2013-05-01T12:00 | 19915 | 56 | -63.6 | -93.4 | 160 | 6 |
| 2013-05-01T12:00 | 19925 | 56 | -63.7 | -93.5 | 162 | 6 |
| 2013-05-01T12:00 | 19934 | 56 | -63.7 | -93.5 | 163 | 6 |
| 2013-05-01T12:00 | 19943 | 56 | -63.8 | -93.6 | 165 | 6 |
| 2013-05-01T12:00 | 19955 | 56 | -63.9 | -93.6 | 166 | 6 |
| 2013-05-01T12:00 | 19964 | 56 | -64.0 | -93.7 | 168 | 6 |
| 2013-05-01T12:00 | 19974 | 56 | -64.0 | -93.7 | 170 | 6 |
| 2013-05-01T12:00 | 19984 | 56 | -64.1 | -93.8 | 171 | 6 |
| 2013-05-01T12:00 | 19994 | 56 | -64.2 | -93.8 | 173 | 7 |
| 2013-05-01T12:00 | 20004 | 56 | -64.2 | -93.9 | 175 | 7 |
| 2013-05-01T12:00 | 20015 | 56 | -64.3 | -93.9 | 176 | 7 |
| 2013-05-01T12:00 | 20025 | 55 | -64.3 | -93.9 | 178 | 7 |
| 2013-05-01T12:00 | 20037 | 55 | -64.4 | -94.0 | 180 | 7 |
| 2013-05-01T12:00 | 20046 | 55 | -64.5 | -94.0 | 181 | 7 |
| 2013-05-01T12:00 | 20055 | 55 | -64.5 | -94.0 | 183 | 6 |
| 2013-05-01T12:00 | 20066 | 55 | -64.5 | -94.0 | 185 | 6 |
| 2013-05-01T12:00 | 20077 | 55 | -64.5 | -94.1 | 187 | 6 |
| 2013-05-01T12:00 | 20086 | 55 | -64.5 | -94.1 | 189 | 6 |
| 2013-05-01T12:00 | 20096 | 55 | -64.5 | -94.1 | 191 | 6 |
| 2013-05-01T12:00 | 20107 | 55 | -64.5 | -94.1 | 193 | 6 |
| 2013-05-01T12:00 | 20116 | 55 | -64.6 | -94.1 | 195 | 6 |
| 2013-05-01T12:00 | 20125 | 55 | -64.6 | -94.1 | 197 | 5 |
| 2013-05-01T12:00 | 20135 | 54 | -64.6 | -94.1 | 200 | 5 |
| 2013-05-01T12:00 | 20146 | 54 | -64.6 | -94.1 | 202 | 5 |
| 2013-05-01T12:00 | 20157 | 54 | -64.6 | -94.2 | 205 | 5 |
| 2013-05-01T12:00 | 20166 | 54 | -64.7 | -94.2 | 207 | 5 |
| 2013-05-01T12:00 | 20175 | 54 | -64.7 | -94.2 | 210 | 4 |
| 2013-05-01T12:00 | 20185 | 54 | -64.7 | -94.2 | 213 | 4 |
| 2013-05-01T12:00 | 20195 | 54 | -64.7 | -94.2 | 215 | 4 |
| 2013-05-01T12:00 | 20205 | 54 | -64.7 | -94.2 | 218 | 4 |
| 2013-05-01T12:00 | 20215 | 54 | -64.7 | -94.2 | 220 | 4 |
| 2013-05-01T12:00 | 20225 | 54 | -64.7 | -94.2 | 222 | 3 |
| 2013-05-01T12:00 | 20235 | 54 | -64.7 | -94.2 | 224 | 3 |
| 2013-05-01T12:00 | 20246 | 54 | -64.7 | -94.2 | 226 | 3 |
| 2013-05-01T12:00 | 20257 | 53 | -64.7 | -94.2 | 228 | 3 |
| 2013-05-01T12:00 | 20267 | 53 | -64.7 | -94.2 | 229 | 3 |
| 2013-05-01T12:00 | 20277 | 53 | -64.7 | -94.2 | 230 | 3 |
| 2013-05-01T12:00 | 20287 | 53 | -64.6 | -94.1 | 230 | 3 |
| 2013-05-01T12:00 | 20299 | 53 | -64.5 | -94.1 | 229 | 3 |
| 2013-05-01T12:00 | 20309 | 53 | -64.4 | -94.0 | 228 | 3 |
| 2013-05-01T12:00 | 20318 | 53 | -64.4 | -94.0 | 226 | 3 |
| 2013-05-01T12:00 | 20328 | 53 | -64.4 | -94.0 | 224 | 3 |
| 2013-05-01T12:00 | 20339 | 53 | -64.4 | -94.0 | 221 | 3 |
| 2013-05-01T12:00 | 20350 | 53 | -64.4 | -94.0 | 218 | 3 |
| 2013-05-01T12:00 | 20359 | 53 | -64.4 | -94.0 | 215 | 3 |
| 2013-05-01T12:00 | 20368 | 52 | -64.5 | -94.0 | 212 | 3 |
| 2013-05-01T12:00 | 20379 | 52 | -64.5 | -94.0 | 209 | 3 |
| 2013-05-01T12:00 | 20390 | 52 | -64.5 | -94.0 | 206 | 3 |
| 2013-05-01T12:00 | 20400 | 52 | -64.5 | -94.1 | 204 | 3 |
| 2013-05-01T12:00 | 20410 | 52 | -64.6 | -94.1 | 202 | 4 |
| 2013-05-01T12:00 | 20421 | 52 | -64.6 | -94.1 | 201 | 4 |
| 2013-05-01T12:00 | 20432 | 52 | -64.6 | -94.1 | 200 | 4 |
| 2013-05-01T12:00 | 20442 | 52 | -64.6 | -94.1 | 199 | 4 |
| 2013-05-01T12:00 | 20452 | 52 | -64.6 | -94.1 | 198 | 4 |
| 2013-05-01T12:00 | 20463 | 52 | -64.5 | -94.1 | 198 | 4 |
| 2013-05-01T12:00 | 20473 | 52 | -64.5 | -94.1 | 198 | 5 |
| 2013-05-01T12:00 | 20483 | 51 | -64.6 | -94.1 | 197 | 5 |
| 2013-05-01T12:00 | 20494 | 51 | -64.6 | -94.1 | 197 | 5 |
| 2013-05-01T12:00 | 20505 | 51 | -64.6 | -94.1 | 197 | 5 |
| 2013-05-01T12:00 | 20515 | 51 | -64.6 | -94.1 | 197 | 5 |
| 2013-05-01T12:00 | 20525 | 51 | -64.6 | -94.1 | 197 | 5 |
| 2013-05-01T12:00 | 20536 | 51 | -64.7 | -94.2 | 196 | 5 |
| 2013-05-01T12:00 | 20547 | 51 | -64.7 | -94.2 | 196 | 5 |
| 2013-05-01T12:00 | 20557 | 51 | -64.7 | -94.2 | 195 | 5 |
| 2013-05-01T12:00 | 20568 | 51 | -64.7 | -94.2 | 193 | 4 |
| 2013-05-01T12:00 | 20578 | 51 | -64.7 | -94.2 | 192 | 4 |
| 2013-05-01T12:00 | 20588 | 51 | -64.6 | -94.1 | 190 | 4 |
| 2013-05-01T12:00 | 20599 | 51 | -64.4 | -94.0 | 188 | 4 |
| 2013-05-01T12:00 | 20610 | 50 | -64.3 | -93.9 | 186 | 4 |
| 2013-05-01T12:00 | 20621 | 50 | -64.2 | -93.8 | 183 | 4 |
| 2013-05-01T12:00 | 20631 | 50 | -64.1 | -93.8 | 181 | 4 |
| 2013-05-01T12:00 | 20641 | 50 | -64.0 | -93.7 | 179 | 4 |
| 2013-05-01T12:00 | 20652 | 50 | -63.9 | -93.6 | 177 | 4 |
| 2013-05-01T12:00 | 20663 | 50 | -63.8 | -93.5 | 176 | 4 |
| 2013-05-01T12:00 | 20674 | 50 | -63.7 | -93.5 | 176 | 4 |
| 2013-05-01T12:00 | 20685 | 50 | -63.7 | -93.5 | 176 | 4 |
| 2013-05-01T12:00 | 20697 | 50 | -63.7 | -93.5 | 177 | 4 |
| 2013-05-01T12:00 | 20708 | 50 | -63.8 | -93.5 | 178 | 4 |
| 2013-05-01T12:00 | 20719 | 50 | -63.8 | -93.6 | 180 | 4 |
| 2013-05-01T12:00 | 20730 | 49 | -63.8 | -93.6 | 182 | 4 |
| 2013-05-01T12:00 | 20740 | 49 | -63.8 | -93.6 | 184 | 4 |
| 2013-05-01T12:00 | 20751 | 49 | -63.7 | -93.5 | 187 | 4 |
| 2013-05-01T12:00 | 20761 | 49 | -63.6 | -93.4 | 189 | 4 |
| 2013-05-01T12:00 | 20770 | 49 | -63.6 | -93.4 | 192 | 4 |
| 2013-05-01T12:00 | 20780 | 49 | -63.6 | -93.4 | 195 | 3 |
| 2013-05-01T12:00 | 20790 | 49 | -63.6 | -93.4 | 197 | 3 |
| 2013-05-01T12:00 | 20804 | 49 | -63.6 | -93.4 | 200 | 3 |
| 2013-05-01T12:00 | 20814 | 49 | -63.5 | -93.4 | 202 | 3 |
| 2013-05-01T12:00 | 20824 | 49 | -63.4 | -93.3 | 205 | 3 |
| 2013-05-01T12:00 | 20833 | 49 | -63.3 | -93.2 | 207 | 3 |
| 2013-05-01T12:00 | 20843 | 49 | -63.1 | -93.1 | 210 | 3 |
| 2013-05-01T12:00 | 20854 | 48 | -62.9 | -92.9 | 213 | 3 |
| 2013-05-01T12:00 | 20865 | 48 | -62.8 | -92.8 | 216 | 3 |
| 2013-05-01T12:00 | 20875 | 48 | -62.7 | -92.8 | 219 | 3 |
| 2013-05-01T12:00 | 20884 | 48 | -62.7 | -92.7 | 223 | 3 |
| 2013-05-01T12:00 | 20895 | 48 | -62.7 | -92.7 | 227 | 3 |
| 2013-05-01T12:00 | 20905 | 48 | -62.7 | -92.8 | 231 | 3 |
| 2013-05-01T12:00 | 20916 | 48 | -62.7 | -92.8 | 234 | 3 |
| 2013-05-01T12:00 | 20929 | 48 | -62.7 | -92.7 | 238 | 3 |
| 2013-05-01T12:00 | 20939 | 48 | -62.6 | -92.7 | 242 | 3 |
| 2013-05-01T12:00 | 20948 | 48 | -62.6 | -92.7 | 246 | 3 |
| 2013-05-01T12:00 | 20960 | 48 | -62.6 | -92.7 | 250 | 3 |
| 2013-05-01T12:00 | 20971 | 48 | -62.6 | -92.7 | 253 | 3 |
| 2013-05-01T12:00 | 20980 | 47 | -62.6 | -92.7 | 257 | 3 |
| 2013-05-01T12:00 | 20991 | 47 | -62.6 | -92.7 | 261 | 3 |
| 2013-05-01T12:00 | 21005 | 47 | -62.7 | -92.8 | 264 | 3 |
| 2013-05-01T12:00 | 21015 | 47 | -62.8 | -92.8 | 268 | 3 |
| 2013-05-01T12:00 | 21025 | 47 | -62.9 | -92.9 | 272 | 3 |
| 2013-05-01T12:00 | 21036 | 47 | -62.9 | -92.9 | 276 | 3 |
| 2013-05-01T12:00 | 21047 | 47 | -63.0 | -93.0 | 280 | 3 |
| 2013-05-01T12:00 | 21057 | 47 | -63.1 | -93.0 | 284 | 3 |
| 2013-05-01T12:00 | 21068 | 47 | -63.1 | -93.0 | 288 | 3 |
| 2013-05-01T12:00 | 21079 | 47 | -63.1 | -93.0 | 292 | 3 |
| 2013-05-01T12:00 | 21090 | 47 | -63.1 | -93.1 | 296 | 3 |
| 2013-05-01T12:00 | 21100 | 47 | -63.1 | -93.1 | 301 | 3 |
| 2013-05-01T12:00 | 21111 | 46 | -63.2 | -93.1 | 305 | 3 |
| 2013-05-01T12:00 | 21122 | 46 | -63.2 | -93.1 | 309 | 3 |
| 2013-05-01T12:00 | 21133 | 46 | -63.2 | -93.1 | 313 | 3 |
| 2013-05-01T12:00 | 21143 | 46 | -63.2 | -93.1 | 318 | 3 |
| 2013-05-01T12:00 | 21152 | 46 | -63.2 | -93.1 | 323 | 3 |
| 2013-05-01T12:00 | 21163 | 46 | -63.1 | -93.0 | 328 | 3 |
| 2013-05-01T12:00 | 21174 | 46 | -63.0 | -92.9 | 334 | 2 |
| 2013-05-01T12:00 | 21183 | 46 | -62.9 | -92.9 | 341 | 2 |
| 2013-05-01T12:00 | 21194 | 46 | -62.8 | -92.8 | 350 | 2 |
| 2013-05-01T12:00 | 21206 | 46 | -62.7 | -92.8 | 1 | 2 |
| 2013-05-01T12:00 | 21217 | 46 | -62.7 | -92.8 | 15 | 1 |
| 2013-05-01T12:00 | 21228 | 46 | -62.7 | -92.7 | 33 | 1 |
| 2013-05-01T12:00 | 21239 | 46 | -62.6 | -92.7 | 54 | 1 |
| 2013-05-01T12:00 | 21248 | 45 | -62.6 | -92.7 | 74 | 1 |
| 2013-05-01T12:00 | 21259 | 45 | -62.5 | -92.7 | 91 | 1 |
| 2013-05-01T12:00 | 21271 | 45 | -62.5 | -92.6 | 103 | 2 |
| 2013-05-01T12:00 | 21282 | 45 | -62.5 | -92.6 | 113 | 2 |
| 2013-05-01T12:00 | 21292 | 45 | -62.5 | -92.6 | 120 | 2 |
| 2013-05-01T12:00 | 21301 | 45 | -62.5 | -92.6 | 126 | 2 |
| 2013-05-01T12:00 | 21311 | 45 | -62.5 | -92.6 | 130 | 3 |
| 2013-05-01T12:00 | 21322 | 45 | -62.5 | -92.6 | 133 | 3 |
| 2013-05-01T12:00 | 21333 | 45 | -62.5 | -92.7 | 136 | 3 |
| 2013-05-01T12:00 | 21344 | 45 | -62.6 | -92.7 | 139 | 3 |
| 2013-05-01T12:00 | 21356 | 45 | -62.6 | -92.7 | 141 | 3 |
| 2013-05-01T12:00 | 21365 | 45 | -62.5 | -92.6 | 143 | 3 |
| 2013-05-01T12:00 | 21375 | 45 | -62.4 | -92.5 | 145 | 3 |
| 2013-05-01T12:00 | 21384 | 44 | -62.3 | -92.5 | 146 | 3 |
| 2013-05-01T12:00 | 21393 | 44 | -62.0 | -92.3 | 148 | 3 |
| 2013-05-01T12:00 | 21404 | 44 | -61.7 | -92.1 | 150 | 3 |
| 2013-05-01T12:00 | 21415 | 44 | -61.7 | -92.0 | 152 | 3 |
| 2013-05-01T12:00 | 21425 | 44 | -61.7 | -92.0 | 154 | 3 |
| 2013-05-01T12:00 | 21436 | 44 | -61.7 | -92.0 | 158 | 2 |
| 2013-05-01T12:00 | 21447 | 44 | -61.7 | -92.0 | 162 | 2 |
| 2013-05-01T12:00 | 21458 | 44 | -61.6 | -92.0 | 168 | 2 |
| 2013-05-01T12:00 | 21468 | 44 | -61.6 | -92.0 | 176 | 2 |
| 2013-05-01T12:00 | 21478 | 44 | -61.7 | -92.0 | 187 | 1 |
| 2013-05-01T12:00 | 21488 | 44 | -61.7 | -92.1 | 202 | 1 |
| 2013-05-01T12:00 | 21498 | 44 | -61.7 | -92.1 | 219 | 1 |
| 2013-05-01T12:00 | 21507 | 44 | -61.7 | -92.1 | 236 | 1 |
| 2013-05-01T12:00 | 21517 | 44 | -61.7 | -92.1 | 250 | 1 |
| 2013-05-01T12:00 | 21528 | 43 | -61.6 | -92.0 | 262 | 1 |
| 2013-05-01T12:00 | 21538 | 43 | -61.5 | -91.9 | 271 | 2 |
| 2013-05-01T12:00 | 21547 | 43 | -61.5 | -91.9 | 279 | 2 |
| 2013-05-01T12:00 | 21557 | 43 | -61.4 | -91.8 | 285 | 2 |
| 2013-05-01T12:00 | 21567 | 43 | -61.4 | -91.8 | 290 | 2 |
| 2013-05-01T12:00 | 21578 | 43 | -61.4 | -91.8 | 295 | 3 |
| 2013-05-01T12:00 | 21589 | 43 | -61.3 | -91.8 | 300 | 3 |
| 2013-05-01T12:00 | 21601 | 43 | -61.3 | -91.8 | 304 | 3 |
| 2013-05-01T12:00 | 21612 | 43 | -61.3 | -91.8 | 308 | 3 |
| 2013-05-01T12:00 | 21622 | 43 | -61.3 | -91.8 | 312 | 3 |
| 2013-05-01T12:00 | 21633 | 43 | -61.4 | -91.8 | 316 | 3 |
| 2013-05-01T12:00 | 21643 | 43 | -61.4 | -91.8 | 320 | 3 |
| 2013-05-01T12:00 | 21651 | 43 | -61.4 | -91.9 | 325 | 4 |
| 2013-05-01T12:00 | 21659 | 43 | -61.5 | -91.9 | 329 | 4 |
| 2013-05-01T12:00 | 21668 | 42 | -61.5 | -91.9 | 333 | 4 |
| 2013-05-01T12:00 | 21679 | 42 | -61.4 | -91.8 | 338 | 4 |
| 2013-05-01T12:00 | 21689 | 42 | -61.3 | -91.8 | 342 | 4 |
| 2013-05-01T12:00 | 21699 | 42 | -61.3 | -91.8 | 347 | 4 |
| 2013-05-01T12:00 | 21710 | 42 | -61.4 | -91.8 | 351 | 4 |
| 2013-05-01T12:00 | 21721 | 42 | -61.4 | -91.8 | 355 | 4 |
| 2013-05-01T12:00 | 21731 | 42 | -61.4 | -91.8 | 359 | 4 |
| 2013-05-01T12:00 | 21742 | 42 | -61.4 | -91.8 | 2 | 4 |
| 2013-05-01T12:00 | 21752 | 42 | -61.4 | -91.8 | 5 | 4 |
Only the first 2000 rows were shown. To view the complete dataset, download it as tab-delimited text. You can still view the full matrix in your browser, but be aware that this may crash the browser due to the huge size.
